<?xml version="1.0" encoding="UTF-8" standalone="no" ?>
<gpx xmlns="http://www.topografix.com/GPX/1/1" xmlns:xsi="http://www.w3.org/2001/XMLSchema-instance" xsi:schemaLocation="http://www.topografix.com/GPX/1/1 http://www.topografix.com/GPX/1/1/gpx.xsd" version="1.1" creator="VisuGPX - https://www.visugpx.com">
  <metadata>
    <name>2014-09-28-01</name>
  </metadata>
  <trk>
    <name><![CDATA[2014-09-28-01]]></name>
    <trkseg>
      <trkpt lat="45.92411" lon="4.58515">
        <ele>374.9</ele>
        <time>2014-09-28T08:20:32Z</time>
      </trkpt>
      <trkpt lat="45.92416" lon="4.58516">
        <ele>375.1</ele>
        <time>2014-09-28T08:20:33Z</time>
      </trkpt>
      <trkpt lat="45.92428" lon="4.58519">
        <ele>375.3</ele>
        <time>2014-09-28T08:20:45Z</time>
      </trkpt>
      <trkpt lat="45.92436" lon="4.58522">
        <ele>375.5</ele>
        <time>2014-09-28T08:20:54Z</time>
      </trkpt>
      <trkpt lat="45.92445" lon="4.58524">
        <ele>375.6</ele>
        <time>2014-09-28T08:21:03Z</time>
      </trkpt>
      <trkpt lat="45.92454" lon="4.58526">
        <ele>375.5</ele>
        <time>2014-09-28T08:21:12Z</time>
      </trkpt>
      <trkpt lat="45.92463" lon="4.58525">
        <ele>375.6</ele>
        <time>2014-09-28T08:21:39Z</time>
      </trkpt>
      <trkpt lat="45.92463" lon="4.58525">
        <ele>375.6</ele>
        <time>2014-09-28T08:21:40Z</time>
      </trkpt>
      <trkpt lat="45.92479" lon="4.58527">
        <ele>375.6</ele>
        <time>2014-09-28T08:22:05Z</time>
      </trkpt>
      <trkpt lat="45.92488" lon="4.58529">
        <ele>375.5</ele>
        <time>2014-09-28T08:22:13Z</time>
      </trkpt>
      <trkpt lat="45.92497" lon="4.58531">
        <ele>375.2</ele>
        <time>2014-09-28T08:22:22Z</time>
      </trkpt>
      <trkpt lat="45.92505" lon="4.58533">
        <ele>375</ele>
        <time>2014-09-28T08:22:31Z</time>
      </trkpt>
      <trkpt lat="45.92514" lon="4.58534">
        <ele>374.7</ele>
        <time>2014-09-28T08:22:41Z</time>
      </trkpt>
      <trkpt lat="45.92515" lon="4.58534">
        <ele>374.7</ele>
        <time>2014-09-28T08:22:42Z</time>
      </trkpt>
      <trkpt lat="45.92531" lon="4.58535">
        <ele>374.2</ele>
        <time>2014-09-28T08:23:06Z</time>
      </trkpt>
      <trkpt lat="45.9254" lon="4.58536">
        <ele>374</ele>
        <time>2014-09-28T08:23:14Z</time>
      </trkpt>
      <trkpt lat="45.92548" lon="4.58537">
        <ele>374</ele>
        <time>2014-09-28T08:23:23Z</time>
      </trkpt>
      <trkpt lat="45.92557" lon="4.58535">
        <ele>374.1</ele>
        <time>2014-09-28T08:23:32Z</time>
      </trkpt>
      <trkpt lat="45.92566" lon="4.58535">
        <ele>374.2</ele>
        <time>2014-09-28T08:23:42Z</time>
      </trkpt>
      <trkpt lat="45.92567" lon="4.58535">
        <ele>374.2</ele>
        <time>2014-09-28T08:23:43Z</time>
      </trkpt>
      <trkpt lat="45.92582" lon="4.58537">
        <ele>374.3</ele>
        <time>2014-09-28T08:23:53Z</time>
      </trkpt>
      <trkpt lat="45.9259" lon="4.58538">
        <ele>374.5</ele>
        <time>2014-09-28T08:24:00Z</time>
      </trkpt>
      <trkpt lat="45.92599" lon="4.58538">
        <ele>374.7</ele>
        <time>2014-09-28T08:24:09Z</time>
      </trkpt>
      <trkpt lat="45.92607" lon="4.58538">
        <ele>374.8</ele>
        <time>2014-09-28T08:24:18Z</time>
      </trkpt>
      <trkpt lat="45.92616" lon="4.58538">
        <ele>375.1</ele>
        <time>2014-09-28T08:24:28Z</time>
      </trkpt>
      <trkpt lat="45.92625" lon="4.58537">
        <ele>375.2</ele>
        <time>2014-09-28T08:24:38Z</time>
      </trkpt>
      <trkpt lat="45.92633" lon="4.58538">
        <ele>375.5</ele>
        <time>2014-09-28T08:24:47Z</time>
      </trkpt>
      <trkpt lat="45.92633" lon="4.58539">
        <ele>375.6</ele>
        <time>2014-09-28T08:24:48Z</time>
      </trkpt>
      <trkpt lat="45.9265" lon="4.58541">
        <ele>375.2</ele>
        <time>2014-09-28T08:25:13Z</time>
      </trkpt>
      <trkpt lat="45.92657" lon="4.58548">
        <ele>375.5</ele>
        <time>2014-09-28T08:26:13Z</time>
      </trkpt>
      <trkpt lat="45.92657" lon="4.58548">
        <ele>375.5</ele>
        <time>2014-09-28T08:26:14Z</time>
      </trkpt>
      <trkpt lat="45.92674" lon="4.58552">
        <ele>376</ele>
        <time>2014-09-28T08:26:38Z</time>
      </trkpt>
      <trkpt lat="45.92683" lon="4.58553">
        <ele>376.2</ele>
        <time>2014-09-28T08:26:50Z</time>
      </trkpt>
      <trkpt lat="45.92691" lon="4.58554">
        <ele>376.3</ele>
        <time>2014-09-28T08:27:00Z</time>
      </trkpt>
      <trkpt lat="45.92699" lon="4.58554">
        <ele>376.7</ele>
        <time>2014-09-28T08:27:09Z</time>
      </trkpt>
      <trkpt lat="45.92708" lon="4.58555">
        <ele>377.1</ele>
        <time>2014-09-28T08:27:18Z</time>
      </trkpt>
      <trkpt lat="45.92709" lon="4.58555">
        <ele>377.2</ele>
        <time>2014-09-28T08:27:19Z</time>
      </trkpt>
      <trkpt lat="45.92724" lon="4.58559">
        <ele>377.8</ele>
        <time>2014-09-28T08:27:34Z</time>
      </trkpt>
      <trkpt lat="45.92733" lon="4.58558">
        <ele>378.1</ele>
        <time>2014-09-28T08:27:46Z</time>
      </trkpt>
      <trkpt lat="45.92742" lon="4.58558">
        <ele>378.3</ele>
        <time>2014-09-28T08:28:02Z</time>
      </trkpt>
      <trkpt lat="45.9275" lon="4.58556">
        <ele>378.7</ele>
        <time>2014-09-28T08:28:10Z</time>
      </trkpt>
      <trkpt lat="45.92759" lon="4.58555">
        <ele>379.2</ele>
        <time>2014-09-28T08:28:20Z</time>
      </trkpt>
      <trkpt lat="45.9276" lon="4.58555">
        <ele>379.2</ele>
        <time>2014-09-28T08:28:21Z</time>
      </trkpt>
      <trkpt lat="45.92776" lon="4.58557">
        <ele>380.3</ele>
        <time>2014-09-28T08:28:38Z</time>
      </trkpt>
      <trkpt lat="45.92784" lon="4.58554">
        <ele>380.8</ele>
        <time>2014-09-28T08:28:47Z</time>
      </trkpt>
      <trkpt lat="45.92793" lon="4.5855">
        <ele>381.2</ele>
        <time>2014-09-28T08:29:02Z</time>
      </trkpt>
      <trkpt lat="45.92802" lon="4.58549">
        <ele>381.5</ele>
        <time>2014-09-28T08:29:10Z</time>
      </trkpt>
      <trkpt lat="45.92809" lon="4.58545">
        <ele>381.7</ele>
        <time>2014-09-28T08:29:15Z</time>
      </trkpt>
      <trkpt lat="45.92817" lon="4.58541">
        <ele>382.2</ele>
        <time>2014-09-28T08:29:21Z</time>
      </trkpt>
      <trkpt lat="45.92818" lon="4.58541">
        <ele>382.2</ele>
        <time>2014-09-28T08:29:22Z</time>
      </trkpt>
      <trkpt lat="45.92833" lon="4.58534">
        <ele>382.7</ele>
        <time>2014-09-28T08:29:35Z</time>
      </trkpt>
      <trkpt lat="45.92841" lon="4.5853">
        <ele>383.2</ele>
        <time>2014-09-28T08:29:43Z</time>
      </trkpt>
      <trkpt lat="45.92849" lon="4.58524">
        <ele>383.5</ele>
        <time>2014-09-28T08:29:51Z</time>
      </trkpt>
      <trkpt lat="45.92857" lon="4.58518">
        <ele>383.7</ele>
        <time>2014-09-28T08:29:59Z</time>
      </trkpt>
      <trkpt lat="45.92864" lon="4.58513">
        <ele>384.2</ele>
        <time>2014-09-28T08:30:06Z</time>
      </trkpt>
      <trkpt lat="45.92871" lon="4.58506">
        <ele>384.7</ele>
        <time>2014-09-28T08:30:13Z</time>
      </trkpt>
      <trkpt lat="45.92879" lon="4.585">
        <ele>385.2</ele>
        <time>2014-09-28T08:30:20Z</time>
      </trkpt>
      <trkpt lat="45.92886" lon="4.58497">
        <ele>385.7</ele>
        <time>2014-09-28T08:30:26Z</time>
      </trkpt>
      <trkpt lat="45.92888" lon="4.58497">
        <ele>385.7</ele>
        <time>2014-09-28T08:30:27Z</time>
      </trkpt>
      <trkpt lat="45.92902" lon="4.5849">
        <ele>387</ele>
        <time>2014-09-28T08:30:40Z</time>
      </trkpt>
      <trkpt lat="45.9291" lon="4.58487">
        <ele>387.5</ele>
        <time>2014-09-28T08:30:47Z</time>
      </trkpt>
      <trkpt lat="45.92919" lon="4.58484">
        <ele>388</ele>
        <time>2014-09-28T08:30:55Z</time>
      </trkpt>
      <trkpt lat="45.92926" lon="4.58479">
        <ele>388.7</ele>
        <time>2014-09-28T08:31:03Z</time>
      </trkpt>
      <trkpt lat="45.92934" lon="4.58474">
        <ele>389.5</ele>
        <time>2014-09-28T08:31:12Z</time>
      </trkpt>
      <trkpt lat="45.92942" lon="4.58469">
        <ele>390.2</ele>
        <time>2014-09-28T08:31:21Z</time>
      </trkpt>
      <trkpt lat="45.9295" lon="4.58465">
        <ele>390.6</ele>
        <time>2014-09-28T08:31:30Z</time>
      </trkpt>
      <trkpt lat="45.9295" lon="4.58465">
        <ele>390.6</ele>
        <time>2014-09-28T08:31:31Z</time>
      </trkpt>
      <trkpt lat="45.92966" lon="4.58458">
        <ele>389.7</ele>
        <time>2014-09-28T08:31:50Z</time>
      </trkpt>
      <trkpt lat="45.92972" lon="4.5845">
        <ele>389.3</ele>
        <time>2014-09-28T08:31:59Z</time>
      </trkpt>
      <trkpt lat="45.92979" lon="4.58442">
        <ele>389.6</ele>
        <time>2014-09-28T08:32:11Z</time>
      </trkpt>
      <trkpt lat="45.92987" lon="4.58437">
        <ele>389.8</ele>
        <time>2014-09-28T08:32:21Z</time>
      </trkpt>
      <trkpt lat="45.92995" lon="4.58433">
        <ele>390.3</ele>
        <time>2014-09-28T08:32:30Z</time>
      </trkpt>
      <trkpt lat="45.93003" lon="4.58429">
        <ele>390.8</ele>
        <time>2014-09-28T08:32:40Z</time>
      </trkpt>
      <trkpt lat="45.93004" lon="4.58429">
        <ele>391</ele>
        <time>2014-09-28T08:32:41Z</time>
      </trkpt>
      <trkpt lat="45.93018" lon="4.5842">
        <ele>392</ele>
        <time>2014-09-28T08:32:56Z</time>
      </trkpt>
      <trkpt lat="45.93026" lon="4.58417">
        <ele>392.7</ele>
        <time>2014-09-28T08:33:02Z</time>
      </trkpt>
      <trkpt lat="45.93033" lon="4.58413">
        <ele>393.5</ele>
        <time>2014-09-28T08:33:09Z</time>
      </trkpt>
      <trkpt lat="45.93038" lon="4.58402">
        <ele>394.6</ele>
        <time>2014-09-28T08:33:23Z</time>
      </trkpt>
      <trkpt lat="45.93042" lon="4.58391">
        <ele>395.2</ele>
        <time>2014-09-28T08:33:55Z</time>
      </trkpt>
      <trkpt lat="45.93042" lon="4.5839">
        <ele>395.2</ele>
        <time>2014-09-28T08:33:56Z</time>
      </trkpt>
      <trkpt lat="45.93042" lon="4.58382">
        <ele>397.7</ele>
        <time>2014-09-28T08:35:26Z</time>
      </trkpt>
      <trkpt lat="45.93043" lon="4.58382">
        <ele>397.7</ele>
        <time>2014-09-28T08:35:27Z</time>
      </trkpt>
      <trkpt lat="45.93057" lon="4.58371">
        <ele>398.8</ele>
        <time>2014-09-28T08:35:44Z</time>
      </trkpt>
      <trkpt lat="45.93064" lon="4.58363">
        <ele>399.3</ele>
        <time>2014-09-28T08:35:52Z</time>
      </trkpt>
      <trkpt lat="45.93069" lon="4.58354">
        <ele>399.7</ele>
        <time>2014-09-28T08:36:00Z</time>
      </trkpt>
      <trkpt lat="45.93073" lon="4.58343">
        <ele>400.1</ele>
        <time>2014-09-28T08:36:09Z</time>
      </trkpt>
      <trkpt lat="45.93074" lon="4.58331">
        <ele>400.2</ele>
        <time>2014-09-28T08:36:18Z</time>
      </trkpt>
      <trkpt lat="45.93077" lon="4.58319">
        <ele>400.7</ele>
        <time>2014-09-28T08:36:26Z</time>
      </trkpt>
      <trkpt lat="45.9308" lon="4.58309">
        <ele>401.1</ele>
        <time>2014-09-28T08:36:34Z</time>
      </trkpt>
      <trkpt lat="45.93081" lon="4.58307">
        <ele>401.1</ele>
        <time>2014-09-28T08:36:35Z</time>
      </trkpt>
      <trkpt lat="45.93089" lon="4.58288">
        <ele>401.8</ele>
        <time>2014-09-28T08:36:47Z</time>
      </trkpt>
      <trkpt lat="45.93093" lon="4.58279">
        <ele>402.3</ele>
        <time>2014-09-28T08:36:54Z</time>
      </trkpt>
      <trkpt lat="45.93097" lon="4.58269">
        <ele>402.7</ele>
        <time>2014-09-28T08:37:01Z</time>
      </trkpt>
      <trkpt lat="45.93102" lon="4.58259">
        <ele>403.2</ele>
        <time>2014-09-28T08:37:09Z</time>
      </trkpt>
      <trkpt lat="45.93108" lon="4.5825">
        <ele>403.7</ele>
        <time>2014-09-28T08:37:16Z</time>
      </trkpt>
      <trkpt lat="45.93112" lon="4.5824">
        <ele>404.1</ele>
        <time>2014-09-28T08:37:23Z</time>
      </trkpt>
      <trkpt lat="45.93115" lon="4.58228">
        <ele>404.5</ele>
        <time>2014-09-28T08:37:31Z</time>
      </trkpt>
      <trkpt lat="45.93115" lon="4.58216">
        <ele>404.7</ele>
        <time>2014-09-28T08:37:38Z</time>
      </trkpt>
      <trkpt lat="45.93115" lon="4.58215">
        <ele>404.7</ele>
        <time>2014-09-28T08:37:39Z</time>
      </trkpt>
      <trkpt lat="45.93113" lon="4.58192">
        <ele>404.8</ele>
        <time>2014-09-28T08:37:52Z</time>
      </trkpt>
      <trkpt lat="45.93111" lon="4.58181">
        <ele>404.8</ele>
        <time>2014-09-28T08:37:58Z</time>
      </trkpt>
      <trkpt lat="45.93109" lon="4.58169">
        <ele>404.8</ele>
        <time>2014-09-28T08:38:05Z</time>
      </trkpt>
      <trkpt lat="45.93107" lon="4.58157">
        <ele>404.7</ele>
        <time>2014-09-28T08:38:12Z</time>
      </trkpt>
      <trkpt lat="45.93106" lon="4.58145">
        <ele>404.7</ele>
        <time>2014-09-28T08:38:19Z</time>
      </trkpt>
      <trkpt lat="45.93105" lon="4.58134">
        <ele>404.7</ele>
        <time>2014-09-28T08:38:26Z</time>
      </trkpt>
      <trkpt lat="45.93104" lon="4.58122">
        <ele>404.7</ele>
        <time>2014-09-28T08:38:33Z</time>
      </trkpt>
      <trkpt lat="45.93106" lon="4.58111">
        <ele>404.7</ele>
        <time>2014-09-28T08:38:40Z</time>
      </trkpt>
      <trkpt lat="45.93106" lon="4.58109">
        <ele>404.7</ele>
        <time>2014-09-28T08:38:41Z</time>
      </trkpt>
      <trkpt lat="45.93111" lon="4.58089">
        <ele>405.1</ele>
        <time>2014-09-28T08:38:54Z</time>
      </trkpt>
      <trkpt lat="45.93116" lon="4.5808">
        <ele>405.2</ele>
        <time>2014-09-28T08:39:01Z</time>
      </trkpt>
      <trkpt lat="45.93121" lon="4.58072">
        <ele>405.3</ele>
        <time>2014-09-28T08:39:09Z</time>
      </trkpt>
      <trkpt lat="45.93128" lon="4.58065">
        <ele>405.6</ele>
        <time>2014-09-28T08:39:18Z</time>
      </trkpt>
      <trkpt lat="45.93135" lon="4.58057">
        <ele>406.2</ele>
        <time>2014-09-28T08:39:27Z</time>
      </trkpt>
      <trkpt lat="45.93131" lon="4.58046">
        <ele>406.7</ele>
        <time>2014-09-28T08:39:39Z</time>
      </trkpt>
      <trkpt lat="45.93122" lon="4.58045">
        <ele>407</ele>
        <time>2014-09-28T08:39:47Z</time>
      </trkpt>
      <trkpt lat="45.93121" lon="4.58044">
        <ele>407</ele>
        <time>2014-09-28T08:39:48Z</time>
      </trkpt>
      <trkpt lat="45.9311" lon="4.58031">
        <ele>407.2</ele>
        <time>2014-09-28T08:40:37Z</time>
      </trkpt>
      <trkpt lat="45.93109" lon="4.58018">
        <ele>407.1</ele>
        <time>2014-09-28T08:40:58Z</time>
      </trkpt>
      <trkpt lat="45.93109" lon="4.58017">
        <ele>407</ele>
        <time>2014-09-28T08:40:59Z</time>
      </trkpt>
      <trkpt lat="45.93111" lon="4.57994">
        <ele>406.6</ele>
        <time>2014-09-28T08:41:17Z</time>
      </trkpt>
      <trkpt lat="45.9311" lon="4.57983">
        <ele>406.2</ele>
        <time>2014-09-28T08:41:25Z</time>
      </trkpt>
      <trkpt lat="45.93109" lon="4.5797">
        <ele>406.1</ele>
        <time>2014-09-28T08:41:47Z</time>
      </trkpt>
      <trkpt lat="45.93109" lon="4.57957">
        <ele>406.1</ele>
        <time>2014-09-28T08:41:59Z</time>
      </trkpt>
      <trkpt lat="45.93109" lon="4.57957">
        <ele>406.1</ele>
        <time>2014-09-28T08:42:00Z</time>
      </trkpt>
      <trkpt lat="45.93106" lon="4.57933">
        <ele>405.7</ele>
        <time>2014-09-28T08:42:22Z</time>
      </trkpt>
      <trkpt lat="45.93105" lon="4.57921">
        <ele>405.5</ele>
        <time>2014-09-28T08:42:32Z</time>
      </trkpt>
      <trkpt lat="45.93105" lon="4.57909">
        <ele>405.1</ele>
        <time>2014-09-28T08:42:46Z</time>
      </trkpt>
      <trkpt lat="45.93104" lon="4.57896">
        <ele>404.5</ele>
        <time>2014-09-28T08:42:57Z</time>
      </trkpt>
      <trkpt lat="45.93105" lon="4.57884">
        <ele>404.1</ele>
        <time>2014-09-28T08:43:05Z</time>
      </trkpt>
      <trkpt lat="45.93105" lon="4.57883">
        <ele>404</ele>
        <time>2014-09-28T08:43:06Z</time>
      </trkpt>
      <trkpt lat="45.93106" lon="4.5786">
        <ele>403.3</ele>
        <time>2014-09-28T08:43:23Z</time>
      </trkpt>
      <trkpt lat="45.93104" lon="4.57848">
        <ele>402.7</ele>
        <time>2014-09-28T08:43:34Z</time>
      </trkpt>
      <trkpt lat="45.93103" lon="4.57836">
        <ele>402.3</ele>
        <time>2014-09-28T08:43:42Z</time>
      </trkpt>
      <trkpt lat="45.931" lon="4.57825">
        <ele>401.7</ele>
        <time>2014-09-28T08:43:52Z</time>
      </trkpt>
      <trkpt lat="45.93099" lon="4.57813">
        <ele>400.7</ele>
        <time>2014-09-28T08:44:02Z</time>
      </trkpt>
      <trkpt lat="45.93098" lon="4.57801">
        <ele>399.6</ele>
        <time>2014-09-28T08:44:10Z</time>
      </trkpt>
      <trkpt lat="45.93098" lon="4.57799">
        <ele>399.5</ele>
        <time>2014-09-28T08:44:11Z</time>
      </trkpt>
      <trkpt lat="45.93099" lon="4.57779">
        <ele>398.7</ele>
        <time>2014-09-28T08:44:36Z</time>
      </trkpt>
      <trkpt lat="45.93095" lon="4.5777">
        <ele>398.3</ele>
        <time>2014-09-28T08:44:39Z</time>
      </trkpt>
      <trkpt lat="45.93091" lon="4.57761">
        <ele>398.2</ele>
        <time>2014-09-28T08:44:42Z</time>
      </trkpt>
      <trkpt lat="45.93087" lon="4.57751">
        <ele>397.8</ele>
        <time>2014-09-28T08:44:46Z</time>
      </trkpt>
      <trkpt lat="45.93083" lon="4.57741">
        <ele>397.6</ele>
        <time>2014-09-28T08:44:51Z</time>
      </trkpt>
      <trkpt lat="45.93079" lon="4.5773">
        <ele>397.3</ele>
        <time>2014-09-28T08:44:58Z</time>
      </trkpt>
      <trkpt lat="45.93071" lon="4.57725">
        <ele>396.6</ele>
        <time>2014-09-28T08:45:08Z</time>
      </trkpt>
      <trkpt lat="45.93063" lon="4.57724">
        <ele>394.7</ele>
        <time>2014-09-28T08:45:18Z</time>
      </trkpt>
      <trkpt lat="45.93062" lon="4.57723">
        <ele>394.5</ele>
        <time>2014-09-28T08:45:19Z</time>
      </trkpt>
      <trkpt lat="45.93052" lon="4.57705">
        <ele>392.1</ele>
        <time>2014-09-28T08:45:31Z</time>
      </trkpt>
      <trkpt lat="45.93047" lon="4.57695">
        <ele>390.7</ele>
        <time>2014-09-28T08:45:39Z</time>
      </trkpt>
      <trkpt lat="45.93043" lon="4.57684">
        <ele>389.7</ele>
        <time>2014-09-28T08:45:53Z</time>
      </trkpt>
      <trkpt lat="45.93038" lon="4.57673">
        <ele>389</ele>
        <time>2014-09-28T08:46:02Z</time>
      </trkpt>
      <trkpt lat="45.93032" lon="4.57664">
        <ele>388.3</ele>
        <time>2014-09-28T08:46:13Z</time>
      </trkpt>
      <trkpt lat="45.93026" lon="4.57656">
        <ele>388.2</ele>
        <time>2014-09-28T08:46:27Z</time>
      </trkpt>
      <trkpt lat="45.93025" lon="4.57655">
        <ele>388.2</ele>
        <time>2014-09-28T08:46:28Z</time>
      </trkpt>
      <trkpt lat="45.93013" lon="4.57639">
        <ele>387.6</ele>
        <time>2014-09-28T08:47:07Z</time>
      </trkpt>
      <trkpt lat="45.93009" lon="4.5763">
        <ele>387</ele>
        <time>2014-09-28T08:47:14Z</time>
      </trkpt>
      <trkpt lat="45.93004" lon="4.5762">
        <ele>386.2</ele>
        <time>2014-09-28T08:47:20Z</time>
      </trkpt>
      <trkpt lat="45.93" lon="4.5761">
        <ele>385.2</ele>
        <time>2014-09-28T08:47:27Z</time>
      </trkpt>
      <trkpt lat="45.92994" lon="4.576">
        <ele>384.2</ele>
        <time>2014-09-28T08:47:33Z</time>
      </trkpt>
      <trkpt lat="45.92993" lon="4.57599">
        <ele>384.1</ele>
        <time>2014-09-28T08:47:34Z</time>
      </trkpt>
      <trkpt lat="45.92986" lon="4.57579">
        <ele>381.6</ele>
        <time>2014-09-28T08:47:49Z</time>
      </trkpt>
      <trkpt lat="45.92982" lon="4.57569">
        <ele>380.3</ele>
        <time>2014-09-28T08:47:57Z</time>
      </trkpt>
      <trkpt lat="45.92978" lon="4.57558">
        <ele>379.5</ele>
        <time>2014-09-28T08:48:04Z</time>
      </trkpt>
      <trkpt lat="45.92975" lon="4.57547">
        <ele>378.7</ele>
        <time>2014-09-28T08:48:11Z</time>
      </trkpt>
      <trkpt lat="45.92972" lon="4.57536">
        <ele>378</ele>
        <time>2014-09-28T08:48:20Z</time>
      </trkpt>
      <trkpt lat="45.92967" lon="4.57526">
        <ele>377.1</ele>
        <time>2014-09-28T08:48:30Z</time>
      </trkpt>
      <trkpt lat="45.92962" lon="4.57516">
        <ele>376.7</ele>
        <time>2014-09-28T08:48:38Z</time>
      </trkpt>
      <trkpt lat="45.92962" lon="4.57515">
        <ele>376.6</ele>
        <time>2014-09-28T08:48:39Z</time>
      </trkpt>
      <trkpt lat="45.9295" lon="4.575">
        <ele>376.2</ele>
        <time>2014-09-28T08:48:54Z</time>
      </trkpt>
      <trkpt lat="45.92944" lon="4.5749">
        <ele>376</ele>
        <time>2014-09-28T08:49:05Z</time>
      </trkpt>
      <trkpt lat="45.92942" lon="4.57478">
        <ele>375.7</ele>
        <time>2014-09-28T08:49:14Z</time>
      </trkpt>
      <trkpt lat="45.92939" lon="4.57466">
        <ele>374.7</ele>
        <time>2014-09-28T08:49:27Z</time>
      </trkpt>
      <trkpt lat="45.92936" lon="4.57455">
        <ele>372.3</ele>
        <time>2014-09-28T08:49:39Z</time>
      </trkpt>
      <trkpt lat="45.92935" lon="4.57453">
        <ele>372.1</ele>
        <time>2014-09-28T08:49:40Z</time>
      </trkpt>
      <trkpt lat="45.92928" lon="4.57433">
        <ele>369.2</ele>
        <time>2014-09-28T08:49:55Z</time>
      </trkpt>
      <trkpt lat="45.92922" lon="4.57424">
        <ele>367.7</ele>
        <time>2014-09-28T08:50:03Z</time>
      </trkpt>
      <trkpt lat="45.92915" lon="4.57417">
        <ele>366</ele>
        <time>2014-09-28T08:50:15Z</time>
      </trkpt>
      <trkpt lat="45.92909" lon="4.57409">
        <ele>364.2</ele>
        <time>2014-09-28T08:50:28Z</time>
      </trkpt>
      <trkpt lat="45.92904" lon="4.57399">
        <ele>364.8</ele>
        <time>2014-09-28T08:50:46Z</time>
      </trkpt>
      <trkpt lat="45.92903" lon="4.57399">
        <ele>364.8</ele>
        <time>2014-09-28T08:50:47Z</time>
      </trkpt>
      <trkpt lat="45.92892" lon="4.57381">
        <ele>364.5</ele>
        <time>2014-09-28T08:51:03Z</time>
      </trkpt>
      <trkpt lat="45.92887" lon="4.57374">
        <ele>363.7</ele>
        <time>2014-09-28T08:51:08Z</time>
      </trkpt>
      <trkpt lat="45.92881" lon="4.57365">
        <ele>362.7</ele>
        <time>2014-09-28T08:51:14Z</time>
      </trkpt>
      <trkpt lat="45.92875" lon="4.57356">
        <ele>361.3</ele>
        <time>2014-09-28T08:51:22Z</time>
      </trkpt>
      <trkpt lat="45.92869" lon="4.57347">
        <ele>360.2</ele>
        <time>2014-09-28T08:51:30Z</time>
      </trkpt>
      <trkpt lat="45.92864" lon="4.57336">
        <ele>359.1</ele>
        <time>2014-09-28T08:51:39Z</time>
      </trkpt>
      <trkpt lat="45.9286" lon="4.57326">
        <ele>358.3</ele>
        <time>2014-09-28T08:51:47Z</time>
      </trkpt>
      <trkpt lat="45.9286" lon="4.57324">
        <ele>358.2</ele>
        <time>2014-09-28T08:51:48Z</time>
      </trkpt>
      <trkpt lat="45.92852" lon="4.57305">
        <ele>357.2</ele>
        <time>2014-09-28T08:52:03Z</time>
      </trkpt>
      <trkpt lat="45.92848" lon="4.57295">
        <ele>356.6</ele>
        <time>2014-09-28T08:52:11Z</time>
      </trkpt>
      <trkpt lat="45.92844" lon="4.57286">
        <ele>356</ele>
        <time>2014-09-28T08:52:18Z</time>
      </trkpt>
      <trkpt lat="45.92839" lon="4.57275">
        <ele>355.6</ele>
        <time>2014-09-28T08:52:28Z</time>
      </trkpt>
      <trkpt lat="45.92836" lon="4.57263">
        <ele>354.7</ele>
        <time>2014-09-28T08:52:37Z</time>
      </trkpt>
      <trkpt lat="45.92832" lon="4.57252">
        <ele>354.2</ele>
        <time>2014-09-28T08:52:45Z</time>
      </trkpt>
      <trkpt lat="45.92829" lon="4.5724">
        <ele>354</ele>
        <time>2014-09-28T08:52:52Z</time>
      </trkpt>
      <trkpt lat="45.92828" lon="4.57239">
        <ele>353.8</ele>
        <time>2014-09-28T08:52:53Z</time>
      </trkpt>
      <trkpt lat="45.92823" lon="4.57216">
        <ele>353.7</ele>
        <time>2014-09-28T08:53:12Z</time>
      </trkpt>
      <trkpt lat="45.9282" lon="4.57204">
        <ele>353.7</ele>
        <time>2014-09-28T08:53:27Z</time>
      </trkpt>
      <trkpt lat="45.92819" lon="4.57192">
        <ele>353.6</ele>
        <time>2014-09-28T08:53:36Z</time>
      </trkpt>
      <trkpt lat="45.92817" lon="4.5718">
        <ele>353.2</ele>
        <time>2014-09-28T08:53:45Z</time>
      </trkpt>
      <trkpt lat="45.92813" lon="4.57168">
        <ele>351.7</ele>
        <time>2014-09-28T08:54:24Z</time>
      </trkpt>
      <trkpt lat="45.92812" lon="4.57168">
        <ele>351.6</ele>
        <time>2014-09-28T08:54:25Z</time>
      </trkpt>
      <trkpt lat="45.92806" lon="4.57147">
        <ele>349.2</ele>
        <time>2014-09-28T08:54:42Z</time>
      </trkpt>
      <trkpt lat="45.92804" lon="4.57136">
        <ele>348.3</ele>
        <time>2014-09-28T08:54:50Z</time>
      </trkpt>
      <trkpt lat="45.92801" lon="4.57125">
        <ele>347.6</ele>
        <time>2014-09-28T08:54:58Z</time>
      </trkpt>
      <trkpt lat="45.92796" lon="4.57114">
        <ele>346.7</ele>
        <time>2014-09-28T08:55:07Z</time>
      </trkpt>
      <trkpt lat="45.92791" lon="4.57104">
        <ele>346</ele>
        <time>2014-09-28T08:55:17Z</time>
      </trkpt>
      <trkpt lat="45.92785" lon="4.57094">
        <ele>345.6</ele>
        <time>2014-09-28T08:55:26Z</time>
      </trkpt>
      <trkpt lat="45.92785" lon="4.57093">
        <ele>345.6</ele>
        <time>2014-09-28T08:55:27Z</time>
      </trkpt>
      <trkpt lat="45.92775" lon="4.57075">
        <ele>345</ele>
        <time>2014-09-28T08:55:40Z</time>
      </trkpt>
      <trkpt lat="45.9277" lon="4.57066">
        <ele>344.6</ele>
        <time>2014-09-28T08:55:47Z</time>
      </trkpt>
      <trkpt lat="45.92765" lon="4.57057">
        <ele>344.1</ele>
        <time>2014-09-28T08:55:54Z</time>
      </trkpt>
      <trkpt lat="45.92759" lon="4.57047">
        <ele>343.2</ele>
        <time>2014-09-28T08:56:02Z</time>
      </trkpt>
      <trkpt lat="45.92753" lon="4.57038">
        <ele>342.6</ele>
        <time>2014-09-28T08:56:10Z</time>
      </trkpt>
      <trkpt lat="45.92748" lon="4.57028">
        <ele>341.7</ele>
        <time>2014-09-28T08:56:18Z</time>
      </trkpt>
      <trkpt lat="45.92743" lon="4.57017">
        <ele>341</ele>
        <time>2014-09-28T08:56:40Z</time>
      </trkpt>
      <trkpt lat="45.92743" lon="4.57016">
        <ele>340.8</ele>
        <time>2014-09-28T08:56:41Z</time>
      </trkpt>
      <trkpt lat="45.92731" lon="4.57">
        <ele>339.6</ele>
        <time>2014-09-28T08:56:58Z</time>
      </trkpt>
      <trkpt lat="45.92725" lon="4.56991">
        <ele>338.7</ele>
        <time>2014-09-28T08:57:17Z</time>
      </trkpt>
      <trkpt lat="45.9272" lon="4.56983">
        <ele>338.5</ele>
        <time>2014-09-28T08:57:23Z</time>
      </trkpt>
      <trkpt lat="45.92714" lon="4.56974">
        <ele>338.2</ele>
        <time>2014-09-28T08:57:30Z</time>
      </trkpt>
      <trkpt lat="45.92708" lon="4.56965">
        <ele>338.1</ele>
        <time>2014-09-28T08:57:38Z</time>
      </trkpt>
      <trkpt lat="45.92703" lon="4.56956">
        <ele>337.8</ele>
        <time>2014-09-28T08:57:47Z</time>
      </trkpt>
      <trkpt lat="45.92702" lon="4.56955">
        <ele>337.7</ele>
        <time>2014-09-28T08:57:48Z</time>
      </trkpt>
      <trkpt lat="45.92691" lon="4.5694">
        <ele>337.5</ele>
        <time>2014-09-28T08:58:03Z</time>
      </trkpt>
      <trkpt lat="45.92684" lon="4.56931">
        <ele>336.7</ele>
        <time>2014-09-28T08:58:10Z</time>
      </trkpt>
      <trkpt lat="45.92678" lon="4.56923">
        <ele>335.7</ele>
        <time>2014-09-28T08:58:18Z</time>
      </trkpt>
      <trkpt lat="45.92671" lon="4.56916">
        <ele>334.7</ele>
        <time>2014-09-28T08:58:27Z</time>
      </trkpt>
      <trkpt lat="45.92663" lon="4.5691">
        <ele>333</ele>
        <time>2014-09-28T08:58:39Z</time>
      </trkpt>
      <trkpt lat="45.92657" lon="4.56902">
        <ele>332.2</ele>
        <time>2014-09-28T08:58:48Z</time>
      </trkpt>
      <trkpt lat="45.92656" lon="4.569">
        <ele>332.1</ele>
        <time>2014-09-28T08:58:49Z</time>
      </trkpt>
      <trkpt lat="45.92645" lon="4.56887">
        <ele>331.2</ele>
        <time>2014-09-28T08:59:02Z</time>
      </trkpt>
      <trkpt lat="45.92638" lon="4.5688">
        <ele>331.1</ele>
        <time>2014-09-28T08:59:09Z</time>
      </trkpt>
      <trkpt lat="45.92631" lon="4.56873">
        <ele>330.8</ele>
        <time>2014-09-28T08:59:15Z</time>
      </trkpt>
      <trkpt lat="45.92628" lon="4.56861">
        <ele>329.2</ele>
        <time>2014-09-28T09:00:31Z</time>
      </trkpt>
      <trkpt lat="45.92628" lon="4.5686">
        <ele>329.2</ele>
        <time>2014-09-28T09:00:32Z</time>
      </trkpt>
      <trkpt lat="45.92636" lon="4.56839">
        <ele>328.1</ele>
        <time>2014-09-28T09:00:50Z</time>
      </trkpt>
      <trkpt lat="45.92641" lon="4.56829">
        <ele>327.3</ele>
        <time>2014-09-28T09:01:34Z</time>
      </trkpt>
      <trkpt lat="45.92641" lon="4.56828">
        <ele>327.2</ele>
        <time>2014-09-28T09:01:35Z</time>
      </trkpt>
      <trkpt lat="45.92652" lon="4.5681">
        <ele>326</ele>
        <time>2014-09-28T09:01:57Z</time>
      </trkpt>
      <trkpt lat="45.92658" lon="4.568">
        <ele>325.2</ele>
        <time>2014-09-28T09:02:07Z</time>
      </trkpt>
      <trkpt lat="45.92663" lon="4.5679">
        <ele>324.6</ele>
        <time>2014-09-28T09:02:17Z</time>
      </trkpt>
      <trkpt lat="45.92669" lon="4.56782">
        <ele>324.2</ele>
        <time>2014-09-28T09:02:27Z</time>
      </trkpt>
      <trkpt lat="45.92677" lon="4.56775">
        <ele>323.3</ele>
        <time>2014-09-28T09:02:44Z</time>
      </trkpt>
      <trkpt lat="45.92677" lon="4.56774">
        <ele>323.2</ele>
        <time>2014-09-28T09:02:45Z</time>
      </trkpt>
      <trkpt lat="45.9269" lon="4.56761">
        <ele>321.7</ele>
        <time>2014-09-28T09:03:08Z</time>
      </trkpt>
      <trkpt lat="45.92697" lon="4.56753">
        <ele>321</ele>
        <time>2014-09-28T09:03:17Z</time>
      </trkpt>
      <trkpt lat="45.92702" lon="4.56743">
        <ele>320.7</ele>
        <time>2014-09-28T09:03:27Z</time>
      </trkpt>
      <trkpt lat="45.92707" lon="4.56733">
        <ele>320</ele>
        <time>2014-09-28T09:03:39Z</time>
      </trkpt>
      <trkpt lat="45.92715" lon="4.56728">
        <ele>317.5</ele>
        <time>2014-09-28T09:03:57Z</time>
      </trkpt>
      <trkpt lat="45.92716" lon="4.56728">
        <ele>317.2</ele>
        <time>2014-09-28T09:03:58Z</time>
      </trkpt>
      <trkpt lat="45.9273" lon="4.56716">
        <ele>315.7</ele>
        <time>2014-09-28T09:04:16Z</time>
      </trkpt>
      <trkpt lat="45.92738" lon="4.5671">
        <ele>315.3</ele>
        <time>2014-09-28T09:04:23Z</time>
      </trkpt>
      <trkpt lat="45.92745" lon="4.56703">
        <ele>315.2</ele>
        <time>2014-09-28T09:04:31Z</time>
      </trkpt>
      <trkpt lat="45.92751" lon="4.56694">
        <ele>315.1</ele>
        <time>2014-09-28T09:04:42Z</time>
      </trkpt>
      <trkpt lat="45.92752" lon="4.56682">
        <ele>314.3</ele>
        <time>2014-09-28T09:05:02Z</time>
      </trkpt>
      <trkpt lat="45.92751" lon="4.56681">
        <ele>314.2</ele>
        <time>2014-09-28T09:05:03Z</time>
      </trkpt>
      <trkpt lat="45.92744" lon="4.56661">
        <ele>313.2</ele>
        <time>2014-09-28T09:05:22Z</time>
      </trkpt>
      <trkpt lat="45.92742" lon="4.5665">
        <ele>313.2</ele>
        <time>2014-09-28T09:05:33Z</time>
      </trkpt>
      <trkpt lat="45.92741" lon="4.56638">
        <ele>313.2</ele>
        <time>2014-09-28T09:05:43Z</time>
      </trkpt>
      <trkpt lat="45.92739" lon="4.56626">
        <ele>313.2</ele>
        <time>2014-09-28T09:05:53Z</time>
      </trkpt>
      <trkpt lat="45.92735" lon="4.56616">
        <ele>313.2</ele>
        <time>2014-09-28T09:06:01Z</time>
      </trkpt>
      <trkpt lat="45.92731" lon="4.56604">
        <ele>313.2</ele>
        <time>2014-09-28T09:06:11Z</time>
      </trkpt>
      <trkpt lat="45.92731" lon="4.56603">
        <ele>313.2</ele>
        <time>2014-09-28T09:06:12Z</time>
      </trkpt>
      <trkpt lat="45.92726" lon="4.56581">
        <ele>313</ele>
        <time>2014-09-28T09:06:32Z</time>
      </trkpt>
      <trkpt lat="45.92725" lon="4.56569">
        <ele>313</ele>
        <time>2014-09-28T09:06:46Z</time>
      </trkpt>
      <trkpt lat="45.92726" lon="4.56557">
        <ele>312.8</ele>
        <time>2014-09-28T09:06:57Z</time>
      </trkpt>
      <trkpt lat="45.92727" lon="4.56545">
        <ele>312.8</ele>
        <time>2014-09-28T09:07:06Z</time>
      </trkpt>
      <trkpt lat="45.92729" lon="4.56534">
        <ele>312.8</ele>
        <time>2014-09-28T09:07:13Z</time>
      </trkpt>
      <trkpt lat="45.92729" lon="4.56533">
        <ele>312.8</ele>
        <time>2014-09-28T09:07:14Z</time>
      </trkpt>
      <trkpt lat="45.92728" lon="4.56509">
        <ele>312.6</ele>
        <time>2014-09-28T09:07:30Z</time>
      </trkpt>
      <trkpt lat="45.92727" lon="4.56497">
        <ele>312.1</ele>
        <time>2014-09-28T09:07:39Z</time>
      </trkpt>
      <trkpt lat="45.92725" lon="4.56485">
        <ele>311.8</ele>
        <time>2014-09-28T09:07:49Z</time>
      </trkpt>
      <trkpt lat="45.92723" lon="4.56473">
        <ele>311.7</ele>
        <time>2014-09-28T09:07:57Z</time>
      </trkpt>
      <trkpt lat="45.92721" lon="4.56463">
        <ele>311.6</ele>
        <time>2014-09-28T09:08:04Z</time>
      </trkpt>
      <trkpt lat="45.92719" lon="4.56451">
        <ele>311.3</ele>
        <time>2014-09-28T09:08:09Z</time>
      </trkpt>
      <trkpt lat="45.92716" lon="4.5644">
        <ele>311.1</ele>
        <time>2014-09-28T09:08:15Z</time>
      </trkpt>
      <trkpt lat="45.92715" lon="4.56438">
        <ele>311.1</ele>
        <time>2014-09-28T09:08:16Z</time>
      </trkpt>
      <trkpt lat="45.92718" lon="4.56416">
        <ele>310.5</ele>
        <time>2014-09-28T09:08:31Z</time>
      </trkpt>
      <trkpt lat="45.92722" lon="4.56405">
        <ele>310.2</ele>
        <time>2014-09-28T09:08:38Z</time>
      </trkpt>
      <trkpt lat="45.92727" lon="4.56396">
        <ele>309.8</ele>
        <time>2014-09-28T09:08:45Z</time>
      </trkpt>
      <trkpt lat="45.92733" lon="4.56388">
        <ele>309.5</ele>
        <time>2014-09-28T09:08:53Z</time>
      </trkpt>
      <trkpt lat="45.9274" lon="4.5638">
        <ele>309.2</ele>
        <time>2014-09-28T09:09:01Z</time>
      </trkpt>
      <trkpt lat="45.92746" lon="4.56373">
        <ele>308.8</ele>
        <time>2014-09-28T09:09:09Z</time>
      </trkpt>
      <trkpt lat="45.92753" lon="4.56365">
        <ele>308.7</ele>
        <time>2014-09-28T09:09:18Z</time>
      </trkpt>
      <trkpt lat="45.92754" lon="4.56364">
        <ele>308.7</ele>
        <time>2014-09-28T09:09:19Z</time>
      </trkpt>
      <trkpt lat="45.92767" lon="4.56352">
        <ele>308.6</ele>
        <time>2014-09-28T09:09:36Z</time>
      </trkpt>
      <trkpt lat="45.92773" lon="4.56345">
        <ele>308.6</ele>
        <time>2014-09-28T09:09:43Z</time>
      </trkpt>
      <trkpt lat="45.9278" lon="4.56337">
        <ele>308.7</ele>
        <time>2014-09-28T09:09:51Z</time>
      </trkpt>
      <trkpt lat="45.92787" lon="4.56329">
        <ele>308.8</ele>
        <time>2014-09-28T09:10:05Z</time>
      </trkpt>
      <trkpt lat="45.92794" lon="4.56323">
        <ele>308.7</ele>
        <time>2014-09-28T09:10:21Z</time>
      </trkpt>
      <trkpt lat="45.92795" lon="4.56322">
        <ele>308.7</ele>
        <time>2014-09-28T09:10:22Z</time>
      </trkpt>
      <trkpt lat="45.92808" lon="4.56312">
        <ele>308.7</ele>
        <time>2014-09-28T09:10:35Z</time>
      </trkpt>
      <trkpt lat="45.92815" lon="4.56305">
        <ele>308.7</ele>
        <time>2014-09-28T09:10:43Z</time>
      </trkpt>
      <trkpt lat="45.92821" lon="4.56296">
        <ele>308.8</ele>
        <time>2014-09-28T09:10:50Z</time>
      </trkpt>
      <trkpt lat="45.92826" lon="4.56287">
        <ele>308.8</ele>
        <time>2014-09-28T09:10:57Z</time>
      </trkpt>
      <trkpt lat="45.92831" lon="4.56277">
        <ele>309</ele>
        <time>2014-09-28T09:11:04Z</time>
      </trkpt>
      <trkpt lat="45.92837" lon="4.56268">
        <ele>309</ele>
        <time>2014-09-28T09:11:11Z</time>
      </trkpt>
      <trkpt lat="45.92842" lon="4.56257">
        <ele>309</ele>
        <time>2014-09-28T09:11:19Z</time>
      </trkpt>
      <trkpt lat="45.92846" lon="4.56248">
        <ele>309.1</ele>
        <time>2014-09-28T09:11:26Z</time>
      </trkpt>
      <trkpt lat="45.92847" lon="4.56246">
        <ele>309.1</ele>
        <time>2014-09-28T09:11:27Z</time>
      </trkpt>
      <trkpt lat="45.92854" lon="4.56228">
        <ele>309.2</ele>
        <time>2014-09-28T09:11:40Z</time>
      </trkpt>
      <trkpt lat="45.92859" lon="4.56218">
        <ele>309.2</ele>
        <time>2014-09-28T09:11:48Z</time>
      </trkpt>
      <trkpt lat="45.92864" lon="4.56208">
        <ele>309.3</ele>
        <time>2014-09-28T09:11:56Z</time>
      </trkpt>
      <trkpt lat="45.92867" lon="4.56198">
        <ele>309.3</ele>
        <time>2014-09-28T09:12:03Z</time>
      </trkpt>
      <trkpt lat="45.92871" lon="4.56186">
        <ele>309.5</ele>
        <time>2014-09-28T09:12:11Z</time>
      </trkpt>
      <trkpt lat="45.92875" lon="4.56176">
        <ele>309.3</ele>
        <time>2014-09-28T09:12:18Z</time>
      </trkpt>
      <trkpt lat="45.92879" lon="4.56166">
        <ele>309.3</ele>
        <time>2014-09-28T09:12:25Z</time>
      </trkpt>
      <trkpt lat="45.92883" lon="4.56155">
        <ele>309.2</ele>
        <time>2014-09-28T09:12:33Z</time>
      </trkpt>
      <trkpt lat="45.92884" lon="4.56154">
        <ele>309.2</ele>
        <time>2014-09-28T09:12:34Z</time>
      </trkpt>
      <trkpt lat="45.92895" lon="4.56137">
        <ele>309.1</ele>
        <time>2014-09-28T09:12:51Z</time>
      </trkpt>
      <trkpt lat="45.929" lon="4.56129">
        <ele>309.1</ele>
        <time>2014-09-28T09:12:59Z</time>
      </trkpt>
      <trkpt lat="45.92907" lon="4.56121">
        <ele>309.1</ele>
        <time>2014-09-28T09:13:06Z</time>
      </trkpt>
      <trkpt lat="45.92913" lon="4.56113">
        <ele>309.3</ele>
        <time>2014-09-28T09:13:12Z</time>
      </trkpt>
      <trkpt lat="45.92918" lon="4.56104">
        <ele>309.6</ele>
        <time>2014-09-28T09:13:19Z</time>
      </trkpt>
      <trkpt lat="45.92924" lon="4.56094">
        <ele>309.7</ele>
        <time>2014-09-28T09:13:28Z</time>
      </trkpt>
      <trkpt lat="45.92927" lon="4.56082">
        <ele>309.7</ele>
        <time>2014-09-28T09:13:38Z</time>
      </trkpt>
      <trkpt lat="45.92927" lon="4.56081">
        <ele>309.7</ele>
        <time>2014-09-28T09:13:39Z</time>
      </trkpt>
      <trkpt lat="45.92921" lon="4.56058">
        <ele>310.1</ele>
        <time>2014-09-28T09:13:54Z</time>
      </trkpt>
      <trkpt lat="45.92919" lon="4.56046">
        <ele>310.5</ele>
        <time>2014-09-28T09:14:01Z</time>
      </trkpt>
      <trkpt lat="45.92919" lon="4.56034">
        <ele>310.6</ele>
        <time>2014-09-28T09:14:09Z</time>
      </trkpt>
      <trkpt lat="45.92922" lon="4.56022">
        <ele>310.7</ele>
        <time>2014-09-28T09:14:17Z</time>
      </trkpt>
      <trkpt lat="45.92925" lon="4.5601">
        <ele>310.6</ele>
        <time>2014-09-28T09:14:25Z</time>
      </trkpt>
      <trkpt lat="45.9293" lon="4.56">
        <ele>310.5</ele>
        <time>2014-09-28T09:14:33Z</time>
      </trkpt>
      <trkpt lat="45.92935" lon="4.5599">
        <ele>310.5</ele>
        <time>2014-09-28T09:14:40Z</time>
      </trkpt>
      <trkpt lat="45.92935" lon="4.55989">
        <ele>310.5</ele>
        <time>2014-09-28T09:14:41Z</time>
      </trkpt>
      <trkpt lat="45.92943" lon="4.5597">
        <ele>310.3</ele>
        <time>2014-09-28T09:14:55Z</time>
      </trkpt>
      <trkpt lat="45.92947" lon="4.5596">
        <ele>310.2</ele>
        <time>2014-09-28T09:15:03Z</time>
      </trkpt>
      <trkpt lat="45.92953" lon="4.5595">
        <ele>310.1</ele>
        <time>2014-09-28T09:15:11Z</time>
      </trkpt>
      <trkpt lat="45.92958" lon="4.55941">
        <ele>310</ele>
        <time>2014-09-28T09:15:19Z</time>
      </trkpt>
      <trkpt lat="45.92964" lon="4.55932">
        <ele>309.7</ele>
        <time>2014-09-28T09:15:27Z</time>
      </trkpt>
      <trkpt lat="45.92969" lon="4.55923">
        <ele>309.7</ele>
        <time>2014-09-28T09:15:35Z</time>
      </trkpt>
      <trkpt lat="45.92975" lon="4.55914">
        <ele>309.6</ele>
        <time>2014-09-28T09:15:42Z</time>
      </trkpt>
      <trkpt lat="45.92976" lon="4.55913">
        <ele>309.6</ele>
        <time>2014-09-28T09:15:43Z</time>
      </trkpt>
      <trkpt lat="45.92988" lon="4.55897">
        <ele>310.2</ele>
        <time>2014-09-28T09:16:28Z</time>
      </trkpt>
      <trkpt lat="45.92992" lon="4.55887">
        <ele>312</ele>
        <time>2014-09-28T09:16:36Z</time>
      </trkpt>
      <trkpt lat="45.92995" lon="4.55875">
        <ele>313.7</ele>
        <time>2014-09-28T09:16:46Z</time>
      </trkpt>
      <trkpt lat="45.92995" lon="4.55874">
        <ele>313.7</ele>
        <time>2014-09-28T09:16:47Z</time>
      </trkpt>
      <trkpt lat="45.93001" lon="4.55853">
        <ele>315.1</ele>
        <time>2014-09-28T09:17:06Z</time>
      </trkpt>
      <trkpt lat="45.93005" lon="4.55841">
        <ele>315.2</ele>
        <time>2014-09-28T09:17:15Z</time>
      </trkpt>
      <trkpt lat="45.93008" lon="4.5583">
        <ele>315.2</ele>
        <time>2014-09-28T09:17:23Z</time>
      </trkpt>
      <trkpt lat="45.93011" lon="4.55818">
        <ele>315</ele>
        <time>2014-09-28T09:17:31Z</time>
      </trkpt>
      <trkpt lat="45.93014" lon="4.55807">
        <ele>315</ele>
        <time>2014-09-28T09:17:38Z</time>
      </trkpt>
      <trkpt lat="45.93016" lon="4.55797">
        <ele>314.8</ele>
        <time>2014-09-28T09:17:44Z</time>
      </trkpt>
      <trkpt lat="45.93018" lon="4.55785">
        <ele>314.7</ele>
        <time>2014-09-28T09:17:51Z</time>
      </trkpt>
      <trkpt lat="45.93018" lon="4.55784">
        <ele>314.7</ele>
        <time>2014-09-28T09:17:52Z</time>
      </trkpt>
      <trkpt lat="45.93025" lon="4.55762">
        <ele>313.6</ele>
        <time>2014-09-28T09:18:09Z</time>
      </trkpt>
      <trkpt lat="45.93029" lon="4.55752">
        <ele>312.8</ele>
        <time>2014-09-28T09:18:17Z</time>
      </trkpt>
      <trkpt lat="45.93034" lon="4.55741">
        <ele>312.7</ele>
        <time>2014-09-28T09:18:25Z</time>
      </trkpt>
      <trkpt lat="45.93039" lon="4.55732">
        <ele>312.8</ele>
        <time>2014-09-28T09:18:31Z</time>
      </trkpt>
      <trkpt lat="45.93043" lon="4.55721">
        <ele>313.2</ele>
        <time>2014-09-28T09:18:38Z</time>
      </trkpt>
      <trkpt lat="45.93045" lon="4.5571">
        <ele>313.2</ele>
        <time>2014-09-28T09:18:46Z</time>
      </trkpt>
      <trkpt lat="45.93048" lon="4.55698">
        <ele>313.1</ele>
        <time>2014-09-28T09:18:55Z</time>
      </trkpt>
      <trkpt lat="45.93048" lon="4.55697">
        <ele>313</ele>
        <time>2014-09-28T09:18:56Z</time>
      </trkpt>
      <trkpt lat="45.93054" lon="4.55674">
        <ele>311.8</ele>
        <time>2014-09-28T09:19:10Z</time>
      </trkpt>
      <trkpt lat="45.93055" lon="4.55662">
        <ele>311.2</ele>
        <time>2014-09-28T09:19:18Z</time>
      </trkpt>
      <trkpt lat="45.93057" lon="4.55649">
        <ele>310.5</ele>
        <time>2014-09-28T09:19:27Z</time>
      </trkpt>
      <trkpt lat="45.9306" lon="4.55637">
        <ele>310</ele>
        <time>2014-09-28T09:19:36Z</time>
      </trkpt>
      <trkpt lat="45.93065" lon="4.55627">
        <ele>310.1</ele>
        <time>2014-09-28T09:19:43Z</time>
      </trkpt>
      <trkpt lat="45.93068" lon="4.55616">
        <ele>310.2</ele>
        <time>2014-09-28T09:19:50Z</time>
      </trkpt>
      <trkpt lat="45.9307" lon="4.55603">
        <ele>310.2</ele>
        <time>2014-09-28T09:19:59Z</time>
      </trkpt>
      <trkpt lat="45.9307" lon="4.55602">
        <ele>310.2</ele>
        <time>2014-09-28T09:20:00Z</time>
      </trkpt>
      <trkpt lat="45.93074" lon="4.55581">
        <ele>310</ele>
        <time>2014-09-28T09:20:23Z</time>
      </trkpt>
      <trkpt lat="45.93078" lon="4.5557">
        <ele>309.7</ele>
        <time>2014-09-28T09:20:29Z</time>
      </trkpt>
      <trkpt lat="45.93083" lon="4.55561">
        <ele>309.3</ele>
        <time>2014-09-28T09:20:36Z</time>
      </trkpt>
      <trkpt lat="45.9309" lon="4.55554">
        <ele>309.2</ele>
        <time>2014-09-28T09:20:43Z</time>
      </trkpt>
      <trkpt lat="45.93098" lon="4.55549">
        <ele>309.1</ele>
        <time>2014-09-28T09:20:52Z</time>
      </trkpt>
      <trkpt lat="45.93105" lon="4.55545">
        <ele>308.8</ele>
        <time>2014-09-28T09:21:01Z</time>
      </trkpt>
      <trkpt lat="45.93106" lon="4.55545">
        <ele>308.8</ele>
        <time>2014-09-28T09:21:02Z</time>
      </trkpt>
      <trkpt lat="45.93122" lon="4.55537">
        <ele>308.7</ele>
        <time>2014-09-28T09:21:19Z</time>
      </trkpt>
      <trkpt lat="45.9313" lon="4.55534">
        <ele>308.7</ele>
        <time>2014-09-28T09:21:27Z</time>
      </trkpt>
      <trkpt lat="45.93139" lon="4.55529">
        <ele>308.7</ele>
        <time>2014-09-28T09:21:36Z</time>
      </trkpt>
      <trkpt lat="45.93146" lon="4.55525">
        <ele>308.7</ele>
        <time>2014-09-28T09:21:44Z</time>
      </trkpt>
      <trkpt lat="45.93154" lon="4.55521">
        <ele>308.7</ele>
        <time>2014-09-28T09:21:52Z</time>
      </trkpt>
      <trkpt lat="45.93162" lon="4.55518">
        <ele>309</ele>
        <time>2014-09-28T09:22:00Z</time>
      </trkpt>
      <trkpt lat="45.9317" lon="4.55516">
        <ele>309.1</ele>
        <time>2014-09-28T09:22:09Z</time>
      </trkpt>
      <trkpt lat="45.93171" lon="4.55516">
        <ele>309.1</ele>
        <time>2014-09-28T09:22:10Z</time>
      </trkpt>
      <trkpt lat="45.93187" lon="4.55514">
        <ele>309.5</ele>
        <time>2014-09-28T09:22:26Z</time>
      </trkpt>
      <trkpt lat="45.93195" lon="4.55514">
        <ele>309.7</ele>
        <time>2014-09-28T09:22:34Z</time>
      </trkpt>
      <trkpt lat="45.93203" lon="4.55515">
        <ele>310.2</ele>
        <time>2014-09-28T09:22:42Z</time>
      </trkpt>
      <trkpt lat="45.93211" lon="4.55515">
        <ele>310.5</ele>
        <time>2014-09-28T09:22:50Z</time>
      </trkpt>
      <trkpt lat="45.93219" lon="4.55518">
        <ele>310.7</ele>
        <time>2014-09-28T09:22:58Z</time>
      </trkpt>
      <trkpt lat="45.93228" lon="4.5552">
        <ele>311.2</ele>
        <time>2014-09-28T09:23:05Z</time>
      </trkpt>
      <trkpt lat="45.93235" lon="4.55526">
        <ele>312.1</ele>
        <time>2014-09-28T09:23:13Z</time>
      </trkpt>
      <trkpt lat="45.93236" lon="4.55528">
        <ele>312.2</ele>
        <time>2014-09-28T09:23:14Z</time>
      </trkpt>
      <trkpt lat="45.93245" lon="4.55548">
        <ele>314.1</ele>
        <time>2014-09-28T09:23:31Z</time>
      </trkpt>
      <trkpt lat="45.9325" lon="4.55557">
        <ele>315.1</ele>
        <time>2014-09-28T09:23:39Z</time>
      </trkpt>
      <trkpt lat="45.93254" lon="4.55568">
        <ele>316.3</ele>
        <time>2014-09-28T09:23:48Z</time>
      </trkpt>
      <trkpt lat="45.93259" lon="4.55578">
        <ele>317.8</ele>
        <time>2014-09-28T09:23:58Z</time>
      </trkpt>
      <trkpt lat="45.93263" lon="4.55588">
        <ele>319.3</ele>
        <time>2014-09-28T09:24:07Z</time>
      </trkpt>
      <trkpt lat="45.93268" lon="4.55599">
        <ele>321.1</ele>
        <time>2014-09-28T09:24:17Z</time>
      </trkpt>
      <trkpt lat="45.93269" lon="4.55599">
        <ele>321.2</ele>
        <time>2014-09-28T09:24:18Z</time>
      </trkpt>
      <trkpt lat="45.93277" lon="4.5562">
        <ele>325.5</ele>
        <time>2014-09-28T09:24:56Z</time>
      </trkpt>
      <trkpt lat="45.93283" lon="4.55629">
        <ele>327.1</ele>
        <time>2014-09-28T09:25:05Z</time>
      </trkpt>
      <trkpt lat="45.93289" lon="4.55639">
        <ele>328.7</ele>
        <time>2014-09-28T09:25:14Z</time>
      </trkpt>
      <trkpt lat="45.93293" lon="4.55649">
        <ele>330.2</ele>
        <time>2014-09-28T09:25:22Z</time>
      </trkpt>
      <trkpt lat="45.93294" lon="4.5565">
        <ele>330.3</ele>
        <time>2014-09-28T09:25:23Z</time>
      </trkpt>
      <trkpt lat="45.93303" lon="4.55669">
        <ele>333.5</ele>
        <time>2014-09-28T09:25:40Z</time>
      </trkpt>
      <trkpt lat="45.93309" lon="4.55679">
        <ele>335</ele>
        <time>2014-09-28T09:25:49Z</time>
      </trkpt>
      <trkpt lat="45.93315" lon="4.55687">
        <ele>336.2</ele>
        <time>2014-09-28T09:25:58Z</time>
      </trkpt>
      <trkpt lat="45.93322" lon="4.55694">
        <ele>338.2</ele>
        <time>2014-09-28T09:26:16Z</time>
      </trkpt>
      <trkpt lat="45.93326" lon="4.55704">
        <ele>339.2</ele>
        <time>2014-09-28T09:26:25Z</time>
      </trkpt>
      <trkpt lat="45.93327" lon="4.55705">
        <ele>339.2</ele>
        <time>2014-09-28T09:26:26Z</time>
      </trkpt>
      <trkpt lat="45.93335" lon="4.55725">
        <ele>342.2</ele>
        <time>2014-09-28T09:27:06Z</time>
      </trkpt>
      <trkpt lat="45.93339" lon="4.55734">
        <ele>343.5</ele>
        <time>2014-09-28T09:27:14Z</time>
      </trkpt>
      <trkpt lat="45.93344" lon="4.55744">
        <ele>344.8</ele>
        <time>2014-09-28T09:27:22Z</time>
      </trkpt>
      <trkpt lat="45.93349" lon="4.55754">
        <ele>346.2</ele>
        <time>2014-09-28T09:27:30Z</time>
      </trkpt>
      <trkpt lat="45.9335" lon="4.55756">
        <ele>346.3</ele>
        <time>2014-09-28T09:27:31Z</time>
      </trkpt>
      <trkpt lat="45.93359" lon="4.55775">
        <ele>348.3</ele>
        <time>2014-09-28T09:27:47Z</time>
      </trkpt>
      <trkpt lat="45.93365" lon="4.55785">
        <ele>349.6</ele>
        <time>2014-09-28T09:27:58Z</time>
      </trkpt>
      <trkpt lat="45.93368" lon="4.55797">
        <ele>351.5</ele>
        <time>2014-09-28T09:28:15Z</time>
      </trkpt>
      <trkpt lat="45.93372" lon="4.55808">
        <ele>356.5</ele>
        <time>2014-09-28T09:29:03Z</time>
      </trkpt>
      <trkpt lat="45.93373" lon="4.55809">
        <ele>356.7</ele>
        <time>2014-09-28T09:29:04Z</time>
      </trkpt>
      <trkpt lat="45.93379" lon="4.55829">
        <ele>359.7</ele>
        <time>2014-09-28T09:29:19Z</time>
      </trkpt>
      <trkpt lat="45.93383" lon="4.55841">
        <ele>361.5</ele>
        <time>2014-09-28T09:29:28Z</time>
      </trkpt>
      <trkpt lat="45.93388" lon="4.55851">
        <ele>362.8</ele>
        <time>2014-09-28T09:29:37Z</time>
      </trkpt>
      <trkpt lat="45.93393" lon="4.55862">
        <ele>364.2</ele>
        <time>2014-09-28T09:29:46Z</time>
      </trkpt>
      <trkpt lat="45.93397" lon="4.55872">
        <ele>365.2</ele>
        <time>2014-09-28T09:29:55Z</time>
      </trkpt>
      <trkpt lat="45.93402" lon="4.55882">
        <ele>366.3</ele>
        <time>2014-09-28T09:30:04Z</time>
      </trkpt>
      <trkpt lat="45.93403" lon="4.55883">
        <ele>366.5</ele>
        <time>2014-09-28T09:30:05Z</time>
      </trkpt>
      <trkpt lat="45.93412" lon="4.55902">
        <ele>368</ele>
        <time>2014-09-28T09:30:21Z</time>
      </trkpt>
      <trkpt lat="45.93414" lon="4.55913">
        <ele>368.7</ele>
        <time>2014-09-28T09:30:28Z</time>
      </trkpt>
      <trkpt lat="45.93416" lon="4.55925">
        <ele>369.8</ele>
        <time>2014-09-28T09:30:36Z</time>
      </trkpt>
      <trkpt lat="45.93417" lon="4.55938">
        <ele>371.3</ele>
        <time>2014-09-28T09:30:46Z</time>
      </trkpt>
      <trkpt lat="45.93419" lon="4.55949">
        <ele>372.6</ele>
        <time>2014-09-28T09:30:55Z</time>
      </trkpt>
      <trkpt lat="45.9342" lon="4.55961">
        <ele>373.6</ele>
        <time>2014-09-28T09:31:04Z</time>
      </trkpt>
      <trkpt lat="45.93421" lon="4.55974">
        <ele>374.3</ele>
        <time>2014-09-28T09:31:12Z</time>
      </trkpt>
      <trkpt lat="45.93421" lon="4.55976">
        <ele>374.5</ele>
        <time>2014-09-28T09:31:13Z</time>
      </trkpt>
      <trkpt lat="45.93424" lon="4.55998">
        <ele>376</ele>
        <time>2014-09-28T09:31:27Z</time>
      </trkpt>
      <trkpt lat="45.93427" lon="4.56009">
        <ele>376.7</ele>
        <time>2014-09-28T09:31:34Z</time>
      </trkpt>
      <trkpt lat="45.9343" lon="4.56021">
        <ele>377.2</ele>
        <time>2014-09-28T09:31:41Z</time>
      </trkpt>
      <trkpt lat="45.93433" lon="4.56032">
        <ele>378.1</ele>
        <time>2014-09-28T09:31:49Z</time>
      </trkpt>
      <trkpt lat="45.93437" lon="4.56043">
        <ele>379.2</ele>
        <time>2014-09-28T09:31:58Z</time>
      </trkpt>
      <trkpt lat="45.93442" lon="4.56053">
        <ele>380.5</ele>
        <time>2014-09-28T09:32:07Z</time>
      </trkpt>
      <trkpt lat="45.93447" lon="4.56064">
        <ele>381.5</ele>
        <time>2014-09-28T09:32:15Z</time>
      </trkpt>
      <trkpt lat="45.93447" lon="4.56065">
        <ele>381.6</ele>
        <time>2014-09-28T09:32:16Z</time>
      </trkpt>
      <trkpt lat="45.93457" lon="4.56082">
        <ele>383.2</ele>
        <time>2014-09-28T09:32:31Z</time>
      </trkpt>
      <trkpt lat="45.93464" lon="4.56091">
        <ele>383.8</ele>
        <time>2014-09-28T09:32:40Z</time>
      </trkpt>
      <trkpt lat="45.9347" lon="4.56099">
        <ele>384.3</ele>
        <time>2014-09-28T09:32:50Z</time>
      </trkpt>
      <trkpt lat="45.93476" lon="4.56108">
        <ele>384.8</ele>
        <time>2014-09-28T09:32:59Z</time>
      </trkpt>
      <trkpt lat="45.93482" lon="4.56117">
        <ele>385.2</ele>
        <time>2014-09-28T09:33:08Z</time>
      </trkpt>
      <trkpt lat="45.93488" lon="4.56126">
        <ele>385.7</ele>
        <time>2014-09-28T09:33:17Z</time>
      </trkpt>
      <trkpt lat="45.93489" lon="4.56127">
        <ele>385.7</ele>
        <time>2014-09-28T09:33:18Z</time>
      </trkpt>
      <trkpt lat="45.935" lon="4.56144">
        <ele>386.1</ele>
        <time>2014-09-28T09:33:35Z</time>
      </trkpt>
      <trkpt lat="45.93507" lon="4.56152">
        <ele>386.2</ele>
        <time>2014-09-28T09:33:44Z</time>
      </trkpt>
      <trkpt lat="45.93513" lon="4.56161">
        <ele>386.3</ele>
        <time>2014-09-28T09:33:53Z</time>
      </trkpt>
      <trkpt lat="45.93519" lon="4.5617">
        <ele>386.3</ele>
        <time>2014-09-28T09:34:11Z</time>
      </trkpt>
      <trkpt lat="45.93525" lon="4.56179">
        <ele>386.3</ele>
        <time>2014-09-28T09:34:19Z</time>
      </trkpt>
      <trkpt lat="45.93526" lon="4.5618">
        <ele>386.3</ele>
        <time>2014-09-28T09:34:20Z</time>
      </trkpt>
      <trkpt lat="45.93537" lon="4.56195">
        <ele>386.2</ele>
        <time>2014-09-28T09:34:35Z</time>
      </trkpt>
      <trkpt lat="45.93543" lon="4.56204">
        <ele>386.2</ele>
        <time>2014-09-28T09:34:43Z</time>
      </trkpt>
      <trkpt lat="45.93549" lon="4.56212">
        <ele>385.8</ele>
        <time>2014-09-28T09:34:49Z</time>
      </trkpt>
      <trkpt lat="45.93554" lon="4.56221">
        <ele>385.6</ele>
        <time>2014-09-28T09:34:56Z</time>
      </trkpt>
      <trkpt lat="45.9356" lon="4.5623">
        <ele>385.3</ele>
        <time>2014-09-28T09:35:04Z</time>
      </trkpt>
      <trkpt lat="45.93566" lon="4.56239">
        <ele>385.2</ele>
        <time>2014-09-28T09:35:12Z</time>
      </trkpt>
      <trkpt lat="45.93572" lon="4.56248">
        <ele>385</ele>
        <time>2014-09-28T09:35:20Z</time>
      </trkpt>
      <trkpt lat="45.93573" lon="4.56249">
        <ele>385</ele>
        <time>2014-09-28T09:35:21Z</time>
      </trkpt>
      <trkpt lat="45.93585" lon="4.56265">
        <ele>384.6</ele>
        <time>2014-09-28T09:35:36Z</time>
      </trkpt>
      <trkpt lat="45.93591" lon="4.56274">
        <ele>384.3</ele>
        <time>2014-09-28T09:35:44Z</time>
      </trkpt>
      <trkpt lat="45.93597" lon="4.56281">
        <ele>384.2</ele>
        <time>2014-09-28T09:35:51Z</time>
      </trkpt>
      <trkpt lat="45.93602" lon="4.56289">
        <ele>384</ele>
        <time>2014-09-28T09:35:58Z</time>
      </trkpt>
      <trkpt lat="45.93609" lon="4.56297">
        <ele>383.7</ele>
        <time>2014-09-28T09:36:06Z</time>
      </trkpt>
      <trkpt lat="45.93615" lon="4.56307">
        <ele>383.7</ele>
        <time>2014-09-28T09:36:14Z</time>
      </trkpt>
      <trkpt lat="45.93621" lon="4.56316">
        <ele>383.5</ele>
        <time>2014-09-28T09:36:22Z</time>
      </trkpt>
      <trkpt lat="45.93622" lon="4.56317">
        <ele>383.3</ele>
        <time>2014-09-28T09:36:23Z</time>
      </trkpt>
      <trkpt lat="45.93631" lon="4.56335">
        <ele>383.2</ele>
        <time>2014-09-28T09:36:37Z</time>
      </trkpt>
      <trkpt lat="45.93636" lon="4.56346">
        <ele>383.2</ele>
        <time>2014-09-28T09:36:45Z</time>
      </trkpt>
      <trkpt lat="45.93641" lon="4.56355">
        <ele>383.3</ele>
        <time>2014-09-28T09:36:53Z</time>
      </trkpt>
      <trkpt lat="45.93646" lon="4.56365">
        <ele>383.3</ele>
        <time>2014-09-28T09:37:01Z</time>
      </trkpt>
      <trkpt lat="45.93653" lon="4.56372">
        <ele>383.5</ele>
        <time>2014-09-28T09:37:09Z</time>
      </trkpt>
      <trkpt lat="45.93659" lon="4.56381">
        <ele>383.6</ele>
        <time>2014-09-28T09:37:17Z</time>
      </trkpt>
      <trkpt lat="45.93662" lon="4.56391">
        <ele>383.7</ele>
        <time>2014-09-28T09:37:24Z</time>
      </trkpt>
      <trkpt lat="45.93663" lon="4.56393">
        <ele>383.7</ele>
        <time>2014-09-28T09:37:25Z</time>
      </trkpt>
      <trkpt lat="45.93671" lon="4.56413">
        <ele>383.8</ele>
        <time>2014-09-28T09:37:40Z</time>
      </trkpt>
      <trkpt lat="45.93675" lon="4.56423">
        <ele>383.8</ele>
        <time>2014-09-28T09:37:47Z</time>
      </trkpt>
      <trkpt lat="45.9368" lon="4.56434">
        <ele>383.8</ele>
        <time>2014-09-28T09:37:55Z</time>
      </trkpt>
      <trkpt lat="45.93684" lon="4.56445">
        <ele>383.8</ele>
        <time>2014-09-28T09:38:03Z</time>
      </trkpt>
      <trkpt lat="45.93688" lon="4.56455">
        <ele>384.1</ele>
        <time>2014-09-28T09:38:11Z</time>
      </trkpt>
      <trkpt lat="45.93692" lon="4.56466">
        <ele>384.3</ele>
        <time>2014-09-28T09:38:18Z</time>
      </trkpt>
      <trkpt lat="45.93695" lon="4.56477">
        <ele>384.6</ele>
        <time>2014-09-28T09:38:25Z</time>
      </trkpt>
      <trkpt lat="45.93695" lon="4.56479">
        <ele>384.7</ele>
        <time>2014-09-28T09:38:26Z</time>
      </trkpt>
      <trkpt lat="45.93699" lon="4.56502">
        <ele>385.5</ele>
        <time>2014-09-28T09:38:42Z</time>
      </trkpt>
      <trkpt lat="45.93704" lon="4.56512">
        <ele>385.7</ele>
        <time>2014-09-28T09:38:54Z</time>
      </trkpt>
      <trkpt lat="45.9371" lon="4.5652">
        <ele>385.7</ele>
        <time>2014-09-28T09:39:02Z</time>
      </trkpt>
      <trkpt lat="45.93718" lon="4.56527">
        <ele>385.3</ele>
        <time>2014-09-28T09:39:12Z</time>
      </trkpt>
      <trkpt lat="45.93725" lon="4.56534">
        <ele>385.2</ele>
        <time>2014-09-28T09:39:21Z</time>
      </trkpt>
      <trkpt lat="45.93732" lon="4.5654">
        <ele>385</ele>
        <time>2014-09-28T09:39:31Z</time>
      </trkpt>
      <trkpt lat="45.93733" lon="4.56541">
        <ele>385</ele>
        <time>2014-09-28T09:39:32Z</time>
      </trkpt>
      <trkpt lat="45.93749" lon="4.56549">
        <ele>385.3</ele>
        <time>2014-09-28T09:39:49Z</time>
      </trkpt>
      <trkpt lat="45.93756" lon="4.56554">
        <ele>385.7</ele>
        <time>2014-09-28T09:39:57Z</time>
      </trkpt>
      <trkpt lat="45.93764" lon="4.5656">
        <ele>386.5</ele>
        <time>2014-09-28T09:40:05Z</time>
      </trkpt>
      <trkpt lat="45.93772" lon="4.56564">
        <ele>387.2</ele>
        <time>2014-09-28T09:40:12Z</time>
      </trkpt>
      <trkpt lat="45.9378" lon="4.56567">
        <ele>388.2</ele>
        <time>2014-09-28T09:40:20Z</time>
      </trkpt>
      <trkpt lat="45.93789" lon="4.56569">
        <ele>389.2</ele>
        <time>2014-09-28T09:40:28Z</time>
      </trkpt>
      <trkpt lat="45.93797" lon="4.56571">
        <ele>389.7</ele>
        <time>2014-09-28T09:40:36Z</time>
      </trkpt>
      <trkpt lat="45.93798" lon="4.56572">
        <ele>389.8</ele>
        <time>2014-09-28T09:40:37Z</time>
      </trkpt>
      <trkpt lat="45.93813" lon="4.56576">
        <ele>390.8</ele>
        <time>2014-09-28T09:40:52Z</time>
      </trkpt>
      <trkpt lat="45.93821" lon="4.56578">
        <ele>391.3</ele>
        <time>2014-09-28T09:41:00Z</time>
      </trkpt>
      <trkpt lat="45.9383" lon="4.56581">
        <ele>391.8</ele>
        <time>2014-09-28T09:41:08Z</time>
      </trkpt>
      <trkpt lat="45.93838" lon="4.56584">
        <ele>392.2</ele>
        <time>2014-09-28T09:41:15Z</time>
      </trkpt>
      <trkpt lat="45.93846" lon="4.56586">
        <ele>392.2</ele>
        <time>2014-09-28T09:41:21Z</time>
      </trkpt>
      <trkpt lat="45.93854" lon="4.56589">
        <ele>392.3</ele>
        <time>2014-09-28T09:41:28Z</time>
      </trkpt>
      <trkpt lat="45.93862" lon="4.56592">
        <ele>392.3</ele>
        <time>2014-09-28T09:41:35Z</time>
      </trkpt>
      <trkpt lat="45.9387" lon="4.56595">
        <ele>392.3</ele>
        <time>2014-09-28T09:41:42Z</time>
      </trkpt>
      <trkpt lat="45.93871" lon="4.56596">
        <ele>392.3</ele>
        <time>2014-09-28T09:41:43Z</time>
      </trkpt>
      <trkpt lat="45.93887" lon="4.56602">
        <ele>392.2</ele>
        <time>2014-09-28T09:41:59Z</time>
      </trkpt>
      <trkpt lat="45.93895" lon="4.56605">
        <ele>392.6</ele>
        <time>2014-09-28T09:42:19Z</time>
      </trkpt>
      <trkpt lat="45.93902" lon="4.5661">
        <ele>392.7</ele>
        <time>2014-09-28T09:42:27Z</time>
      </trkpt>
      <trkpt lat="45.9391" lon="4.56614">
        <ele>393.1</ele>
        <time>2014-09-28T09:42:35Z</time>
      </trkpt>
      <trkpt lat="45.93917" lon="4.56618">
        <ele>393.2</ele>
        <time>2014-09-28T09:42:43Z</time>
      </trkpt>
      <trkpt lat="45.93918" lon="4.56619">
        <ele>393.2</ele>
        <time>2014-09-28T09:42:44Z</time>
      </trkpt>
      <trkpt lat="45.93933" lon="4.56625">
        <ele>393.2</ele>
        <time>2014-09-28T09:42:56Z</time>
      </trkpt>
      <trkpt lat="45.93941" lon="4.56628">
        <ele>393.2</ele>
        <time>2014-09-28T09:43:03Z</time>
      </trkpt>
      <trkpt lat="45.9395" lon="4.56632">
        <ele>392.8</ele>
        <time>2014-09-28T09:43:10Z</time>
      </trkpt>
      <trkpt lat="45.93956" lon="4.56639">
        <ele>392.1</ele>
        <time>2014-09-28T09:43:20Z</time>
      </trkpt>
      <trkpt lat="45.9396" lon="4.5665">
        <ele>391.3</ele>
        <time>2014-09-28T09:43:27Z</time>
      </trkpt>
      <trkpt lat="45.93963" lon="4.56661">
        <ele>390.6</ele>
        <time>2014-09-28T09:43:34Z</time>
      </trkpt>
      <trkpt lat="45.93967" lon="4.56671">
        <ele>390.1</ele>
        <time>2014-09-28T09:43:41Z</time>
      </trkpt>
      <trkpt lat="45.93972" lon="4.56682">
        <ele>389.7</ele>
        <time>2014-09-28T09:43:48Z</time>
      </trkpt>
      <trkpt lat="45.93973" lon="4.56683">
        <ele>389.6</ele>
        <time>2014-09-28T09:43:49Z</time>
      </trkpt>
      <trkpt lat="45.93981" lon="4.56702">
        <ele>389.2</ele>
        <time>2014-09-28T09:44:02Z</time>
      </trkpt>
      <trkpt lat="45.93984" lon="4.56713">
        <ele>389</ele>
        <time>2014-09-28T09:44:12Z</time>
      </trkpt>
      <trkpt lat="45.93991" lon="4.56719">
        <ele>389</ele>
        <time>2014-09-28T09:44:22Z</time>
      </trkpt>
      <trkpt lat="45.94" lon="4.56723">
        <ele>389.1</ele>
        <time>2014-09-28T09:44:30Z</time>
      </trkpt>
      <trkpt lat="45.94008" lon="4.56726">
        <ele>389.2</ele>
        <time>2014-09-28T09:44:39Z</time>
      </trkpt>
      <trkpt lat="45.94017" lon="4.56729">
        <ele>389.3</ele>
        <time>2014-09-28T09:44:47Z</time>
      </trkpt>
      <trkpt lat="45.94025" lon="4.56732">
        <ele>389.5</ele>
        <time>2014-09-28T09:44:54Z</time>
      </trkpt>
      <trkpt lat="45.94026" lon="4.56732">
        <ele>389.5</ele>
        <time>2014-09-28T09:44:55Z</time>
      </trkpt>
      <trkpt lat="45.94041" lon="4.56729">
        <ele>390.2</ele>
        <time>2014-09-28T09:46:07Z</time>
      </trkpt>
      <trkpt lat="45.94041" lon="4.56728">
        <ele>390.2</ele>
        <time>2014-09-28T09:46:08Z</time>
      </trkpt>
      <trkpt lat="45.94053" lon="4.56713">
        <ele>391.5</ele>
        <time>2014-09-28T09:46:25Z</time>
      </trkpt>
      <trkpt lat="45.94059" lon="4.56705">
        <ele>392.1</ele>
        <time>2014-09-28T09:46:34Z</time>
      </trkpt>
      <trkpt lat="45.94066" lon="4.56697">
        <ele>392.3</ele>
        <time>2014-09-28T09:46:43Z</time>
      </trkpt>
      <trkpt lat="45.94072" lon="4.5669">
        <ele>392.6</ele>
        <time>2014-09-28T09:46:51Z</time>
      </trkpt>
      <trkpt lat="45.94078" lon="4.56682">
        <ele>392.8</ele>
        <time>2014-09-28T09:47:00Z</time>
      </trkpt>
      <trkpt lat="45.94085" lon="4.56673">
        <ele>393.1</ele>
        <time>2014-09-28T09:47:10Z</time>
      </trkpt>
      <trkpt lat="45.94086" lon="4.56672">
        <ele>393.1</ele>
        <time>2014-09-28T09:47:11Z</time>
      </trkpt>
      <trkpt lat="45.94097" lon="4.56655">
        <ele>393.3</ele>
        <time>2014-09-28T09:47:28Z</time>
      </trkpt>
      <trkpt lat="45.94103" lon="4.56647">
        <ele>393.5</ele>
        <time>2014-09-28T09:47:38Z</time>
      </trkpt>
      <trkpt lat="45.94111" lon="4.5664">
        <ele>393.3</ele>
        <time>2014-09-28T09:47:49Z</time>
      </trkpt>
      <trkpt lat="45.94118" lon="4.56634">
        <ele>393.1</ele>
        <time>2014-09-28T09:47:59Z</time>
      </trkpt>
      <trkpt lat="45.94125" lon="4.56626">
        <ele>392.7</ele>
        <time>2014-09-28T09:48:08Z</time>
      </trkpt>
      <trkpt lat="45.94131" lon="4.56616">
        <ele>392.2</ele>
        <time>2014-09-28T09:48:18Z</time>
      </trkpt>
      <trkpt lat="45.94131" lon="4.56615">
        <ele>392.2</ele>
        <time>2014-09-28T09:48:19Z</time>
      </trkpt>
      <trkpt lat="45.94142" lon="4.56598">
        <ele>391</ele>
        <time>2014-09-28T09:48:37Z</time>
      </trkpt>
      <trkpt lat="45.94147" lon="4.56589">
        <ele>390.5</ele>
        <time>2014-09-28T09:48:45Z</time>
      </trkpt>
      <trkpt lat="45.94152" lon="4.56579">
        <ele>389.8</ele>
        <time>2014-09-28T09:48:54Z</time>
      </trkpt>
      <trkpt lat="45.94158" lon="4.56569">
        <ele>389.2</ele>
        <time>2014-09-28T09:49:02Z</time>
      </trkpt>
      <trkpt lat="45.94164" lon="4.5656">
        <ele>388.5</ele>
        <time>2014-09-28T09:49:11Z</time>
      </trkpt>
      <trkpt lat="45.94169" lon="4.5655">
        <ele>387.8</ele>
        <time>2014-09-28T09:49:21Z</time>
      </trkpt>
      <trkpt lat="45.9417" lon="4.56549">
        <ele>387.8</ele>
        <time>2014-09-28T09:49:22Z</time>
      </trkpt>
      <trkpt lat="45.94185" lon="4.56545">
        <ele>387</ele>
        <time>2014-09-28T09:49:40Z</time>
      </trkpt>
      <trkpt lat="45.94193" lon="4.56547">
        <ele>386.7</ele>
        <time>2014-09-28T09:49:49Z</time>
      </trkpt>
      <trkpt lat="45.94201" lon="4.56552">
        <ele>386.1</ele>
        <time>2014-09-28T09:49:59Z</time>
      </trkpt>
      <trkpt lat="45.94209" lon="4.56555">
        <ele>385.6</ele>
        <time>2014-09-28T09:50:09Z</time>
      </trkpt>
      <trkpt lat="45.94218" lon="4.56557">
        <ele>385.2</ele>
        <time>2014-09-28T09:50:17Z</time>
      </trkpt>
      <trkpt lat="45.94226" lon="4.56559">
        <ele>384.7</ele>
        <time>2014-09-28T09:50:34Z</time>
      </trkpt>
      <trkpt lat="45.94227" lon="4.5656">
        <ele>384.6</ele>
        <time>2014-09-28T09:50:35Z</time>
      </trkpt>
      <trkpt lat="45.94242" lon="4.5656">
        <ele>383.7</ele>
        <time>2014-09-28T09:50:48Z</time>
      </trkpt>
      <trkpt lat="45.9425" lon="4.5656">
        <ele>383.2</ele>
        <time>2014-09-28T09:50:54Z</time>
      </trkpt>
      <trkpt lat="45.94259" lon="4.5656">
        <ele>382.7</ele>
        <time>2014-09-28T09:51:00Z</time>
      </trkpt>
      <trkpt lat="45.94267" lon="4.56558">
        <ele>382.1</ele>
        <time>2014-09-28T09:51:07Z</time>
      </trkpt>
      <trkpt lat="45.94276" lon="4.56557">
        <ele>381.6</ele>
        <time>2014-09-28T09:51:16Z</time>
      </trkpt>
      <trkpt lat="45.94284" lon="4.56554">
        <ele>381</ele>
        <time>2014-09-28T09:51:26Z</time>
      </trkpt>
      <trkpt lat="45.94293" lon="4.56554">
        <ele>380.5</ele>
        <time>2014-09-28T09:51:34Z</time>
      </trkpt>
      <trkpt lat="45.94301" lon="4.56556">
        <ele>380.1</ele>
        <time>2014-09-28T09:51:42Z</time>
      </trkpt>
      <trkpt lat="45.94302" lon="4.56556">
        <ele>380.1</ele>
        <time>2014-09-28T09:51:43Z</time>
      </trkpt>
      <trkpt lat="45.94318" lon="4.56558">
        <ele>380</ele>
        <time>2014-09-28T09:51:57Z</time>
      </trkpt>
      <trkpt lat="45.94326" lon="4.56559">
        <ele>380.1</ele>
        <time>2014-09-28T09:52:05Z</time>
      </trkpt>
      <trkpt lat="45.94335" lon="4.56558">
        <ele>380.2</ele>
        <time>2014-09-28T09:52:14Z</time>
      </trkpt>
      <trkpt lat="45.94342" lon="4.56553">
        <ele>380.2</ele>
        <time>2014-09-28T09:52:21Z</time>
      </trkpt>
      <trkpt lat="45.94349" lon="4.56548">
        <ele>380.1</ele>
        <time>2014-09-28T09:52:27Z</time>
      </trkpt>
      <trkpt lat="45.94357" lon="4.56541">
        <ele>380.1</ele>
        <time>2014-09-28T09:52:34Z</time>
      </trkpt>
      <trkpt lat="45.94363" lon="4.56534">
        <ele>380</ele>
        <time>2014-09-28T09:52:41Z</time>
      </trkpt>
      <trkpt lat="45.9437" lon="4.56527">
        <ele>380.1</ele>
        <time>2014-09-28T09:52:49Z</time>
      </trkpt>
      <trkpt lat="45.94371" lon="4.56526">
        <ele>380.1</ele>
        <time>2014-09-28T09:52:50Z</time>
      </trkpt>
      <trkpt lat="45.94384" lon="4.56511">
        <ele>380.1</ele>
        <time>2014-09-28T09:53:06Z</time>
      </trkpt>
      <trkpt lat="45.9439" lon="4.56504">
        <ele>380</ele>
        <time>2014-09-28T09:53:13Z</time>
      </trkpt>
      <trkpt lat="45.94397" lon="4.56496">
        <ele>380.2</ele>
        <time>2014-09-28T09:53:21Z</time>
      </trkpt>
      <trkpt lat="45.94403" lon="4.56488">
        <ele>380.6</ele>
        <time>2014-09-28T09:53:29Z</time>
      </trkpt>
      <trkpt lat="45.9441" lon="4.56479">
        <ele>380.7</ele>
        <time>2014-09-28T09:53:38Z</time>
      </trkpt>
      <trkpt lat="45.94415" lon="4.5647">
        <ele>381.2</ele>
        <time>2014-09-28T09:53:54Z</time>
      </trkpt>
      <trkpt lat="45.94416" lon="4.56469">
        <ele>381.3</ele>
        <time>2014-09-28T09:53:55Z</time>
      </trkpt>
      <trkpt lat="45.9443" lon="4.56457">
        <ele>382.6</ele>
        <time>2014-09-28T09:54:14Z</time>
      </trkpt>
      <trkpt lat="45.94435" lon="4.56447">
        <ele>383.2</ele>
        <time>2014-09-28T09:54:24Z</time>
      </trkpt>
      <trkpt lat="45.9444" lon="4.56437">
        <ele>383.6</ele>
        <time>2014-09-28T09:54:34Z</time>
      </trkpt>
      <trkpt lat="45.94445" lon="4.56427">
        <ele>384</ele>
        <time>2014-09-28T09:54:42Z</time>
      </trkpt>
      <trkpt lat="45.94449" lon="4.56417">
        <ele>384.5</ele>
        <time>2014-09-28T09:54:49Z</time>
      </trkpt>
      <trkpt lat="45.94455" lon="4.56409">
        <ele>385.1</ele>
        <time>2014-09-28T09:54:58Z</time>
      </trkpt>
      <trkpt lat="45.94456" lon="4.56408">
        <ele>385.1</ele>
        <time>2014-09-28T09:54:59Z</time>
      </trkpt>
      <trkpt lat="45.94457" lon="4.56388">
        <ele>386.2</ele>
        <time>2014-09-28T09:55:21Z</time>
      </trkpt>
      <trkpt lat="45.94454" lon="4.56378">
        <ele>386.6</ele>
        <time>2014-09-28T09:55:25Z</time>
      </trkpt>
      <trkpt lat="45.94448" lon="4.56367">
        <ele>387.1</ele>
        <time>2014-09-28T09:55:34Z</time>
      </trkpt>
      <trkpt lat="45.94451" lon="4.56356">
        <ele>388.3</ele>
        <time>2014-09-28T09:56:04Z</time>
      </trkpt>
      <trkpt lat="45.94452" lon="4.56355">
        <ele>388.5</ele>
        <time>2014-09-28T09:56:05Z</time>
      </trkpt>
      <trkpt lat="45.94462" lon="4.56337">
        <ele>390.5</ele>
        <time>2014-09-28T09:56:37Z</time>
      </trkpt>
      <trkpt lat="45.9447" lon="4.5634">
        <ele>391</ele>
        <time>2014-09-28T09:56:57Z</time>
      </trkpt>
      <trkpt lat="45.94479" lon="4.56336">
        <ele>395.2</ele>
        <time>2014-09-28T09:58:25Z</time>
      </trkpt>
      <trkpt lat="45.9448" lon="4.56336">
        <ele>395.3</ele>
        <time>2014-09-28T09:58:26Z</time>
      </trkpt>
      <trkpt lat="45.94496" lon="4.56337">
        <ele>397.2</ele>
        <time>2014-09-28T09:59:15Z</time>
      </trkpt>
      <trkpt lat="45.94491" lon="4.56327">
        <ele>398</ele>
        <time>2014-09-28T10:00:08Z</time>
      </trkpt>
      <trkpt lat="45.94491" lon="4.56326">
        <ele>398</ele>
        <time>2014-09-28T10:00:09Z</time>
      </trkpt>
      <trkpt lat="45.94479" lon="4.5631">
        <ele>398.3</ele>
        <time>2014-09-28T10:00:27Z</time>
      </trkpt>
      <trkpt lat="45.94472" lon="4.56302">
        <ele>398.3</ele>
        <time>2014-09-28T10:00:35Z</time>
      </trkpt>
      <trkpt lat="45.94467" lon="4.56292">
        <ele>398.6</ele>
        <time>2014-09-28T10:00:44Z</time>
      </trkpt>
      <trkpt lat="45.94458" lon="4.56292">
        <ele>399.1</ele>
        <time>2014-09-28T10:00:50Z</time>
      </trkpt>
      <trkpt lat="45.94452" lon="4.56284">
        <ele>399.2</ele>
        <time>2014-09-28T10:01:01Z</time>
      </trkpt>
      <trkpt lat="45.94453" lon="4.56272">
        <ele>398.7</ele>
        <time>2014-09-28T10:01:22Z</time>
      </trkpt>
      <trkpt lat="45.94453" lon="4.56271">
        <ele>398.7</ele>
        <time>2014-09-28T10:01:23Z</time>
      </trkpt>
      <trkpt lat="45.94469" lon="4.56265">
        <ele>399.7</ele>
        <time>2014-09-28T10:01:39Z</time>
      </trkpt>
      <trkpt lat="45.94475" lon="4.56256">
        <ele>400.7</ele>
        <time>2014-09-28T10:01:46Z</time>
      </trkpt>
      <trkpt lat="45.94479" lon="4.56246">
        <ele>401.8</ele>
        <time>2014-09-28T10:01:55Z</time>
      </trkpt>
      <trkpt lat="45.94483" lon="4.56235">
        <ele>403.2</ele>
        <time>2014-09-28T10:02:05Z</time>
      </trkpt>
      <trkpt lat="45.94486" lon="4.56223">
        <ele>404.3</ele>
        <time>2014-09-28T10:02:15Z</time>
      </trkpt>
      <trkpt lat="45.94488" lon="4.56212">
        <ele>406.1</ele>
        <time>2014-09-28T10:02:20Z</time>
      </trkpt>
      <trkpt lat="45.9449" lon="4.56199">
        <ele>407.8</ele>
        <time>2014-09-28T10:02:25Z</time>
      </trkpt>
      <trkpt lat="45.9449" lon="4.56197">
        <ele>408.2</ele>
        <time>2014-09-28T10:02:26Z</time>
      </trkpt>
      <trkpt lat="45.94501" lon="4.56182">
        <ele>413.7</ele>
        <time>2014-09-28T10:03:07Z</time>
      </trkpt>
      <trkpt lat="45.94509" lon="4.56183">
        <ele>415.7</ele>
        <time>2014-09-28T10:03:18Z</time>
      </trkpt>
      <trkpt lat="45.94503" lon="4.56175">
        <ele>428</ele>
        <time>2014-09-28T10:07:41Z</time>
      </trkpt>
      <trkpt lat="45.94502" lon="4.56175">
        <ele>428.1</ele>
        <time>2014-09-28T10:07:42Z</time>
      </trkpt>
      <trkpt lat="45.94502" lon="4.56177">
        <ele>428</ele>
        <time>2014-09-28T10:09:27Z</time>
      </trkpt>
      <trkpt lat="45.94502" lon="4.56178">
        <ele>428</ele>
        <time>2014-09-28T10:09:28Z</time>
      </trkpt>
      <trkpt lat="45.94496" lon="4.56198">
        <ele>425.1</ele>
        <time>2014-09-28T10:09:48Z</time>
      </trkpt>
      <trkpt lat="45.94491" lon="4.56208">
        <ele>424.2</ele>
        <time>2014-09-28T10:09:57Z</time>
      </trkpt>
      <trkpt lat="45.94486" lon="4.56218">
        <ele>423.7</ele>
        <time>2014-09-28T10:10:05Z</time>
      </trkpt>
      <trkpt lat="45.9448" lon="4.56228">
        <ele>423.5</ele>
        <time>2014-09-28T10:10:14Z</time>
      </trkpt>
      <trkpt lat="45.94477" lon="4.56239">
        <ele>423.2</ele>
        <time>2014-09-28T10:10:24Z</time>
      </trkpt>
      <trkpt lat="45.94474" lon="4.56251">
        <ele>422.7</ele>
        <time>2014-09-28T10:10:36Z</time>
      </trkpt>
      <trkpt lat="45.94474" lon="4.56252">
        <ele>422.7</ele>
        <time>2014-09-28T10:10:37Z</time>
      </trkpt>
      <trkpt lat="45.94467" lon="4.56274">
        <ele>421.8</ele>
        <time>2014-09-28T10:11:03Z</time>
      </trkpt>
      <trkpt lat="45.94462" lon="4.56284">
        <ele>421.5</ele>
        <time>2014-09-28T10:11:18Z</time>
      </trkpt>
      <trkpt lat="45.94458" lon="4.56295">
        <ele>421.5</ele>
        <time>2014-09-28T10:11:30Z</time>
      </trkpt>
      <trkpt lat="45.94456" lon="4.56308">
        <ele>421.7</ele>
        <time>2014-09-28T10:11:43Z</time>
      </trkpt>
      <trkpt lat="45.94456" lon="4.56308">
        <ele>421.7</ele>
        <time>2014-09-28T10:11:44Z</time>
      </trkpt>
      <trkpt lat="45.9446" lon="4.56309">
        <ele>422.5</ele>
        <time>2014-09-28T10:15:21Z</time>
      </trkpt>
      <trkpt lat="45.9446" lon="4.56309">
        <ele>422.5</ele>
        <time>2014-09-28T10:15:22Z</time>
      </trkpt>
      <trkpt lat="45.94469" lon="4.56314">
        <ele>421</ele>
        <time>2014-09-28T10:16:40Z</time>
      </trkpt>
      <trkpt lat="45.9447" lon="4.56316">
        <ele>421</ele>
        <time>2014-09-28T10:16:41Z</time>
      </trkpt>
      <trkpt lat="45.94478" lon="4.56334">
        <ele>420.2</ele>
        <time>2014-09-28T10:16:55Z</time>
      </trkpt>
      <trkpt lat="45.94487" lon="4.56336">
        <ele>420.1</ele>
        <time>2014-09-28T10:17:02Z</time>
      </trkpt>
      <trkpt lat="45.94495" lon="4.5634">
        <ele>420.1</ele>
        <time>2014-09-28T10:17:14Z</time>
      </trkpt>
      <trkpt lat="45.94504" lon="4.56343">
        <ele>420</ele>
        <time>2014-09-28T10:17:24Z</time>
      </trkpt>
      <trkpt lat="45.94512" lon="4.56347">
        <ele>420</ele>
        <time>2014-09-28T10:17:39Z</time>
      </trkpt>
      <trkpt lat="45.9452" lon="4.56349">
        <ele>420</ele>
        <time>2014-09-28T10:17:53Z</time>
      </trkpt>
      <trkpt lat="45.94521" lon="4.56349">
        <ele>420</ele>
        <time>2014-09-28T10:17:54Z</time>
      </trkpt>
      <trkpt lat="45.94536" lon="4.5636">
        <ele>420.2</ele>
        <time>2014-09-28T10:18:27Z</time>
      </trkpt>
      <trkpt lat="45.94544" lon="4.56366">
        <ele>420.3</ele>
        <time>2014-09-28T10:18:32Z</time>
      </trkpt>
      <trkpt lat="45.94552" lon="4.56369">
        <ele>420.6</ele>
        <time>2014-09-28T10:18:38Z</time>
      </trkpt>
      <trkpt lat="45.9456" lon="4.56371">
        <ele>420.6</ele>
        <time>2014-09-28T10:18:43Z</time>
      </trkpt>
      <trkpt lat="45.94569" lon="4.56374">
        <ele>420.5</ele>
        <time>2014-09-28T10:18:50Z</time>
      </trkpt>
      <trkpt lat="45.94577" lon="4.56377">
        <ele>420.2</ele>
        <time>2014-09-28T10:18:56Z</time>
      </trkpt>
      <trkpt lat="45.94578" lon="4.56378">
        <ele>420.2</ele>
        <time>2014-09-28T10:18:57Z</time>
      </trkpt>
      <trkpt lat="45.94592" lon="4.56385">
        <ele>419.8</ele>
        <time>2014-09-28T10:19:10Z</time>
      </trkpt>
      <trkpt lat="45.94599" lon="4.56392">
        <ele>420.1</ele>
        <time>2014-09-28T10:19:18Z</time>
      </trkpt>
      <trkpt lat="45.94607" lon="4.56396">
        <ele>420.1</ele>
        <time>2014-09-28T10:19:26Z</time>
      </trkpt>
      <trkpt lat="45.94615" lon="4.56401">
        <ele>420.1</ele>
        <time>2014-09-28T10:19:33Z</time>
      </trkpt>
      <trkpt lat="45.94623" lon="4.56405">
        <ele>420.1</ele>
        <time>2014-09-28T10:19:40Z</time>
      </trkpt>
      <trkpt lat="45.94631" lon="4.56408">
        <ele>420</ele>
        <time>2014-09-28T10:19:46Z</time>
      </trkpt>
      <trkpt lat="45.9464" lon="4.56408">
        <ele>420</ele>
        <time>2014-09-28T10:19:57Z</time>
      </trkpt>
      <trkpt lat="45.9464" lon="4.56408">
        <ele>420</ele>
        <time>2014-09-28T10:19:58Z</time>
      </trkpt>
      <trkpt lat="45.9463" lon="4.56387">
        <ele>419.2</ele>
        <time>2014-09-28T10:20:31Z</time>
      </trkpt>
      <trkpt lat="45.94627" lon="4.56376">
        <ele>419</ele>
        <time>2014-09-28T10:20:39Z</time>
      </trkpt>
      <trkpt lat="45.94623" lon="4.56365">
        <ele>418.8</ele>
        <time>2014-09-28T10:20:47Z</time>
      </trkpt>
      <trkpt lat="45.94619" lon="4.56355">
        <ele>418.7</ele>
        <time>2014-09-28T10:20:55Z</time>
      </trkpt>
      <trkpt lat="45.94612" lon="4.56346">
        <ele>418.7</ele>
        <time>2014-09-28T10:21:03Z</time>
      </trkpt>
      <trkpt lat="45.94611" lon="4.56345">
        <ele>418.7</ele>
        <time>2014-09-28T10:21:04Z</time>
      </trkpt>
      <trkpt lat="45.94597" lon="4.56334">
        <ele>418.7</ele>
        <time>2014-09-28T10:21:18Z</time>
      </trkpt>
      <trkpt lat="45.94589" lon="4.5633">
        <ele>418.6</ele>
        <time>2014-09-28T10:21:26Z</time>
      </trkpt>
      <trkpt lat="45.94581" lon="4.56326">
        <ele>418.8</ele>
        <time>2014-09-28T10:21:32Z</time>
      </trkpt>
      <trkpt lat="45.94573" lon="4.56321">
        <ele>420.1</ele>
        <time>2014-09-28T10:21:57Z</time>
      </trkpt>
      <trkpt lat="45.94574" lon="4.56308">
        <ele>420.3</ele>
        <time>2014-09-28T10:22:59Z</time>
      </trkpt>
      <trkpt lat="45.94575" lon="4.56308">
        <ele>420.3</ele>
        <time>2014-09-28T10:23:00Z</time>
      </trkpt>
      <trkpt lat="45.94582" lon="4.56288">
        <ele>420.7</ele>
        <time>2014-09-28T10:23:16Z</time>
      </trkpt>
      <trkpt lat="45.94586" lon="4.56277">
        <ele>421</ele>
        <time>2014-09-28T10:23:24Z</time>
      </trkpt>
      <trkpt lat="45.9459" lon="4.56267">
        <ele>421.2</ele>
        <time>2014-09-28T10:23:32Z</time>
      </trkpt>
      <trkpt lat="45.94594" lon="4.56256">
        <ele>421.6</ele>
        <time>2014-09-28T10:23:40Z</time>
      </trkpt>
      <trkpt lat="45.94599" lon="4.56246">
        <ele>421.8</ele>
        <time>2014-09-28T10:23:48Z</time>
      </trkpt>
      <trkpt lat="45.94605" lon="4.56236">
        <ele>422.5</ele>
        <time>2014-09-28T10:23:56Z</time>
      </trkpt>
      <trkpt lat="45.94613" lon="4.56235">
        <ele>423.6</ele>
        <time>2014-09-28T10:24:06Z</time>
      </trkpt>
      <trkpt lat="45.94614" lon="4.56235">
        <ele>423.7</ele>
        <time>2014-09-28T10:24:07Z</time>
      </trkpt>
      <trkpt lat="45.94627" lon="4.56248">
        <ele>425.6</ele>
        <time>2014-09-28T10:24:23Z</time>
      </trkpt>
      <trkpt lat="45.94634" lon="4.56256">
        <ele>426.2</ele>
        <time>2014-09-28T10:24:31Z</time>
      </trkpt>
      <trkpt lat="45.94641" lon="4.56262">
        <ele>426.6</ele>
        <time>2014-09-28T10:24:38Z</time>
      </trkpt>
      <trkpt lat="45.94648" lon="4.56269">
        <ele>426.8</ele>
        <time>2014-09-28T10:24:45Z</time>
      </trkpt>
      <trkpt lat="45.94655" lon="4.56276">
        <ele>427.2</ele>
        <time>2014-09-28T10:24:52Z</time>
      </trkpt>
      <trkpt lat="45.94662" lon="4.56283">
        <ele>427.2</ele>
        <time>2014-09-28T10:24:59Z</time>
      </trkpt>
      <trkpt lat="45.94669" lon="4.56289">
        <ele>427.2</ele>
        <time>2014-09-28T10:25:05Z</time>
      </trkpt>
      <trkpt lat="45.94675" lon="4.56296">
        <ele>427.1</ele>
        <time>2014-09-28T10:25:11Z</time>
      </trkpt>
      <trkpt lat="45.94677" lon="4.56297">
        <ele>427.1</ele>
        <time>2014-09-28T10:25:12Z</time>
      </trkpt>
      <trkpt lat="45.94689" lon="4.5631">
        <ele>427.1</ele>
        <time>2014-09-28T10:25:25Z</time>
      </trkpt>
      <trkpt lat="45.94696" lon="4.56318">
        <ele>427.1</ele>
        <time>2014-09-28T10:25:32Z</time>
      </trkpt>
      <trkpt lat="45.94702" lon="4.56326">
        <ele>427.2</ele>
        <time>2014-09-28T10:25:39Z</time>
      </trkpt>
      <trkpt lat="45.94708" lon="4.56335">
        <ele>427.7</ele>
        <time>2014-09-28T10:25:46Z</time>
      </trkpt>
      <trkpt lat="45.94714" lon="4.56345">
        <ele>428.2</ele>
        <time>2014-09-28T10:25:53Z</time>
      </trkpt>
      <trkpt lat="45.9472" lon="4.56354">
        <ele>429</ele>
        <time>2014-09-28T10:26:00Z</time>
      </trkpt>
      <trkpt lat="45.94726" lon="4.56363">
        <ele>429.5</ele>
        <time>2014-09-28T10:26:07Z</time>
      </trkpt>
      <trkpt lat="45.94733" lon="4.56372">
        <ele>429.7</ele>
        <time>2014-09-28T10:26:14Z</time>
      </trkpt>
      <trkpt lat="45.94734" lon="4.56373">
        <ele>429.7</ele>
        <time>2014-09-28T10:26:15Z</time>
      </trkpt>
      <trkpt lat="45.94744" lon="4.56389">
        <ele>430.3</ele>
        <time>2014-09-28T10:26:26Z</time>
      </trkpt>
      <trkpt lat="45.94749" lon="4.56399">
        <ele>430.6</ele>
        <time>2014-09-28T10:26:33Z</time>
      </trkpt>
      <trkpt lat="45.94753" lon="4.56408">
        <ele>430.6</ele>
        <time>2014-09-28T10:26:39Z</time>
      </trkpt>
      <trkpt lat="45.94758" lon="4.56418">
        <ele>430.7</ele>
        <time>2014-09-28T10:26:45Z</time>
      </trkpt>
      <trkpt lat="45.94762" lon="4.56428">
        <ele>430.7</ele>
        <time>2014-09-28T10:26:51Z</time>
      </trkpt>
      <trkpt lat="45.94767" lon="4.56438">
        <ele>431</ele>
        <time>2014-09-28T10:26:58Z</time>
      </trkpt>
      <trkpt lat="45.94771" lon="4.56449">
        <ele>431</ele>
        <time>2014-09-28T10:27:05Z</time>
      </trkpt>
      <trkpt lat="45.94776" lon="4.56459">
        <ele>430.8</ele>
        <time>2014-09-28T10:27:14Z</time>
      </trkpt>
      <trkpt lat="45.94781" lon="4.56468">
        <ele>430.7</ele>
        <time>2014-09-28T10:27:22Z</time>
      </trkpt>
      <trkpt lat="45.94782" lon="4.56469">
        <ele>430.7</ele>
        <time>2014-09-28T10:27:23Z</time>
      </trkpt>
      <trkpt lat="45.94794" lon="4.56485">
        <ele>430.3</ele>
        <time>2014-09-28T10:27:38Z</time>
      </trkpt>
      <trkpt lat="45.94801" lon="4.56492">
        <ele>430.1</ele>
        <time>2014-09-28T10:27:47Z</time>
      </trkpt>
      <trkpt lat="45.94808" lon="4.56498">
        <ele>429.7</ele>
        <time>2014-09-28T10:27:54Z</time>
      </trkpt>
      <trkpt lat="45.94814" lon="4.56506">
        <ele>429.2</ele>
        <time>2014-09-28T10:28:01Z</time>
      </trkpt>
      <trkpt lat="45.9482" lon="4.56513">
        <ele>428.8</ele>
        <time>2014-09-28T10:28:08Z</time>
      </trkpt>
      <trkpt lat="45.94827" lon="4.56521">
        <ele>428.6</ele>
        <time>2014-09-28T10:28:16Z</time>
      </trkpt>
      <trkpt lat="45.94833" lon="4.56529">
        <ele>428.5</ele>
        <time>2014-09-28T10:28:24Z</time>
      </trkpt>
      <trkpt lat="45.94834" lon="4.5653">
        <ele>428.3</ele>
        <time>2014-09-28T10:28:25Z</time>
      </trkpt>
      <trkpt lat="45.94847" lon="4.56544">
        <ele>428.1</ele>
        <time>2014-09-28T10:28:40Z</time>
      </trkpt>
      <trkpt lat="45.94853" lon="4.56551">
        <ele>428.1</ele>
        <time>2014-09-28T10:28:47Z</time>
      </trkpt>
      <trkpt lat="45.9486" lon="4.56559">
        <ele>428</ele>
        <time>2014-09-28T10:28:54Z</time>
      </trkpt>
      <trkpt lat="45.94866" lon="4.56567">
        <ele>428</ele>
        <time>2014-09-28T10:29:01Z</time>
      </trkpt>
      <trkpt lat="45.94872" lon="4.56575">
        <ele>427.8</ele>
        <time>2014-09-28T10:29:08Z</time>
      </trkpt>
      <trkpt lat="45.94877" lon="4.56585">
        <ele>427.7</ele>
        <time>2014-09-28T10:29:16Z</time>
      </trkpt>
      <trkpt lat="45.9488" lon="4.56596">
        <ele>427.5</ele>
        <time>2014-09-28T10:29:23Z</time>
      </trkpt>
      <trkpt lat="45.94881" lon="4.56609">
        <ele>427.3</ele>
        <time>2014-09-28T10:29:31Z</time>
      </trkpt>
      <trkpt lat="45.94881" lon="4.5661">
        <ele>427.3</ele>
        <time>2014-09-28T10:29:32Z</time>
      </trkpt>
      <trkpt lat="45.94876" lon="4.56632">
        <ele>427.2</ele>
        <time>2014-09-28T10:29:44Z</time>
      </trkpt>
      <trkpt lat="45.94885" lon="4.56633">
        <ele>426.5</ele>
        <time>2014-09-28T10:30:05Z</time>
      </trkpt>
      <trkpt lat="45.94892" lon="4.5664">
        <ele>426.2</ele>
        <time>2014-09-28T10:30:12Z</time>
      </trkpt>
      <trkpt lat="45.94898" lon="4.5665">
        <ele>425.6</ele>
        <time>2014-09-28T10:30:20Z</time>
      </trkpt>
      <trkpt lat="45.94903" lon="4.5666">
        <ele>425</ele>
        <time>2014-09-28T10:30:28Z</time>
      </trkpt>
      <trkpt lat="45.94909" lon="4.56669">
        <ele>424.2</ele>
        <time>2014-09-28T10:30:39Z</time>
      </trkpt>
      <trkpt lat="45.94909" lon="4.5667">
        <ele>424.1</ele>
        <time>2014-09-28T10:30:40Z</time>
      </trkpt>
      <trkpt lat="45.9492" lon="4.56687">
        <ele>422.3</ele>
        <time>2014-09-28T10:30:57Z</time>
      </trkpt>
      <trkpt lat="45.94926" lon="4.56696">
        <ele>421.7</ele>
        <time>2014-09-28T10:31:05Z</time>
      </trkpt>
      <trkpt lat="45.94932" lon="4.56704">
        <ele>421.3</ele>
        <time>2014-09-28T10:31:12Z</time>
      </trkpt>
      <trkpt lat="45.94938" lon="4.56713">
        <ele>421.1</ele>
        <time>2014-09-28T10:31:18Z</time>
      </trkpt>
      <trkpt lat="45.94945" lon="4.56721">
        <ele>420.7</ele>
        <time>2014-09-28T10:31:25Z</time>
      </trkpt>
      <trkpt lat="45.9495" lon="4.56729">
        <ele>420.2</ele>
        <time>2014-09-28T10:31:32Z</time>
      </trkpt>
      <trkpt lat="45.94957" lon="4.56736">
        <ele>419.8</ele>
        <time>2014-09-28T10:31:39Z</time>
      </trkpt>
      <trkpt lat="45.94965" lon="4.5674">
        <ele>419.6</ele>
        <time>2014-09-28T10:31:46Z</time>
      </trkpt>
      <trkpt lat="45.94966" lon="4.5674">
        <ele>419.5</ele>
        <time>2014-09-28T10:31:47Z</time>
      </trkpt>
      <trkpt lat="45.94982" lon="4.56745">
        <ele>419</ele>
        <time>2014-09-28T10:32:00Z</time>
      </trkpt>
      <trkpt lat="45.9499" lon="4.56746">
        <ele>418.5</ele>
        <time>2014-09-28T10:32:07Z</time>
      </trkpt>
      <trkpt lat="45.94999" lon="4.56746">
        <ele>417.8</ele>
        <time>2014-09-28T10:32:15Z</time>
      </trkpt>
      <trkpt lat="45.95007" lon="4.56745">
        <ele>417.2</ele>
        <time>2014-09-28T10:32:23Z</time>
      </trkpt>
      <trkpt lat="45.95015" lon="4.56743">
        <ele>416.7</ele>
        <time>2014-09-28T10:32:31Z</time>
      </trkpt>
      <trkpt lat="45.95023" lon="4.56741">
        <ele>416.2</ele>
        <time>2014-09-28T10:32:39Z</time>
      </trkpt>
      <trkpt lat="45.95031" lon="4.56739">
        <ele>415.8</ele>
        <time>2014-09-28T10:32:46Z</time>
      </trkpt>
      <trkpt lat="45.95039" lon="4.56737">
        <ele>415.3</ele>
        <time>2014-09-28T10:32:53Z</time>
      </trkpt>
      <trkpt lat="45.95041" lon="4.56737">
        <ele>415.3</ele>
        <time>2014-09-28T10:32:54Z</time>
      </trkpt>
      <trkpt lat="45.95057" lon="4.56736">
        <ele>414.2</ele>
        <time>2014-09-28T10:33:07Z</time>
      </trkpt>
      <trkpt lat="45.95065" lon="4.56735">
        <ele>413.6</ele>
        <time>2014-09-28T10:33:15Z</time>
      </trkpt>
      <trkpt lat="45.95074" lon="4.56736">
        <ele>412.8</ele>
        <time>2014-09-28T10:33:23Z</time>
      </trkpt>
      <trkpt lat="45.95083" lon="4.56738">
        <ele>412.2</ele>
        <time>2014-09-28T10:33:31Z</time>
      </trkpt>
      <trkpt lat="45.95091" lon="4.5674">
        <ele>411.7</ele>
        <time>2014-09-28T10:33:38Z</time>
      </trkpt>
      <trkpt lat="45.95099" lon="4.56744">
        <ele>411.2</ele>
        <time>2014-09-28T10:33:47Z</time>
      </trkpt>
      <trkpt lat="45.95107" lon="4.56748">
        <ele>410.7</ele>
        <time>2014-09-28T10:33:57Z</time>
      </trkpt>
      <trkpt lat="45.95108" lon="4.56749">
        <ele>410.7</ele>
        <time>2014-09-28T10:33:58Z</time>
      </trkpt>
      <trkpt lat="45.95123" lon="4.56753">
        <ele>410.1</ele>
        <time>2014-09-28T10:34:19Z</time>
      </trkpt>
      <trkpt lat="45.9513" lon="4.56759">
        <ele>409.3</ele>
        <time>2014-09-28T10:34:30Z</time>
      </trkpt>
      <trkpt lat="45.95136" lon="4.56768">
        <ele>408.6</ele>
        <time>2014-09-28T10:34:40Z</time>
      </trkpt>
      <trkpt lat="45.95142" lon="4.56778">
        <ele>407.8</ele>
        <time>2014-09-28T10:34:51Z</time>
      </trkpt>
      <trkpt lat="45.95147" lon="4.56788">
        <ele>407.6</ele>
        <time>2014-09-28T10:35:01Z</time>
      </trkpt>
      <trkpt lat="45.95148" lon="4.5679">
        <ele>407.6</ele>
        <time>2014-09-28T10:35:02Z</time>
      </trkpt>
      <trkpt lat="45.95157" lon="4.56806">
        <ele>407.2</ele>
        <time>2014-09-28T10:35:09Z</time>
      </trkpt>
      <trkpt lat="45.95164" lon="4.56814">
        <ele>406.8</ele>
        <time>2014-09-28T10:35:14Z</time>
      </trkpt>
      <trkpt lat="45.9517" lon="4.56821">
        <ele>406.5</ele>
        <time>2014-09-28T10:35:19Z</time>
      </trkpt>
      <trkpt lat="45.95176" lon="4.56829">
        <ele>406.2</ele>
        <time>2014-09-28T10:35:26Z</time>
      </trkpt>
      <trkpt lat="45.95181" lon="4.5684">
        <ele>405.7</ele>
        <time>2014-09-28T10:35:34Z</time>
      </trkpt>
      <trkpt lat="45.95187" lon="4.56849">
        <ele>405</ele>
        <time>2014-09-28T10:35:41Z</time>
      </trkpt>
      <trkpt lat="45.95193" lon="4.56858">
        <ele>404.2</ele>
        <time>2014-09-28T10:35:47Z</time>
      </trkpt>
      <trkpt lat="45.95197" lon="4.56869">
        <ele>403.6</ele>
        <time>2014-09-28T10:35:53Z</time>
      </trkpt>
      <trkpt lat="45.95202" lon="4.5688">
        <ele>402.7</ele>
        <time>2014-09-28T10:36:02Z</time>
      </trkpt>
      <trkpt lat="45.95203" lon="4.56881">
        <ele>402.7</ele>
        <time>2014-09-28T10:36:03Z</time>
      </trkpt>
      <trkpt lat="45.95208" lon="4.56902">
        <ele>401.6</ele>
        <time>2014-09-28T10:36:18Z</time>
      </trkpt>
      <trkpt lat="45.95213" lon="4.56911">
        <ele>400.7</ele>
        <time>2014-09-28T10:36:25Z</time>
      </trkpt>
      <trkpt lat="45.95219" lon="4.5692">
        <ele>400.1</ele>
        <time>2014-09-28T10:36:32Z</time>
      </trkpt>
      <trkpt lat="45.95223" lon="4.56929">
        <ele>399.5</ele>
        <time>2014-09-28T10:36:36Z</time>
      </trkpt>
      <trkpt lat="45.95228" lon="4.56939">
        <ele>398.7</ele>
        <time>2014-09-28T10:36:41Z</time>
      </trkpt>
      <trkpt lat="45.95233" lon="4.56949">
        <ele>397.7</ele>
        <time>2014-09-28T10:36:49Z</time>
      </trkpt>
      <trkpt lat="45.95237" lon="4.5696">
        <ele>396.5</ele>
        <time>2014-09-28T10:36:58Z</time>
      </trkpt>
      <trkpt lat="45.95243" lon="4.56969">
        <ele>395.6</ele>
        <time>2014-09-28T10:37:06Z</time>
      </trkpt>
      <trkpt lat="45.95244" lon="4.5697">
        <ele>395.5</ele>
        <time>2014-09-28T10:37:07Z</time>
      </trkpt>
      <trkpt lat="45.95251" lon="4.56991">
        <ele>393.8</ele>
        <time>2014-09-28T10:37:20Z</time>
      </trkpt>
      <trkpt lat="45.95255" lon="4.57001">
        <ele>393.1</ele>
        <time>2014-09-28T10:37:27Z</time>
      </trkpt>
      <trkpt lat="45.95258" lon="4.57012">
        <ele>392</ele>
        <time>2014-09-28T10:37:36Z</time>
      </trkpt>
      <trkpt lat="45.95259" lon="4.57024">
        <ele>391.3</ele>
        <time>2014-09-28T10:37:49Z</time>
      </trkpt>
      <trkpt lat="45.95262" lon="4.57036">
        <ele>389.2</ele>
        <time>2014-09-28T10:38:08Z</time>
      </trkpt>
      <trkpt lat="45.95263" lon="4.57037">
        <ele>389.1</ele>
        <time>2014-09-28T10:38:09Z</time>
      </trkpt>
      <trkpt lat="45.95268" lon="4.57059">
        <ele>386.8</ele>
        <time>2014-09-28T10:38:24Z</time>
      </trkpt>
      <trkpt lat="45.95273" lon="4.5707">
        <ele>385.6</ele>
        <time>2014-09-28T10:38:34Z</time>
      </trkpt>
      <trkpt lat="45.9528" lon="4.57077">
        <ele>384.5</ele>
        <time>2014-09-28T10:38:42Z</time>
      </trkpt>
      <trkpt lat="45.95288" lon="4.57079">
        <ele>383.2</ele>
        <time>2014-09-28T10:38:49Z</time>
      </trkpt>
      <trkpt lat="45.95296" lon="4.57081">
        <ele>382.2</ele>
        <time>2014-09-28T10:38:55Z</time>
      </trkpt>
      <trkpt lat="45.95304" lon="4.57083">
        <ele>381.2</ele>
        <time>2014-09-28T10:39:01Z</time>
      </trkpt>
      <trkpt lat="45.95312" lon="4.57085">
        <ele>380.2</ele>
        <time>2014-09-28T10:39:08Z</time>
      </trkpt>
      <trkpt lat="45.95321" lon="4.57089">
        <ele>379.2</ele>
        <time>2014-09-28T10:39:15Z</time>
      </trkpt>
      <trkpt lat="45.95322" lon="4.57089">
        <ele>379.1</ele>
        <time>2014-09-28T10:39:16Z</time>
      </trkpt>
      <trkpt lat="45.95336" lon="4.57097">
        <ele>377.3</ele>
        <time>2014-09-28T10:39:29Z</time>
      </trkpt>
      <trkpt lat="45.95344" lon="4.57102">
        <ele>376.6</ele>
        <time>2014-09-28T10:39:36Z</time>
      </trkpt>
      <trkpt lat="45.95352" lon="4.57107">
        <ele>375.7</ele>
        <time>2014-09-28T10:39:43Z</time>
      </trkpt>
      <trkpt lat="45.95359" lon="4.57113">
        <ele>374.6</ele>
        <time>2014-09-28T10:39:51Z</time>
      </trkpt>
      <trkpt lat="45.95367" lon="4.57119">
        <ele>373.7</ele>
        <time>2014-09-28T10:39:59Z</time>
      </trkpt>
      <trkpt lat="45.95374" lon="4.57126">
        <ele>372.8</ele>
        <time>2014-09-28T10:40:07Z</time>
      </trkpt>
      <trkpt lat="45.9538" lon="4.57134">
        <ele>372</ele>
        <time>2014-09-28T10:40:15Z</time>
      </trkpt>
      <trkpt lat="45.95385" lon="4.57143">
        <ele>371.1</ele>
        <time>2014-09-28T10:40:23Z</time>
      </trkpt>
      <trkpt lat="45.95386" lon="4.57145">
        <ele>371</ele>
        <time>2014-09-28T10:40:24Z</time>
      </trkpt>
      <trkpt lat="45.95393" lon="4.57164">
        <ele>369.5</ele>
        <time>2014-09-28T10:40:39Z</time>
      </trkpt>
      <trkpt lat="45.95398" lon="4.57174">
        <ele>368.7</ele>
        <time>2014-09-28T10:40:48Z</time>
      </trkpt>
      <trkpt lat="45.95403" lon="4.57184">
        <ele>368.2</ele>
        <time>2014-09-28T10:40:56Z</time>
      </trkpt>
      <trkpt lat="45.95408" lon="4.57194">
        <ele>367.7</ele>
        <time>2014-09-28T10:41:04Z</time>
      </trkpt>
      <trkpt lat="45.95413" lon="4.57204">
        <ele>367.3</ele>
        <time>2014-09-28T10:41:12Z</time>
      </trkpt>
      <trkpt lat="45.95417" lon="4.57214">
        <ele>367</ele>
        <time>2014-09-28T10:41:20Z</time>
      </trkpt>
      <trkpt lat="45.95422" lon="4.57225">
        <ele>366.7</ele>
        <time>2014-09-28T10:41:27Z</time>
      </trkpt>
      <trkpt lat="45.95423" lon="4.57226">
        <ele>366.7</ele>
        <time>2014-09-28T10:41:28Z</time>
      </trkpt>
      <trkpt lat="45.95433" lon="4.57245">
        <ele>366.2</ele>
        <time>2014-09-28T10:41:41Z</time>
      </trkpt>
      <trkpt lat="45.95439" lon="4.57254">
        <ele>366.1</ele>
        <time>2014-09-28T10:41:48Z</time>
      </trkpt>
      <trkpt lat="45.95444" lon="4.57262">
        <ele>366</ele>
        <time>2014-09-28T10:41:55Z</time>
      </trkpt>
      <trkpt lat="45.9545" lon="4.57272">
        <ele>365.8</ele>
        <time>2014-09-28T10:42:02Z</time>
      </trkpt>
      <trkpt lat="45.95455" lon="4.5728">
        <ele>365.7</ele>
        <time>2014-09-28T10:42:09Z</time>
      </trkpt>
      <trkpt lat="45.95461" lon="4.57288">
        <ele>365.7</ele>
        <time>2014-09-28T10:42:16Z</time>
      </trkpt>
      <trkpt lat="45.95468" lon="4.57295">
        <ele>365.7</ele>
        <time>2014-09-28T10:42:24Z</time>
      </trkpt>
      <trkpt lat="45.95475" lon="4.573">
        <ele>365.6</ele>
        <time>2014-09-28T10:42:31Z</time>
      </trkpt>
      <trkpt lat="45.95476" lon="4.57301">
        <ele>365.6</ele>
        <time>2014-09-28T10:42:32Z</time>
      </trkpt>
      <trkpt lat="45.95492" lon="4.57307">
        <ele>365.3</ele>
        <time>2014-09-28T10:42:47Z</time>
      </trkpt>
      <trkpt lat="45.955" lon="4.57309">
        <ele>365.3</ele>
        <time>2014-09-28T10:42:54Z</time>
      </trkpt>
      <trkpt lat="45.95508" lon="4.57313">
        <ele>365.2</ele>
        <time>2014-09-28T10:43:01Z</time>
      </trkpt>
      <trkpt lat="45.95516" lon="4.57317">
        <ele>365</ele>
        <time>2014-09-28T10:43:09Z</time>
      </trkpt>
      <trkpt lat="45.95524" lon="4.5732">
        <ele>364.7</ele>
        <time>2014-09-28T10:43:17Z</time>
      </trkpt>
      <trkpt lat="45.95532" lon="4.57323">
        <ele>364.7</ele>
        <time>2014-09-28T10:43:24Z</time>
      </trkpt>
      <trkpt lat="45.95541" lon="4.57324">
        <ele>364.6</ele>
        <time>2014-09-28T10:43:36Z</time>
      </trkpt>
      <trkpt lat="45.95541" lon="4.57324">
        <ele>364.6</ele>
        <time>2014-09-28T10:43:37Z</time>
      </trkpt>
      <trkpt lat="45.9555" lon="4.57335">
        <ele>364.1</ele>
        <time>2014-09-28T10:44:25Z</time>
      </trkpt>
      <trkpt lat="45.95547" lon="4.57347">
        <ele>363.7</ele>
        <time>2014-09-28T10:44:40Z</time>
      </trkpt>
      <trkpt lat="45.95547" lon="4.57348">
        <ele>363.6</ele>
        <time>2014-09-28T10:44:41Z</time>
      </trkpt>
      <trkpt lat="45.95542" lon="4.57369">
        <ele>362.7</ele>
        <time>2014-09-28T10:44:59Z</time>
      </trkpt>
      <trkpt lat="45.95536" lon="4.57377">
        <ele>362.8</ele>
        <time>2014-09-28T10:45:12Z</time>
      </trkpt>
      <trkpt lat="45.95533" lon="4.57388">
        <ele>363.3</ele>
        <time>2014-09-28T10:45:21Z</time>
      </trkpt>
      <trkpt lat="45.95528" lon="4.57398">
        <ele>364.1</ele>
        <time>2014-09-28T10:45:28Z</time>
      </trkpt>
      <trkpt lat="45.95522" lon="4.57408">
        <ele>365.1</ele>
        <time>2014-09-28T10:45:36Z</time>
      </trkpt>
      <trkpt lat="45.95517" lon="4.57418">
        <ele>366.2</ele>
        <time>2014-09-28T10:45:45Z</time>
      </trkpt>
      <trkpt lat="45.95517" lon="4.5742">
        <ele>366.3</ele>
        <time>2014-09-28T10:45:46Z</time>
      </trkpt>
      <trkpt lat="45.9551" lon="4.5744">
        <ele>368.7</ele>
        <time>2014-09-28T10:46:05Z</time>
      </trkpt>
      <trkpt lat="45.95506" lon="4.57451">
        <ele>369.8</ele>
        <time>2014-09-28T10:46:15Z</time>
      </trkpt>
      <trkpt lat="45.95498" lon="4.57457">
        <ele>371.3</ele>
        <time>2014-09-28T10:46:48Z</time>
      </trkpt>
      <trkpt lat="45.95498" lon="4.57458">
        <ele>371.5</ele>
        <time>2014-09-28T10:46:49Z</time>
      </trkpt>
      <trkpt lat="45.95485" lon="4.57472">
        <ele>374.5</ele>
        <time>2014-09-28T10:47:06Z</time>
      </trkpt>
      <trkpt lat="45.95478" lon="4.57479">
        <ele>376</ele>
        <time>2014-09-28T10:47:13Z</time>
      </trkpt>
      <trkpt lat="45.95473" lon="4.57488">
        <ele>377.8</ele>
        <time>2014-09-28T10:47:22Z</time>
      </trkpt>
      <trkpt lat="45.95467" lon="4.57497">
        <ele>379.7</ele>
        <time>2014-09-28T10:47:32Z</time>
      </trkpt>
      <trkpt lat="45.9546" lon="4.57505">
        <ele>381.2</ele>
        <time>2014-09-28T10:47:41Z</time>
      </trkpt>
      <trkpt lat="45.95453" lon="4.57512">
        <ele>382.2</ele>
        <time>2014-09-28T10:47:49Z</time>
      </trkpt>
      <trkpt lat="45.95453" lon="4.57513">
        <ele>382.3</ele>
        <time>2014-09-28T10:47:50Z</time>
      </trkpt>
      <trkpt lat="45.95441" lon="4.57528">
        <ele>384</ele>
        <time>2014-09-28T10:48:12Z</time>
      </trkpt>
      <trkpt lat="45.95435" lon="4.57537">
        <ele>384.7</ele>
        <time>2014-09-28T10:48:27Z</time>
      </trkpt>
      <trkpt lat="45.95433" lon="4.57549">
        <ele>385.6</ele>
        <time>2014-09-28T10:48:36Z</time>
      </trkpt>
      <trkpt lat="45.95433" lon="4.57561">
        <ele>386.7</ele>
        <time>2014-09-28T10:48:45Z</time>
      </trkpt>
      <trkpt lat="45.95431" lon="4.57573">
        <ele>388</ele>
        <time>2014-09-28T10:48:52Z</time>
      </trkpt>
      <trkpt lat="45.95431" lon="4.57575">
        <ele>388.2</ele>
        <time>2014-09-28T10:48:53Z</time>
      </trkpt>
      <trkpt lat="45.95417" lon="4.57574">
        <ele>395.1</ele>
        <time>2014-09-28T10:51:58Z</time>
      </trkpt>
      <trkpt lat="45.95416" lon="4.57573">
        <ele>395.1</ele>
        <time>2014-09-28T10:51:59Z</time>
      </trkpt>
      <trkpt lat="45.95401" lon="4.57572">
        <ele>395.7</ele>
        <time>2014-09-28T10:52:12Z</time>
      </trkpt>
      <trkpt lat="45.95392" lon="4.57573">
        <ele>396.5</ele>
        <time>2014-09-28T10:52:20Z</time>
      </trkpt>
      <trkpt lat="45.95384" lon="4.57575">
        <ele>397.2</ele>
        <time>2014-09-28T10:52:29Z</time>
      </trkpt>
      <trkpt lat="45.95375" lon="4.57576">
        <ele>397.8</ele>
        <time>2014-09-28T10:52:36Z</time>
      </trkpt>
      <trkpt lat="45.95366" lon="4.57575">
        <ele>398</ele>
        <time>2014-09-28T10:52:50Z</time>
      </trkpt>
      <trkpt lat="45.95358" lon="4.57573">
        <ele>398.1</ele>
        <time>2014-09-28T10:52:59Z</time>
      </trkpt>
      <trkpt lat="45.95357" lon="4.57573">
        <ele>398.1</ele>
        <time>2014-09-28T10:53:00Z</time>
      </trkpt>
      <trkpt lat="45.95343" lon="4.57565">
        <ele>398.5</ele>
        <time>2014-09-28T10:53:11Z</time>
      </trkpt>
      <trkpt lat="45.95336" lon="4.57561">
        <ele>398.7</ele>
        <time>2014-09-28T10:53:17Z</time>
      </trkpt>
      <trkpt lat="45.95329" lon="4.57553">
        <ele>399</ele>
        <time>2014-09-28T10:53:23Z</time>
      </trkpt>
      <trkpt lat="45.95322" lon="4.57547">
        <ele>399.2</ele>
        <time>2014-09-28T10:53:28Z</time>
      </trkpt>
      <trkpt lat="45.95314" lon="4.57545">
        <ele>399.5</ele>
        <time>2014-09-28T10:53:35Z</time>
      </trkpt>
      <trkpt lat="45.95305" lon="4.57547">
        <ele>400</ele>
        <time>2014-09-28T10:53:43Z</time>
      </trkpt>
      <trkpt lat="45.95298" lon="4.57555">
        <ele>400.2</ele>
        <time>2014-09-28T10:53:54Z</time>
      </trkpt>
      <trkpt lat="45.9529" lon="4.57557">
        <ele>400.6</ele>
        <time>2014-09-28T10:54:06Z</time>
      </trkpt>
      <trkpt lat="45.95289" lon="4.57557">
        <ele>400.6</ele>
        <time>2014-09-28T10:54:07Z</time>
      </trkpt>
      <trkpt lat="45.95274" lon="4.57548">
        <ele>401.2</ele>
        <time>2014-09-28T10:54:26Z</time>
      </trkpt>
      <trkpt lat="45.95266" lon="4.57553">
        <ele>401.8</ele>
        <time>2014-09-28T10:54:45Z</time>
      </trkpt>
      <trkpt lat="45.95258" lon="4.57557">
        <ele>402.5</ele>
        <time>2014-09-28T10:54:56Z</time>
      </trkpt>
      <trkpt lat="45.9525" lon="4.5756">
        <ele>402.7</ele>
        <time>2014-09-28T10:55:10Z</time>
      </trkpt>
      <trkpt lat="45.95249" lon="4.5756">
        <ele>402.7</ele>
        <time>2014-09-28T10:55:11Z</time>
      </trkpt>
      <trkpt lat="45.95237" lon="4.57547">
        <ele>403.5</ele>
        <time>2014-09-28T10:55:36Z</time>
      </trkpt>
      <trkpt lat="45.95242" lon="4.57536">
        <ele>404.2</ele>
        <time>2014-09-28T10:55:51Z</time>
      </trkpt>
      <trkpt lat="45.95248" lon="4.57527">
        <ele>404.7</ele>
        <time>2014-09-28T10:56:03Z</time>
      </trkpt>
      <trkpt lat="45.95247" lon="4.57514">
        <ele>405.6</ele>
        <time>2014-09-28T10:56:17Z</time>
      </trkpt>
      <trkpt lat="45.95247" lon="4.57513">
        <ele>405.7</ele>
        <time>2014-09-28T10:56:18Z</time>
      </trkpt>
      <trkpt lat="45.95235" lon="4.57498">
        <ele>406.7</ele>
        <time>2014-09-28T10:56:38Z</time>
      </trkpt>
      <trkpt lat="45.95229" lon="4.5749">
        <ele>407.7</ele>
        <time>2014-09-28T10:56:48Z</time>
      </trkpt>
      <trkpt lat="45.95222" lon="4.57482">
        <ele>408.6</ele>
        <time>2014-09-28T10:56:57Z</time>
      </trkpt>
      <trkpt lat="45.95216" lon="4.57473">
        <ele>409.6</ele>
        <time>2014-09-28T10:57:07Z</time>
      </trkpt>
      <trkpt lat="45.9521" lon="4.57464">
        <ele>410.8</ele>
        <time>2014-09-28T10:57:17Z</time>
      </trkpt>
      <trkpt lat="45.95206" lon="4.57453">
        <ele>412.3</ele>
        <time>2014-09-28T10:57:27Z</time>
      </trkpt>
      <trkpt lat="45.95205" lon="4.57452">
        <ele>412.5</ele>
        <time>2014-09-28T10:57:28Z</time>
      </trkpt>
      <trkpt lat="45.95203" lon="4.57429">
        <ele>417.7</ele>
        <time>2014-09-28T10:57:58Z</time>
      </trkpt>
      <trkpt lat="45.95195" lon="4.57426">
        <ele>422.8</ele>
        <time>2014-09-28T10:58:21Z</time>
      </trkpt>
      <trkpt lat="45.95186" lon="4.57425">
        <ele>425.1</ele>
        <time>2014-09-28T10:58:30Z</time>
      </trkpt>
      <trkpt lat="45.95186" lon="4.57425">
        <ele>425.2</ele>
        <time>2014-09-28T10:58:31Z</time>
      </trkpt>
      <trkpt lat="45.9517" lon="4.57428">
        <ele>428.7</ele>
        <time>2014-09-28T10:58:46Z</time>
      </trkpt>
      <trkpt lat="45.95162" lon="4.57429">
        <ele>430.6</ele>
        <time>2014-09-28T10:59:03Z</time>
      </trkpt>
      <trkpt lat="45.95153" lon="4.5743">
        <ele>432.3</ele>
        <time>2014-09-28T10:59:14Z</time>
      </trkpt>
      <trkpt lat="45.95144" lon="4.57432">
        <ele>434.7</ele>
        <time>2014-09-28T10:59:41Z</time>
      </trkpt>
      <trkpt lat="45.95144" lon="4.57432">
        <ele>434.7</ele>
        <time>2014-09-28T10:59:42Z</time>
      </trkpt>
      <trkpt lat="45.95135" lon="4.57431">
        <ele>455.2</ele>
        <time>2014-09-28T11:26:09Z</time>
      </trkpt>
      <trkpt lat="45.95118" lon="4.57433">
        <ele>455.6</ele>
        <time>2014-09-28T11:26:33Z</time>
      </trkpt>
      <trkpt lat="45.95109" lon="4.57433">
        <ele>455.7</ele>
        <time>2014-09-28T11:26:42Z</time>
      </trkpt>
      <trkpt lat="45.95101" lon="4.57432">
        <ele>456</ele>
        <time>2014-09-28T11:26:52Z</time>
      </trkpt>
      <trkpt lat="45.95092" lon="4.57431">
        <ele>456.2</ele>
        <time>2014-09-28T11:27:01Z</time>
      </trkpt>
      <trkpt lat="45.95084" lon="4.57431">
        <ele>456.3</ele>
        <time>2014-09-28T11:27:09Z</time>
      </trkpt>
      <trkpt lat="45.95083" lon="4.57431">
        <ele>456.5</ele>
        <time>2014-09-28T11:27:10Z</time>
      </trkpt>
      <trkpt lat="45.95067" lon="4.57432">
        <ele>457.2</ele>
        <time>2014-09-28T11:27:24Z</time>
      </trkpt>
      <trkpt lat="45.95058" lon="4.57432">
        <ele>457.6</ele>
        <time>2014-09-28T11:27:31Z</time>
      </trkpt>
      <trkpt lat="45.9505" lon="4.57431">
        <ele>458.1</ele>
        <time>2014-09-28T11:27:38Z</time>
      </trkpt>
      <trkpt lat="45.95041" lon="4.57431">
        <ele>458.7</ele>
        <time>2014-09-28T11:27:45Z</time>
      </trkpt>
      <trkpt lat="45.95032" lon="4.57429">
        <ele>459.3</ele>
        <time>2014-09-28T11:27:53Z</time>
      </trkpt>
      <trkpt lat="45.95023" lon="4.57427">
        <ele>460.3</ele>
        <time>2014-09-28T11:28:06Z</time>
      </trkpt>
      <trkpt lat="45.95015" lon="4.57428">
        <ele>461.1</ele>
        <time>2014-09-28T11:28:15Z</time>
      </trkpt>
      <trkpt lat="45.95014" lon="4.57428">
        <ele>461.1</ele>
        <time>2014-09-28T11:28:16Z</time>
      </trkpt>
      <trkpt lat="45.94998" lon="4.57419">
        <ele>461.8</ele>
        <time>2014-09-28T11:28:33Z</time>
      </trkpt>
      <trkpt lat="45.94991" lon="4.57413">
        <ele>462.2</ele>
        <time>2014-09-28T11:28:40Z</time>
      </trkpt>
      <trkpt lat="45.94982" lon="4.5741">
        <ele>462.6</ele>
        <time>2014-09-28T11:28:47Z</time>
      </trkpt>
      <trkpt lat="45.94974" lon="4.57408">
        <ele>462.8</ele>
        <time>2014-09-28T11:28:54Z</time>
      </trkpt>
      <trkpt lat="45.94965" lon="4.57407">
        <ele>463.2</ele>
        <time>2014-09-28T11:29:01Z</time>
      </trkpt>
      <trkpt lat="45.94957" lon="4.57406">
        <ele>463.5</ele>
        <time>2014-09-28T11:29:08Z</time>
      </trkpt>
      <trkpt lat="45.94949" lon="4.57402">
        <ele>463.7</ele>
        <time>2014-09-28T11:29:15Z</time>
      </trkpt>
      <trkpt lat="45.94941" lon="4.57398">
        <ele>464.1</ele>
        <time>2014-09-28T11:29:22Z</time>
      </trkpt>
      <trkpt lat="45.9494" lon="4.57398">
        <ele>464.1</ele>
        <time>2014-09-28T11:29:23Z</time>
      </trkpt>
      <trkpt lat="45.94924" lon="4.57395">
        <ele>464.5</ele>
        <time>2014-09-28T11:29:36Z</time>
      </trkpt>
      <trkpt lat="45.94915" lon="4.57392">
        <ele>464.7</ele>
        <time>2014-09-28T11:29:43Z</time>
      </trkpt>
      <trkpt lat="45.94908" lon="4.5739">
        <ele>464.7</ele>
        <time>2014-09-28T11:29:49Z</time>
      </trkpt>
      <trkpt lat="45.94899" lon="4.57389">
        <ele>465.1</ele>
        <time>2014-09-28T11:29:56Z</time>
      </trkpt>
      <trkpt lat="45.94891" lon="4.57389">
        <ele>465.2</ele>
        <time>2014-09-28T11:30:03Z</time>
      </trkpt>
      <trkpt lat="45.94883" lon="4.5739">
        <ele>465.3</ele>
        <time>2014-09-28T11:30:10Z</time>
      </trkpt>
      <trkpt lat="45.94876" lon="4.57396">
        <ele>465.6</ele>
        <time>2014-09-28T11:30:17Z</time>
      </trkpt>
      <trkpt lat="45.94871" lon="4.57406">
        <ele>465.6</ele>
        <time>2014-09-28T11:30:25Z</time>
      </trkpt>
      <trkpt lat="45.9487" lon="4.57407">
        <ele>465.6</ele>
        <time>2014-09-28T11:30:26Z</time>
      </trkpt>
      <trkpt lat="45.94858" lon="4.57419">
        <ele>465.2</ele>
        <time>2014-09-28T11:30:43Z</time>
      </trkpt>
      <trkpt lat="45.94849" lon="4.57422">
        <ele>465.2</ele>
        <time>2014-09-28T11:30:51Z</time>
      </trkpt>
      <trkpt lat="45.9484" lon="4.57423">
        <ele>465.2</ele>
        <time>2014-09-28T11:30:59Z</time>
      </trkpt>
      <trkpt lat="45.94832" lon="4.57423">
        <ele>465.2</ele>
        <time>2014-09-28T11:31:07Z</time>
      </trkpt>
      <trkpt lat="45.94823" lon="4.57421">
        <ele>465.2</ele>
        <time>2014-09-28T11:31:15Z</time>
      </trkpt>
      <trkpt lat="45.94815" lon="4.57418">
        <ele>465.3</ele>
        <time>2014-09-28T11:31:23Z</time>
      </trkpt>
      <trkpt lat="45.94807" lon="4.57415">
        <ele>465.6</ele>
        <time>2014-09-28T11:31:30Z</time>
      </trkpt>
      <trkpt lat="45.94805" lon="4.57415">
        <ele>465.6</ele>
        <time>2014-09-28T11:31:31Z</time>
      </trkpt>
      <trkpt lat="45.94791" lon="4.57416">
        <ele>465.7</ele>
        <time>2014-09-28T11:31:43Z</time>
      </trkpt>
      <trkpt lat="45.94782" lon="4.57419">
        <ele>465.7</ele>
        <time>2014-09-28T11:31:50Z</time>
      </trkpt>
      <trkpt lat="45.94775" lon="4.57422">
        <ele>465.8</ele>
        <time>2014-09-28T11:31:57Z</time>
      </trkpt>
      <trkpt lat="45.94767" lon="4.57428">
        <ele>466.2</ele>
        <time>2014-09-28T11:32:04Z</time>
      </trkpt>
      <trkpt lat="45.9476" lon="4.57434">
        <ele>466.6</ele>
        <time>2014-09-28T11:32:11Z</time>
      </trkpt>
      <trkpt lat="45.94752" lon="4.57436">
        <ele>467</ele>
        <time>2014-09-28T11:32:18Z</time>
      </trkpt>
      <trkpt lat="45.94744" lon="4.57437">
        <ele>467.3</ele>
        <time>2014-09-28T11:32:25Z</time>
      </trkpt>
      <trkpt lat="45.94736" lon="4.57435">
        <ele>467.7</ele>
        <time>2014-09-28T11:32:32Z</time>
      </trkpt>
      <trkpt lat="45.94735" lon="4.57435">
        <ele>467.8</ele>
        <time>2014-09-28T11:32:33Z</time>
      </trkpt>
      <trkpt lat="45.94719" lon="4.57435">
        <ele>469.2</ele>
        <time>2014-09-28T11:32:45Z</time>
      </trkpt>
      <trkpt lat="45.94711" lon="4.57439">
        <ele>470.3</ele>
        <time>2014-09-28T11:32:50Z</time>
      </trkpt>
      <trkpt lat="45.94703" lon="4.57441">
        <ele>471.5</ele>
        <time>2014-09-28T11:32:58Z</time>
      </trkpt>
      <trkpt lat="45.94694" lon="4.57443">
        <ele>472.3</ele>
        <time>2014-09-28T11:33:07Z</time>
      </trkpt>
      <trkpt lat="45.94691" lon="4.57455">
        <ele>473</ele>
        <time>2014-09-28T11:33:17Z</time>
      </trkpt>
      <trkpt lat="45.94695" lon="4.57465">
        <ele>473.1</ele>
        <time>2014-09-28T11:33:24Z</time>
      </trkpt>
      <trkpt lat="45.94697" lon="4.57476">
        <ele>473.2</ele>
        <time>2014-09-28T11:33:30Z</time>
      </trkpt>
      <trkpt lat="45.94699" lon="4.57488">
        <ele>473.2</ele>
        <time>2014-09-28T11:33:36Z</time>
      </trkpt>
      <trkpt lat="45.94699" lon="4.5749">
        <ele>473.2</ele>
        <time>2014-09-28T11:33:37Z</time>
      </trkpt>
      <trkpt lat="45.94703" lon="4.57512">
        <ele>473.1</ele>
        <time>2014-09-28T11:33:50Z</time>
      </trkpt>
      <trkpt lat="45.94706" lon="4.57524">
        <ele>473.2</ele>
        <time>2014-09-28T11:33:57Z</time>
      </trkpt>
      <trkpt lat="45.94709" lon="4.57535">
        <ele>473.2</ele>
        <time>2014-09-28T11:34:04Z</time>
      </trkpt>
      <trkpt lat="45.94712" lon="4.57547">
        <ele>473.3</ele>
        <time>2014-09-28T11:34:12Z</time>
      </trkpt>
      <trkpt lat="45.94715" lon="4.57559">
        <ele>473.6</ele>
        <time>2014-09-28T11:34:20Z</time>
      </trkpt>
      <trkpt lat="45.94718" lon="4.57571">
        <ele>473.7</ele>
        <time>2014-09-28T11:34:28Z</time>
      </trkpt>
      <trkpt lat="45.9472" lon="4.57583">
        <ele>473.7</ele>
        <time>2014-09-28T11:34:35Z</time>
      </trkpt>
      <trkpt lat="45.94723" lon="4.57594">
        <ele>473.8</ele>
        <time>2014-09-28T11:34:45Z</time>
      </trkpt>
      <trkpt lat="45.94723" lon="4.57595">
        <ele>473.8</ele>
        <time>2014-09-28T11:34:46Z</time>
      </trkpt>
      <trkpt lat="45.94726" lon="4.57619">
        <ele>474</ele>
        <time>2014-09-28T11:35:03Z</time>
      </trkpt>
      <trkpt lat="45.94727" lon="4.57631">
        <ele>473.8</ele>
        <time>2014-09-28T11:35:10Z</time>
      </trkpt>
      <trkpt lat="45.94728" lon="4.57643">
        <ele>474.1</ele>
        <time>2014-09-28T11:35:18Z</time>
      </trkpt>
      <trkpt lat="45.94723" lon="4.57653">
        <ele>475.1</ele>
        <time>2014-09-28T11:35:45Z</time>
      </trkpt>
      <trkpt lat="45.94725" lon="4.57665">
        <ele>475.3</ele>
        <time>2014-09-28T11:35:53Z</time>
      </trkpt>
      <trkpt lat="45.94725" lon="4.57667">
        <ele>475.3</ele>
        <time>2014-09-28T11:35:54Z</time>
      </trkpt>
      <trkpt lat="45.94725" lon="4.57688">
        <ele>475.6</ele>
        <time>2014-09-28T11:36:07Z</time>
      </trkpt>
      <trkpt lat="45.94725" lon="4.577">
        <ele>475.7</ele>
        <time>2014-09-28T11:36:14Z</time>
      </trkpt>
      <trkpt lat="45.94726" lon="4.57712">
        <ele>475.7</ele>
        <time>2014-09-28T11:36:21Z</time>
      </trkpt>
      <trkpt lat="45.94727" lon="4.57724">
        <ele>475.7</ele>
        <time>2014-09-28T11:36:28Z</time>
      </trkpt>
      <trkpt lat="45.94728" lon="4.57735">
        <ele>475.7</ele>
        <time>2014-09-28T11:36:34Z</time>
      </trkpt>
      <trkpt lat="45.94729" lon="4.57746">
        <ele>475.7</ele>
        <time>2014-09-28T11:36:40Z</time>
      </trkpt>
      <trkpt lat="45.94728" lon="4.57759">
        <ele>476</ele>
        <time>2014-09-28T11:36:47Z</time>
      </trkpt>
      <trkpt lat="45.94726" lon="4.57771">
        <ele>476.3</ele>
        <time>2014-09-28T11:36:54Z</time>
      </trkpt>
      <trkpt lat="45.94726" lon="4.57773">
        <ele>476.5</ele>
        <time>2014-09-28T11:36:55Z</time>
      </trkpt>
      <trkpt lat="45.94725" lon="4.57796">
        <ele>477.5</ele>
        <time>2014-09-28T11:37:10Z</time>
      </trkpt>
      <trkpt lat="45.94726" lon="4.57808">
        <ele>477.8</ele>
        <time>2014-09-28T11:37:17Z</time>
      </trkpt>
      <trkpt lat="45.94725" lon="4.57821">
        <ele>478.2</ele>
        <time>2014-09-28T11:37:24Z</time>
      </trkpt>
      <trkpt lat="45.94723" lon="4.57832">
        <ele>478.5</ele>
        <time>2014-09-28T11:37:31Z</time>
      </trkpt>
      <trkpt lat="45.94721" lon="4.57844">
        <ele>478.7</ele>
        <time>2014-09-28T11:37:38Z</time>
      </trkpt>
      <trkpt lat="45.94722" lon="4.57855">
        <ele>479.3</ele>
        <time>2014-09-28T11:37:46Z</time>
      </trkpt>
      <trkpt lat="45.94721" lon="4.57867">
        <ele>480</ele>
        <time>2014-09-28T11:37:54Z</time>
      </trkpt>
      <trkpt lat="45.94718" lon="4.57879">
        <ele>480.5</ele>
        <time>2014-09-28T11:38:02Z</time>
      </trkpt>
      <trkpt lat="45.94718" lon="4.57881">
        <ele>480.6</ele>
        <time>2014-09-28T11:38:03Z</time>
      </trkpt>
      <trkpt lat="45.9471" lon="4.57901">
        <ele>481.3</ele>
        <time>2014-09-28T11:38:18Z</time>
      </trkpt>
      <trkpt lat="45.94705" lon="4.5791">
        <ele>481.7</ele>
        <time>2014-09-28T11:38:26Z</time>
      </trkpt>
      <trkpt lat="45.947" lon="4.5792">
        <ele>481.8</ele>
        <time>2014-09-28T11:38:33Z</time>
      </trkpt>
      <trkpt lat="45.94696" lon="4.5793">
        <ele>482.2</ele>
        <time>2014-09-28T11:38:40Z</time>
      </trkpt>
      <trkpt lat="45.94693" lon="4.57941">
        <ele>482.8</ele>
        <time>2014-09-28T11:38:47Z</time>
      </trkpt>
      <trkpt lat="45.94689" lon="4.57952">
        <ele>484</ele>
        <time>2014-09-28T11:38:58Z</time>
      </trkpt>
      <trkpt lat="45.94691" lon="4.57964">
        <ele>485.3</ele>
        <time>2014-09-28T11:39:31Z</time>
      </trkpt>
      <trkpt lat="45.94691" lon="4.57966">
        <ele>485.5</ele>
        <time>2014-09-28T11:39:32Z</time>
      </trkpt>
      <trkpt lat="45.9469" lon="4.57989">
        <ele>487.2</ele>
        <time>2014-09-28T11:39:46Z</time>
      </trkpt>
      <trkpt lat="45.94689" lon="4.58001">
        <ele>488</ele>
        <time>2014-09-28T11:39:54Z</time>
      </trkpt>
      <trkpt lat="45.94688" lon="4.58013">
        <ele>488.2</ele>
        <time>2014-09-28T11:40:02Z</time>
      </trkpt>
      <trkpt lat="45.94687" lon="4.58025">
        <ele>488.5</ele>
        <time>2014-09-28T11:40:10Z</time>
      </trkpt>
      <trkpt lat="45.94687" lon="4.58036">
        <ele>488.7</ele>
        <time>2014-09-28T11:40:19Z</time>
      </trkpt>
      <trkpt lat="45.94688" lon="4.58048">
        <ele>488.7</ele>
        <time>2014-09-28T11:40:26Z</time>
      </trkpt>
      <trkpt lat="45.94691" lon="4.5806">
        <ele>488.8</ele>
        <time>2014-09-28T11:40:34Z</time>
      </trkpt>
      <trkpt lat="45.94691" lon="4.58061">
        <ele>489</ele>
        <time>2014-09-28T11:40:35Z</time>
      </trkpt>
      <trkpt lat="45.94699" lon="4.58082">
        <ele>490</ele>
        <time>2014-09-28T11:41:04Z</time>
      </trkpt>
      <trkpt lat="45.94707" lon="4.58086">
        <ele>491.3</ele>
        <time>2014-09-28T11:41:16Z</time>
      </trkpt>
      <trkpt lat="45.94715" lon="4.5809">
        <ele>492.7</ele>
        <time>2014-09-28T11:41:26Z</time>
      </trkpt>
      <trkpt lat="45.94724" lon="4.58093">
        <ele>494.3</ele>
        <time>2014-09-28T11:41:42Z</time>
      </trkpt>
      <trkpt lat="45.94724" lon="4.58093">
        <ele>494.6</ele>
        <time>2014-09-28T11:41:43Z</time>
      </trkpt>
      <trkpt lat="45.94741" lon="4.58093">
        <ele>498.2</ele>
        <time>2014-09-28T11:42:00Z</time>
      </trkpt>
      <trkpt lat="45.94749" lon="4.58094">
        <ele>500</ele>
        <time>2014-09-28T11:42:09Z</time>
      </trkpt>
      <trkpt lat="45.94758" lon="4.58096">
        <ele>501.7</ele>
        <time>2014-09-28T11:42:18Z</time>
      </trkpt>
      <trkpt lat="45.94766" lon="4.58097">
        <ele>503.2</ele>
        <time>2014-09-28T11:42:27Z</time>
      </trkpt>
      <trkpt lat="45.94775" lon="4.581">
        <ele>504.5</ele>
        <time>2014-09-28T11:42:36Z</time>
      </trkpt>
      <trkpt lat="45.94783" lon="4.58103">
        <ele>505.6</ele>
        <time>2014-09-28T11:42:46Z</time>
      </trkpt>
      <trkpt lat="45.94784" lon="4.58103">
        <ele>505.7</ele>
        <time>2014-09-28T11:42:47Z</time>
      </trkpt>
      <trkpt lat="45.94798" lon="4.58112">
        <ele>507.1</ele>
        <time>2014-09-28T11:43:00Z</time>
      </trkpt>
      <trkpt lat="45.94806" lon="4.58118">
        <ele>507.5</ele>
        <time>2014-09-28T11:43:08Z</time>
      </trkpt>
      <trkpt lat="45.94813" lon="4.5812">
        <ele>507.7</ele>
        <time>2014-09-28T11:43:15Z</time>
      </trkpt>
      <trkpt lat="45.94821" lon="4.58121">
        <ele>508.2</ele>
        <time>2014-09-28T11:43:21Z</time>
      </trkpt>
      <trkpt lat="45.9483" lon="4.58123">
        <ele>508.8</ele>
        <time>2014-09-28T11:43:28Z</time>
      </trkpt>
      <trkpt lat="45.94837" lon="4.58128">
        <ele>509.6</ele>
        <time>2014-09-28T11:43:35Z</time>
      </trkpt>
      <trkpt lat="45.94844" lon="4.58134">
        <ele>510.2</ele>
        <time>2014-09-28T11:43:42Z</time>
      </trkpt>
      <trkpt lat="45.94851" lon="4.58142">
        <ele>510.8</ele>
        <time>2014-09-28T11:43:50Z</time>
      </trkpt>
      <trkpt lat="45.94852" lon="4.58143">
        <ele>510.8</ele>
        <time>2014-09-28T11:43:51Z</time>
      </trkpt>
      <trkpt lat="45.94864" lon="4.58156">
        <ele>512</ele>
        <time>2014-09-28T11:44:04Z</time>
      </trkpt>
      <trkpt lat="45.9487" lon="4.58164">
        <ele>512.5</ele>
        <time>2014-09-28T11:44:11Z</time>
      </trkpt>
      <trkpt lat="45.94876" lon="4.58172">
        <ele>512.5</ele>
        <time>2014-09-28T11:44:19Z</time>
      </trkpt>
      <trkpt lat="45.94882" lon="4.58181">
        <ele>512.5</ele>
        <time>2014-09-28T11:44:30Z</time>
      </trkpt>
      <trkpt lat="45.94884" lon="4.58193">
        <ele>513</ele>
        <time>2014-09-28T11:44:39Z</time>
      </trkpt>
      <trkpt lat="45.94886" lon="4.58205">
        <ele>513</ele>
        <time>2014-09-28T11:44:47Z</time>
      </trkpt>
      <trkpt lat="45.94889" lon="4.58217">
        <ele>512.9</ele>
        <time>2014-09-28T11:44:56Z</time>
      </trkpt>
      <trkpt lat="45.9489" lon="4.58218">
        <ele>512.9</ele>
        <time>2014-09-28T11:44:57Z</time>
      </trkpt>
      <trkpt lat="45.94889" lon="4.5824">
        <ele>512.9</ele>
        <time>2014-09-28T11:45:11Z</time>
      </trkpt>
      <trkpt lat="45.94886" lon="4.58252">
        <ele>513</ele>
        <time>2014-09-28T11:45:19Z</time>
      </trkpt>
      <trkpt lat="45.9488" lon="4.5826">
        <ele>513.5</ele>
        <time>2014-09-28T11:45:43Z</time>
      </trkpt>
      <trkpt lat="45.94873" lon="4.58266">
        <ele>513.5</ele>
        <time>2014-09-28T11:45:50Z</time>
      </trkpt>
      <trkpt lat="45.94865" lon="4.58268">
        <ele>513.5</ele>
        <time>2014-09-28T11:45:58Z</time>
      </trkpt>
      <trkpt lat="45.94864" lon="4.58268">
        <ele>513.5</ele>
        <time>2014-09-28T11:45:59Z</time>
      </trkpt>
      <trkpt lat="45.9485" lon="4.58259">
        <ele>513.7</ele>
        <time>2014-09-28T11:46:24Z</time>
      </trkpt>
      <trkpt lat="45.94845" lon="4.58249">
        <ele>513.9</ele>
        <time>2014-09-28T11:46:38Z</time>
      </trkpt>
      <trkpt lat="45.94838" lon="4.58241">
        <ele>514.2</ele>
        <time>2014-09-28T11:46:58Z</time>
      </trkpt>
      <trkpt lat="45.94846" lon="4.58243">
        <ele>514.4</ele>
        <time>2014-09-28T11:47:28Z</time>
      </trkpt>
      <trkpt lat="45.94847" lon="4.58243">
        <ele>514.4</ele>
        <time>2014-09-28T11:47:29Z</time>
      </trkpt>
      <trkpt lat="45.94862" lon="4.58252">
        <ele>514.4</ele>
        <time>2014-09-28T11:47:43Z</time>
      </trkpt>
      <trkpt lat="45.9487" lon="4.58255">
        <ele>514.4</ele>
        <time>2014-09-28T11:47:51Z</time>
      </trkpt>
      <trkpt lat="45.94878" lon="4.58261">
        <ele>514.5</ele>
        <time>2014-09-28T11:48:13Z</time>
      </trkpt>
      <trkpt lat="45.94882" lon="4.58272">
        <ele>515.2</ele>
        <time>2014-09-28T11:48:25Z</time>
      </trkpt>
      <trkpt lat="45.94886" lon="4.58283">
        <ele>515.9</ele>
        <time>2014-09-28T11:48:34Z</time>
      </trkpt>
      <trkpt lat="45.94886" lon="4.58285">
        <ele>516</ele>
        <time>2014-09-28T11:48:35Z</time>
      </trkpt>
      <trkpt lat="45.94891" lon="4.58306">
        <ele>517</ele>
        <time>2014-09-28T11:48:50Z</time>
      </trkpt>
      <trkpt lat="45.94896" lon="4.58317">
        <ele>517.7</ele>
        <time>2014-09-28T11:49:00Z</time>
      </trkpt>
      <trkpt lat="45.94897" lon="4.58329">
        <ele>518</ele>
        <time>2014-09-28T11:49:13Z</time>
      </trkpt>
      <trkpt lat="45.94897" lon="4.5834">
        <ele>518.5</ele>
        <time>2014-09-28T11:49:19Z</time>
      </trkpt>
      <trkpt lat="45.94898" lon="4.58352">
        <ele>519.2</ele>
        <time>2014-09-28T11:49:26Z</time>
      </trkpt>
      <trkpt lat="45.94897" lon="4.58364">
        <ele>519.7</ele>
        <time>2014-09-28T11:49:35Z</time>
      </trkpt>
      <trkpt lat="45.94897" lon="4.58366">
        <ele>519.9</ele>
        <time>2014-09-28T11:49:36Z</time>
      </trkpt>
      <trkpt lat="45.94898" lon="4.58388">
        <ele>521.5</ele>
        <time>2014-09-28T11:50:35Z</time>
      </trkpt>
      <trkpt lat="45.949" lon="4.584">
        <ele>522</ele>
        <time>2014-09-28T11:50:42Z</time>
      </trkpt>
      <trkpt lat="45.949" lon="4.58402">
        <ele>522.2</ele>
        <time>2014-09-28T11:50:43Z</time>
      </trkpt>
      <trkpt lat="45.94904" lon="4.58423">
        <ele>523</ele>
        <time>2014-09-28T11:50:56Z</time>
      </trkpt>
      <trkpt lat="45.94905" lon="4.58435">
        <ele>523.2</ele>
        <time>2014-09-28T11:51:04Z</time>
      </trkpt>
      <trkpt lat="45.94904" lon="4.58447">
        <ele>523.2</ele>
        <time>2014-09-28T11:51:12Z</time>
      </trkpt>
      <trkpt lat="45.94896" lon="4.58451">
        <ele>523.7</ele>
        <time>2014-09-28T11:51:40Z</time>
      </trkpt>
      <trkpt lat="45.94889" lon="4.58451">
        <ele>523.9</ele>
        <time>2014-09-28T11:51:46Z</time>
      </trkpt>
      <trkpt lat="45.94887" lon="4.58451">
        <ele>523.9</ele>
        <time>2014-09-28T11:51:47Z</time>
      </trkpt>
      <trkpt lat="45.94873" lon="4.58454">
        <ele>523.7</ele>
        <time>2014-09-28T11:51:58Z</time>
      </trkpt>
      <trkpt lat="45.94864" lon="4.58456">
        <ele>523.5</ele>
        <time>2014-09-28T11:52:05Z</time>
      </trkpt>
      <trkpt lat="45.94856" lon="4.58456">
        <ele>523.2</ele>
        <time>2014-09-28T11:52:13Z</time>
      </trkpt>
      <trkpt lat="45.94848" lon="4.58456">
        <ele>523</ele>
        <time>2014-09-28T11:52:20Z</time>
      </trkpt>
      <trkpt lat="45.9484" lon="4.58458">
        <ele>523</ele>
        <time>2014-09-28T11:52:26Z</time>
      </trkpt>
      <trkpt lat="45.94831" lon="4.58461">
        <ele>522.7</ele>
        <time>2014-09-28T11:52:33Z</time>
      </trkpt>
      <trkpt lat="45.94822" lon="4.58462">
        <ele>522.7</ele>
        <time>2014-09-28T11:52:40Z</time>
      </trkpt>
      <trkpt lat="45.94815" lon="4.58463">
        <ele>522.7</ele>
        <time>2014-09-28T11:52:46Z</time>
      </trkpt>
      <trkpt lat="45.94806" lon="4.58465">
        <ele>522.5</ele>
        <time>2014-09-28T11:52:52Z</time>
      </trkpt>
      <trkpt lat="45.94805" lon="4.58465">
        <ele>522.5</ele>
        <time>2014-09-28T11:52:53Z</time>
      </trkpt>
      <trkpt lat="45.94789" lon="4.58465">
        <ele>522.4</ele>
        <time>2014-09-28T11:53:03Z</time>
      </trkpt>
      <trkpt lat="45.94781" lon="4.58463">
        <ele>522.2</ele>
        <time>2014-09-28T11:53:09Z</time>
      </trkpt>
      <trkpt lat="45.94773" lon="4.5846">
        <ele>522.2</ele>
        <time>2014-09-28T11:53:16Z</time>
      </trkpt>
      <trkpt lat="45.94765" lon="4.58459">
        <ele>522.4</ele>
        <time>2014-09-28T11:53:23Z</time>
      </trkpt>
      <trkpt lat="45.94757" lon="4.58457">
        <ele>522.5</ele>
        <time>2014-09-28T11:53:30Z</time>
      </trkpt>
      <trkpt lat="45.94749" lon="4.58454">
        <ele>522.5</ele>
        <time>2014-09-28T11:53:37Z</time>
      </trkpt>
      <trkpt lat="45.94742" lon="4.58449">
        <ele>522.5</ele>
        <time>2014-09-28T11:53:44Z</time>
      </trkpt>
      <trkpt lat="45.94734" lon="4.58444">
        <ele>522.5</ele>
        <time>2014-09-28T11:53:52Z</time>
      </trkpt>
      <trkpt lat="45.94726" lon="4.5844">
        <ele>522.4</ele>
        <time>2014-09-28T11:53:59Z</time>
      </trkpt>
      <trkpt lat="45.94725" lon="4.5844">
        <ele>522.4</ele>
        <time>2014-09-28T11:54:00Z</time>
      </trkpt>
      <trkpt lat="45.9471" lon="4.58435">
        <ele>522.5</ele>
        <time>2014-09-28T11:54:12Z</time>
      </trkpt>
      <trkpt lat="45.94702" lon="4.5843">
        <ele>522.2</ele>
        <time>2014-09-28T11:54:19Z</time>
      </trkpt>
      <trkpt lat="45.94694" lon="4.58426">
        <ele>521.9</ele>
        <time>2014-09-28T11:54:25Z</time>
      </trkpt>
      <trkpt lat="45.94686" lon="4.58421">
        <ele>521.5</ele>
        <time>2014-09-28T11:54:31Z</time>
      </trkpt>
      <trkpt lat="45.94678" lon="4.58418">
        <ele>521.2</ele>
        <time>2014-09-28T11:54:38Z</time>
      </trkpt>
      <trkpt lat="45.94671" lon="4.58414">
        <ele>520.9</ele>
        <time>2014-09-28T11:54:44Z</time>
      </trkpt>
      <trkpt lat="45.94662" lon="4.58412">
        <ele>520.5</ele>
        <time>2014-09-28T11:54:51Z</time>
      </trkpt>
      <trkpt lat="45.94654" lon="4.58414">
        <ele>520</ele>
        <time>2014-09-28T11:54:58Z</time>
      </trkpt>
      <trkpt lat="45.94646" lon="4.5842">
        <ele>519.7</ele>
        <time>2014-09-28T11:55:06Z</time>
      </trkpt>
      <trkpt lat="45.94645" lon="4.58421">
        <ele>519.7</ele>
        <time>2014-09-28T11:55:07Z</time>
      </trkpt>
      <trkpt lat="45.94638" lon="4.5844">
        <ele>519.9</ele>
        <time>2014-09-28T11:55:20Z</time>
      </trkpt>
      <trkpt lat="45.94636" lon="4.58451">
        <ele>520</ele>
        <time>2014-09-28T11:55:26Z</time>
      </trkpt>
      <trkpt lat="45.94632" lon="4.58461">
        <ele>520</ele>
        <time>2014-09-28T11:55:33Z</time>
      </trkpt>
      <trkpt lat="45.94627" lon="4.58471">
        <ele>520</ele>
        <time>2014-09-28T11:55:41Z</time>
      </trkpt>
      <trkpt lat="45.9462" lon="4.58478">
        <ele>519.7</ele>
        <time>2014-09-28T11:55:50Z</time>
      </trkpt>
      <trkpt lat="45.94613" lon="4.58484">
        <ele>519.7</ele>
        <time>2014-09-28T11:55:58Z</time>
      </trkpt>
      <trkpt lat="45.94606" lon="4.58488">
        <ele>519.5</ele>
        <time>2014-09-28T11:56:03Z</time>
      </trkpt>
      <trkpt lat="45.94598" lon="4.58492">
        <ele>519.4</ele>
        <time>2014-09-28T11:56:08Z</time>
      </trkpt>
      <trkpt lat="45.94597" lon="4.58492">
        <ele>519.4</ele>
        <time>2014-09-28T11:56:09Z</time>
      </trkpt>
      <trkpt lat="45.94584" lon="4.58504">
        <ele>517.7</ele>
        <time>2014-09-28T11:56:32Z</time>
      </trkpt>
      <trkpt lat="45.94577" lon="4.58513">
        <ele>517</ele>
        <time>2014-09-28T11:56:41Z</time>
      </trkpt>
      <trkpt lat="45.94571" lon="4.58521">
        <ele>516.5</ele>
        <time>2014-09-28T11:56:51Z</time>
      </trkpt>
      <trkpt lat="45.94565" lon="4.58528">
        <ele>516.5</ele>
        <time>2014-09-28T11:57:00Z</time>
      </trkpt>
      <trkpt lat="45.94558" lon="4.58536">
        <ele>516.2</ele>
        <time>2014-09-28T11:57:08Z</time>
      </trkpt>
      <trkpt lat="45.94559" lon="4.58549">
        <ele>516.2</ele>
        <time>2014-09-28T11:57:26Z</time>
      </trkpt>
      <trkpt lat="45.9456" lon="4.5855">
        <ele>516.2</ele>
        <time>2014-09-28T11:57:27Z</time>
      </trkpt>
      <trkpt lat="45.94549" lon="4.58569">
        <ele>515.2</ele>
        <time>2014-09-28T11:57:45Z</time>
      </trkpt>
      <trkpt lat="45.94543" lon="4.58575">
        <ele>514.7</ele>
        <time>2014-09-28T11:57:52Z</time>
      </trkpt>
      <trkpt lat="45.94535" lon="4.58581">
        <ele>514.2</ele>
        <time>2014-09-28T11:57:58Z</time>
      </trkpt>
      <trkpt lat="45.94528" lon="4.58586">
        <ele>513.9</ele>
        <time>2014-09-28T11:58:04Z</time>
      </trkpt>
      <trkpt lat="45.94521" lon="4.58593">
        <ele>513.5</ele>
        <time>2014-09-28T11:58:10Z</time>
      </trkpt>
      <trkpt lat="45.94514" lon="4.58598">
        <ele>513</ele>
        <time>2014-09-28T11:58:16Z</time>
      </trkpt>
      <trkpt lat="45.94507" lon="4.58603">
        <ele>512.7</ele>
        <time>2014-09-28T11:58:23Z</time>
      </trkpt>
      <trkpt lat="45.94498" lon="4.58606">
        <ele>512.4</ele>
        <time>2014-09-28T11:58:31Z</time>
      </trkpt>
      <trkpt lat="45.94498" lon="4.58607">
        <ele>512.2</ele>
        <time>2014-09-28T11:58:32Z</time>
      </trkpt>
      <trkpt lat="45.94485" lon="4.58622">
        <ele>511.2</ele>
        <time>2014-09-28T11:58:48Z</time>
      </trkpt>
      <trkpt lat="45.94478" lon="4.58629">
        <ele>510.6</ele>
        <time>2014-09-28T11:58:57Z</time>
      </trkpt>
      <trkpt lat="45.94472" lon="4.58637">
        <ele>509.8</ele>
        <time>2014-09-28T11:59:05Z</time>
      </trkpt>
      <trkpt lat="45.94465" lon="4.58643">
        <ele>509.3</ele>
        <time>2014-09-28T11:59:14Z</time>
      </trkpt>
      <trkpt lat="45.94457" lon="4.58646">
        <ele>508.7</ele>
        <time>2014-09-28T11:59:23Z</time>
      </trkpt>
      <trkpt lat="45.94448" lon="4.5865">
        <ele>508.1</ele>
        <time>2014-09-28T11:59:33Z</time>
      </trkpt>
      <trkpt lat="45.94448" lon="4.58651">
        <ele>508.1</ele>
        <time>2014-09-28T11:59:34Z</time>
      </trkpt>
      <trkpt lat="45.94434" lon="4.58664">
        <ele>506.1</ele>
        <time>2014-09-28T12:00:01Z</time>
      </trkpt>
      <trkpt lat="45.94429" lon="4.58674">
        <ele>504.6</ele>
        <time>2014-09-28T12:00:09Z</time>
      </trkpt>
      <trkpt lat="45.94422" lon="4.58681">
        <ele>497.7</ele>
        <time>2014-09-28T12:00:38Z</time>
      </trkpt>
      <trkpt lat="45.94422" lon="4.58682">
        <ele>497.6</ele>
        <time>2014-09-28T12:00:39Z</time>
      </trkpt>
      <trkpt lat="45.94415" lon="4.58704">
        <ele>492.7</ele>
        <time>2014-09-28T12:01:05Z</time>
      </trkpt>
      <trkpt lat="45.94414" lon="4.58716">
        <ele>492.2</ele>
        <time>2014-09-28T12:01:14Z</time>
      </trkpt>
      <trkpt lat="45.9441" lon="4.58726">
        <ele>491.7</ele>
        <time>2014-09-28T12:01:22Z</time>
      </trkpt>
      <trkpt lat="45.94405" lon="4.58735">
        <ele>490.3</ele>
        <time>2014-09-28T12:01:31Z</time>
      </trkpt>
      <trkpt lat="45.94398" lon="4.58742">
        <ele>489.1</ele>
        <time>2014-09-28T12:01:39Z</time>
      </trkpt>
      <trkpt lat="45.94397" lon="4.58743">
        <ele>489</ele>
        <time>2014-09-28T12:01:40Z</time>
      </trkpt>
      <trkpt lat="45.94384" lon="4.58757">
        <ele>487.6</ele>
        <time>2014-09-28T12:01:54Z</time>
      </trkpt>
      <trkpt lat="45.94378" lon="4.58765">
        <ele>487.1</ele>
        <time>2014-09-28T12:02:01Z</time>
      </trkpt>
      <trkpt lat="45.94371" lon="4.58772">
        <ele>486.8</ele>
        <time>2014-09-28T12:02:08Z</time>
      </trkpt>
      <trkpt lat="45.94365" lon="4.58779">
        <ele>486.5</ele>
        <time>2014-09-28T12:02:15Z</time>
      </trkpt>
      <trkpt lat="45.94358" lon="4.58786">
        <ele>486</ele>
        <time>2014-09-28T12:02:21Z</time>
      </trkpt>
      <trkpt lat="45.94351" lon="4.58793">
        <ele>485.2</ele>
        <time>2014-09-28T12:02:27Z</time>
      </trkpt>
      <trkpt lat="45.94345" lon="4.588">
        <ele>484.2</ele>
        <time>2014-09-28T12:02:34Z</time>
      </trkpt>
      <trkpt lat="45.94337" lon="4.58807">
        <ele>483.2</ele>
        <time>2014-09-28T12:02:45Z</time>
      </trkpt>
      <trkpt lat="45.94336" lon="4.58807">
        <ele>483.2</ele>
        <time>2014-09-28T12:02:46Z</time>
      </trkpt>
      <trkpt lat="45.94324" lon="4.58822">
        <ele>482.7</ele>
        <time>2014-09-28T12:03:10Z</time>
      </trkpt>
      <trkpt lat="45.94317" lon="4.58828">
        <ele>482.2</ele>
        <time>2014-09-28T12:03:18Z</time>
      </trkpt>
      <trkpt lat="45.94309" lon="4.58832">
        <ele>481.6</ele>
        <time>2014-09-28T12:03:30Z</time>
      </trkpt>
      <trkpt lat="45.94303" lon="4.58841">
        <ele>480.7</ele>
        <time>2014-09-28T12:03:40Z</time>
      </trkpt>
      <trkpt lat="45.94296" lon="4.58848">
        <ele>480.5</ele>
        <time>2014-09-28T12:03:48Z</time>
      </trkpt>
      <trkpt lat="45.94295" lon="4.58849">
        <ele>480.3</ele>
        <time>2014-09-28T12:03:49Z</time>
      </trkpt>
      <trkpt lat="45.94283" lon="4.58861">
        <ele>480.2</ele>
        <time>2014-09-28T12:04:08Z</time>
      </trkpt>
      <trkpt lat="45.94278" lon="4.5887">
        <ele>480.2</ele>
        <time>2014-09-28T12:04:13Z</time>
      </trkpt>
      <trkpt lat="45.94272" lon="4.58879">
        <ele>480.2</ele>
        <time>2014-09-28T12:04:18Z</time>
      </trkpt>
      <trkpt lat="45.94264" lon="4.58886">
        <ele>479.7</ele>
        <time>2014-09-28T12:04:26Z</time>
      </trkpt>
      <trkpt lat="45.94257" lon="4.58892">
        <ele>479</ele>
        <time>2014-09-28T12:04:34Z</time>
      </trkpt>
      <trkpt lat="45.9425" lon="4.58898">
        <ele>478.5</ele>
        <time>2014-09-28T12:04:41Z</time>
      </trkpt>
      <trkpt lat="45.94243" lon="4.58904">
        <ele>478.2</ele>
        <time>2014-09-28T12:04:47Z</time>
      </trkpt>
      <trkpt lat="45.94235" lon="4.58911">
        <ele>477.3</ele>
        <time>2014-09-28T12:04:56Z</time>
      </trkpt>
      <trkpt lat="45.94234" lon="4.58911">
        <ele>477.2</ele>
        <time>2014-09-28T12:04:57Z</time>
      </trkpt>
      <trkpt lat="45.9422" lon="4.5892">
        <ele>475.7</ele>
        <time>2014-09-28T12:05:10Z</time>
      </trkpt>
      <trkpt lat="45.94211" lon="4.5892">
        <ele>475.2</ele>
        <time>2014-09-28T12:05:19Z</time>
      </trkpt>
      <trkpt lat="45.94203" lon="4.58923">
        <ele>474.6</ele>
        <time>2014-09-28T12:05:26Z</time>
      </trkpt>
      <trkpt lat="45.94196" lon="4.58927">
        <ele>474</ele>
        <time>2014-09-28T12:05:31Z</time>
      </trkpt>
      <trkpt lat="45.94188" lon="4.58931">
        <ele>473.5</ele>
        <time>2014-09-28T12:05:39Z</time>
      </trkpt>
      <trkpt lat="45.94182" lon="4.58937">
        <ele>473.3</ele>
        <time>2014-09-28T12:05:45Z</time>
      </trkpt>
      <trkpt lat="45.94174" lon="4.58943">
        <ele>473.2</ele>
        <time>2014-09-28T12:05:50Z</time>
      </trkpt>
      <trkpt lat="45.94166" lon="4.58948">
        <ele>473</ele>
        <time>2014-09-28T12:05:56Z</time>
      </trkpt>
      <trkpt lat="45.94157" lon="4.5895">
        <ele>472.7</ele>
        <time>2014-09-28T12:06:04Z</time>
      </trkpt>
      <trkpt lat="45.94156" lon="4.5895">
        <ele>472.7</ele>
        <time>2014-09-28T12:06:05Z</time>
      </trkpt>
      <trkpt lat="45.94141" lon="4.58948">
        <ele>472.5</ele>
        <time>2014-09-28T12:06:17Z</time>
      </trkpt>
      <trkpt lat="45.94133" lon="4.58946">
        <ele>472.2</ele>
        <time>2014-09-28T12:06:25Z</time>
      </trkpt>
      <trkpt lat="45.94125" lon="4.58941">
        <ele>471.7</ele>
        <time>2014-09-28T12:06:33Z</time>
      </trkpt>
      <trkpt lat="45.94119" lon="4.58932">
        <ele>471</ele>
        <time>2014-09-28T12:06:38Z</time>
      </trkpt>
      <trkpt lat="45.94113" lon="4.58925">
        <ele>470.1</ele>
        <time>2014-09-28T12:06:43Z</time>
      </trkpt>
      <trkpt lat="45.94106" lon="4.58919">
        <ele>469</ele>
        <time>2014-09-28T12:06:49Z</time>
      </trkpt>
      <trkpt lat="45.94098" lon="4.58914">
        <ele>467.6</ele>
        <time>2014-09-28T12:06:57Z</time>
      </trkpt>
      <trkpt lat="45.94091" lon="4.58908">
        <ele>466.2</ele>
        <time>2014-09-28T12:07:06Z</time>
      </trkpt>
      <trkpt lat="45.9409" lon="4.58908">
        <ele>466</ele>
        <time>2014-09-28T12:07:07Z</time>
      </trkpt>
      <trkpt lat="45.94075" lon="4.589">
        <ele>463.7</ele>
        <time>2014-09-28T12:07:26Z</time>
      </trkpt>
      <trkpt lat="45.94066" lon="4.58901">
        <ele>462.7</ele>
        <time>2014-09-28T12:07:33Z</time>
      </trkpt>
      <trkpt lat="45.94058" lon="4.58903">
        <ele>461.8</ele>
        <time>2014-09-28T12:07:38Z</time>
      </trkpt>
      <trkpt lat="45.9405" lon="4.58905">
        <ele>461.2</ele>
        <time>2014-09-28T12:07:43Z</time>
      </trkpt>
      <trkpt lat="45.94041" lon="4.58907">
        <ele>460.6</ele>
        <time>2014-09-28T12:07:49Z</time>
      </trkpt>
      <trkpt lat="45.94033" lon="4.5891">
        <ele>459.8</ele>
        <time>2014-09-28T12:07:57Z</time>
      </trkpt>
      <trkpt lat="45.94024" lon="4.58912">
        <ele>459.2</ele>
        <time>2014-09-28T12:08:05Z</time>
      </trkpt>
      <trkpt lat="45.94016" lon="4.58912">
        <ele>458.6</ele>
        <time>2014-09-28T12:08:12Z</time>
      </trkpt>
      <trkpt lat="45.94014" lon="4.58912">
        <ele>458.5</ele>
        <time>2014-09-28T12:08:13Z</time>
      </trkpt>
      <trkpt lat="45.93999" lon="4.58908">
        <ele>457.7</ele>
        <time>2014-09-28T12:08:28Z</time>
      </trkpt>
      <trkpt lat="45.93992" lon="4.58905">
        <ele>457.7</ele>
        <time>2014-09-28T12:08:32Z</time>
      </trkpt>
      <trkpt lat="45.93984" lon="4.58902">
        <ele>457.5</ele>
        <time>2014-09-28T12:08:37Z</time>
      </trkpt>
      <trkpt lat="45.93976" lon="4.58897">
        <ele>457.2</ele>
        <time>2014-09-28T12:08:43Z</time>
      </trkpt>
      <trkpt lat="45.93972" lon="4.58886">
        <ele>457</ele>
        <time>2014-09-28T12:08:52Z</time>
      </trkpt>
      <trkpt lat="45.93968" lon="4.58876">
        <ele>456.7</ele>
        <time>2014-09-28T12:09:01Z</time>
      </trkpt>
      <trkpt lat="45.93963" lon="4.58866">
        <ele>456.6</ele>
        <time>2014-09-28T12:09:10Z</time>
      </trkpt>
      <trkpt lat="45.93956" lon="4.58858">
        <ele>456.3</ele>
        <time>2014-09-28T12:09:23Z</time>
      </trkpt>
      <trkpt lat="45.93956" lon="4.58857">
        <ele>456.2</ele>
        <time>2014-09-28T12:09:24Z</time>
      </trkpt>
      <trkpt lat="45.93945" lon="4.58839">
        <ele>456</ele>
        <time>2014-09-28T12:09:38Z</time>
      </trkpt>
      <trkpt lat="45.93938" lon="4.58833">
        <ele>455.7</ele>
        <time>2014-09-28T12:09:45Z</time>
      </trkpt>
      <trkpt lat="45.9393" lon="4.58827">
        <ele>455.3</ele>
        <time>2014-09-28T12:09:55Z</time>
      </trkpt>
      <trkpt lat="45.93923" lon="4.5882">
        <ele>454.8</ele>
        <time>2014-09-28T12:10:05Z</time>
      </trkpt>
      <trkpt lat="45.93916" lon="4.58813">
        <ele>454.6</ele>
        <time>2014-09-28T12:10:12Z</time>
      </trkpt>
      <trkpt lat="45.9391" lon="4.58806">
        <ele>454.3</ele>
        <time>2014-09-28T12:10:18Z</time>
      </trkpt>
      <trkpt lat="45.93905" lon="4.58797">
        <ele>454.2</ele>
        <time>2014-09-28T12:10:25Z</time>
      </trkpt>
      <trkpt lat="45.93904" lon="4.58796">
        <ele>454.1</ele>
        <time>2014-09-28T12:10:26Z</time>
      </trkpt>
      <trkpt lat="45.93901" lon="4.58774">
        <ele>454</ele>
        <time>2014-09-28T12:10:38Z</time>
      </trkpt>
      <trkpt lat="45.939" lon="4.58762">
        <ele>454</ele>
        <time>2014-09-28T12:10:44Z</time>
      </trkpt>
      <trkpt lat="45.939" lon="4.58749">
        <ele>454.1</ele>
        <time>2014-09-28T12:10:50Z</time>
      </trkpt>
      <trkpt lat="45.93899" lon="4.58738">
        <ele>454.2</ele>
        <time>2014-09-28T12:10:56Z</time>
      </trkpt>
      <trkpt lat="45.93899" lon="4.58726">
        <ele>454.6</ele>
        <time>2014-09-28T12:11:03Z</time>
      </trkpt>
      <trkpt lat="45.939" lon="4.58713">
        <ele>454.8</ele>
        <time>2014-09-28T12:11:11Z</time>
      </trkpt>
      <trkpt lat="45.93903" lon="4.58701">
        <ele>455.2</ele>
        <time>2014-09-28T12:11:19Z</time>
      </trkpt>
      <trkpt lat="45.93903" lon="4.58689">
        <ele>455.3</ele>
        <time>2014-09-28T12:11:30Z</time>
      </trkpt>
      <trkpt lat="45.93902" lon="4.58688">
        <ele>455.3</ele>
        <time>2014-09-28T12:11:31Z</time>
      </trkpt>
      <trkpt lat="45.93891" lon="4.58676">
        <ele>455.7</ele>
        <time>2014-09-28T12:11:43Z</time>
      </trkpt>
      <trkpt lat="45.93882" lon="4.58673">
        <ele>455.7</ele>
        <time>2014-09-28T12:11:50Z</time>
      </trkpt>
      <trkpt lat="45.93874" lon="4.58672">
        <ele>455.8</ele>
        <time>2014-09-28T12:11:58Z</time>
      </trkpt>
      <trkpt lat="45.93865" lon="4.5867">
        <ele>455.7</ele>
        <time>2014-09-28T12:12:05Z</time>
      </trkpt>
      <trkpt lat="45.93857" lon="4.58668">
        <ele>455.7</ele>
        <time>2014-09-28T12:12:12Z</time>
      </trkpt>
      <trkpt lat="45.93849" lon="4.58666">
        <ele>455.7</ele>
        <time>2014-09-28T12:12:18Z</time>
      </trkpt>
      <trkpt lat="45.93841" lon="4.58666">
        <ele>455.8</ele>
        <time>2014-09-28T12:12:24Z</time>
      </trkpt>
      <trkpt lat="45.93832" lon="4.58665">
        <ele>455.7</ele>
        <time>2014-09-28T12:12:30Z</time>
      </trkpt>
      <trkpt lat="45.93824" lon="4.58665">
        <ele>455.7</ele>
        <time>2014-09-28T12:12:37Z</time>
      </trkpt>
      <trkpt lat="45.93823" lon="4.58665">
        <ele>455.7</ele>
        <time>2014-09-28T12:12:38Z</time>
      </trkpt>
      <trkpt lat="45.93808" lon="4.58668">
        <ele>455.3</ele>
        <time>2014-09-28T12:12:52Z</time>
      </trkpt>
      <trkpt lat="45.93799" lon="4.58672">
        <ele>455.2</ele>
        <time>2014-09-28T12:12:59Z</time>
      </trkpt>
      <trkpt lat="45.93791" lon="4.58674">
        <ele>455.2</ele>
        <time>2014-09-28T12:13:07Z</time>
      </trkpt>
      <trkpt lat="45.93783" lon="4.5868">
        <ele>455.2</ele>
        <time>2014-09-28T12:13:14Z</time>
      </trkpt>
      <trkpt lat="45.93776" lon="4.58685">
        <ele>455</ele>
        <time>2014-09-28T12:13:20Z</time>
      </trkpt>
      <trkpt lat="45.93769" lon="4.58692">
        <ele>455</ele>
        <time>2014-09-28T12:13:27Z</time>
      </trkpt>
      <trkpt lat="45.93762" lon="4.58699">
        <ele>454.8</ele>
        <time>2014-09-28T12:13:35Z</time>
      </trkpt>
      <trkpt lat="45.93756" lon="4.58707">
        <ele>454.5</ele>
        <time>2014-09-28T12:13:43Z</time>
      </trkpt>
      <trkpt lat="45.93755" lon="4.58708">
        <ele>454.3</ele>
        <time>2014-09-28T12:13:44Z</time>
      </trkpt>
      <trkpt lat="45.93742" lon="4.5872">
        <ele>453.7</ele>
        <time>2014-09-28T12:14:00Z</time>
      </trkpt>
      <trkpt lat="45.93735" lon="4.58727">
        <ele>453.1</ele>
        <time>2014-09-28T12:14:07Z</time>
      </trkpt>
      <trkpt lat="45.93728" lon="4.58734">
        <ele>452.5</ele>
        <time>2014-09-28T12:14:14Z</time>
      </trkpt>
      <trkpt lat="45.9372" lon="4.58739">
        <ele>452.2</ele>
        <time>2014-09-28T12:14:21Z</time>
      </trkpt>
      <trkpt lat="45.93712" lon="4.58743">
        <ele>452.1</ele>
        <time>2014-09-28T12:14:28Z</time>
      </trkpt>
      <trkpt lat="45.93705" lon="4.58747">
        <ele>452</ele>
        <time>2014-09-28T12:14:35Z</time>
      </trkpt>
      <trkpt lat="45.93698" lon="4.58751">
        <ele>451.8</ele>
        <time>2014-09-28T12:14:42Z</time>
      </trkpt>
      <trkpt lat="45.93691" lon="4.58758">
        <ele>451.6</ele>
        <time>2014-09-28T12:14:48Z</time>
      </trkpt>
      <trkpt lat="45.93689" lon="4.58759">
        <ele>451.6</ele>
        <time>2014-09-28T12:14:49Z</time>
      </trkpt>
      <trkpt lat="45.93676" lon="4.58768">
        <ele>451.1</ele>
        <time>2014-09-28T12:15:02Z</time>
      </trkpt>
      <trkpt lat="45.93669" lon="4.58774">
        <ele>451.1</ele>
        <time>2014-09-28T12:15:08Z</time>
      </trkpt>
      <trkpt lat="45.9366" lon="4.58778">
        <ele>451</ele>
        <time>2014-09-28T12:15:16Z</time>
      </trkpt>
      <trkpt lat="45.93652" lon="4.58781">
        <ele>450.8</ele>
        <time>2014-09-28T12:15:26Z</time>
      </trkpt>
      <trkpt lat="45.93644" lon="4.58784">
        <ele>450.7</ele>
        <time>2014-09-28T12:15:35Z</time>
      </trkpt>
      <trkpt lat="45.93636" lon="4.58789">
        <ele>450.6</ele>
        <time>2014-09-28T12:15:42Z</time>
      </trkpt>
      <trkpt lat="45.93628" lon="4.58794">
        <ele>450.2</ele>
        <time>2014-09-28T12:15:49Z</time>
      </trkpt>
      <trkpt lat="45.93627" lon="4.58795">
        <ele>450.2</ele>
        <time>2014-09-28T12:15:50Z</time>
      </trkpt>
      <trkpt lat="45.93614" lon="4.58805">
        <ele>450</ele>
        <time>2014-09-28T12:16:02Z</time>
      </trkpt>
      <trkpt lat="45.93607" lon="4.58811">
        <ele>450</ele>
        <time>2014-09-28T12:16:09Z</time>
      </trkpt>
      <trkpt lat="45.93599" lon="4.58817">
        <ele>450</ele>
        <time>2014-09-28T12:16:16Z</time>
      </trkpt>
      <trkpt lat="45.93592" lon="4.58822">
        <ele>449.7</ele>
        <time>2014-09-28T12:16:23Z</time>
      </trkpt>
      <trkpt lat="45.93584" lon="4.58825">
        <ele>449.1</ele>
        <time>2014-09-28T12:16:31Z</time>
      </trkpt>
      <trkpt lat="45.93576" lon="4.58827">
        <ele>448.6</ele>
        <time>2014-09-28T12:16:39Z</time>
      </trkpt>
      <trkpt lat="45.93568" lon="4.5883">
        <ele>448.2</ele>
        <time>2014-09-28T12:16:47Z</time>
      </trkpt>
      <trkpt lat="45.93559" lon="4.58832">
        <ele>447.8</ele>
        <time>2014-09-28T12:16:55Z</time>
      </trkpt>
      <trkpt lat="45.93558" lon="4.58832">
        <ele>447.8</ele>
        <time>2014-09-28T12:16:56Z</time>
      </trkpt>
      <trkpt lat="45.93543" lon="4.58839">
        <ele>447.2</ele>
        <time>2014-09-28T12:17:11Z</time>
      </trkpt>
      <trkpt lat="45.93535" lon="4.58844">
        <ele>446.8</ele>
        <time>2014-09-28T12:17:19Z</time>
      </trkpt>
      <trkpt lat="45.93527" lon="4.58848">
        <ele>446.6</ele>
        <time>2014-09-28T12:17:27Z</time>
      </trkpt>
      <trkpt lat="45.93518" lon="4.58851">
        <ele>446.2</ele>
        <time>2014-09-28T12:17:35Z</time>
      </trkpt>
      <trkpt lat="45.9351" lon="4.58853">
        <ele>446.1</ele>
        <time>2014-09-28T12:17:42Z</time>
      </trkpt>
      <trkpt lat="45.93503" lon="4.58859">
        <ele>446</ele>
        <time>2014-09-28T12:17:49Z</time>
      </trkpt>
      <trkpt lat="45.93497" lon="4.58867">
        <ele>445.7</ele>
        <time>2014-09-28T12:17:55Z</time>
      </trkpt>
      <trkpt lat="45.93493" lon="4.58878">
        <ele>445.5</ele>
        <time>2014-09-28T12:18:02Z</time>
      </trkpt>
      <trkpt lat="45.93493" lon="4.58879">
        <ele>445.3</ele>
        <time>2014-09-28T12:18:03Z</time>
      </trkpt>
      <trkpt lat="45.93484" lon="4.58897">
        <ele>444.8</ele>
        <time>2014-09-28T12:18:17Z</time>
      </trkpt>
      <trkpt lat="45.93477" lon="4.58902">
        <ele>444.2</ele>
        <time>2014-09-28T12:18:23Z</time>
      </trkpt>
      <trkpt lat="45.9347" lon="4.58908">
        <ele>443.6</ele>
        <time>2014-09-28T12:18:28Z</time>
      </trkpt>
      <trkpt lat="45.93462" lon="4.58914">
        <ele>442.6</ele>
        <time>2014-09-28T12:18:36Z</time>
      </trkpt>
      <trkpt lat="45.93454" lon="4.58919">
        <ele>441.8</ele>
        <time>2014-09-28T12:18:45Z</time>
      </trkpt>
      <trkpt lat="45.93447" lon="4.58924">
        <ele>441.6</ele>
        <time>2014-09-28T12:18:53Z</time>
      </trkpt>
      <trkpt lat="45.93439" lon="4.5893">
        <ele>441.5</ele>
        <time>2014-09-28T12:19:01Z</time>
      </trkpt>
      <trkpt lat="45.93432" lon="4.58937">
        <ele>441.3</ele>
        <time>2014-09-28T12:19:08Z</time>
      </trkpt>
      <trkpt lat="45.93432" lon="4.58938">
        <ele>441.3</ele>
        <time>2014-09-28T12:19:09Z</time>
      </trkpt>
      <trkpt lat="45.93418" lon="4.58952">
        <ele>441.2</ele>
        <time>2014-09-28T12:19:24Z</time>
      </trkpt>
      <trkpt lat="45.93412" lon="4.58959">
        <ele>441.1</ele>
        <time>2014-09-28T12:19:32Z</time>
      </trkpt>
      <trkpt lat="45.93405" lon="4.58966">
        <ele>440.7</ele>
        <time>2014-09-28T12:19:38Z</time>
      </trkpt>
      <trkpt lat="45.93397" lon="4.58971">
        <ele>440.3</ele>
        <time>2014-09-28T12:19:43Z</time>
      </trkpt>
      <trkpt lat="45.9339" lon="4.58976">
        <ele>439.8</ele>
        <time>2014-09-28T12:19:49Z</time>
      </trkpt>
      <trkpt lat="45.93383" lon="4.58984">
        <ele>439.2</ele>
        <time>2014-09-28T12:19:56Z</time>
      </trkpt>
      <trkpt lat="45.93377" lon="4.58992">
        <ele>438.7</ele>
        <time>2014-09-28T12:20:02Z</time>
      </trkpt>
      <trkpt lat="45.93373" lon="4.59">
        <ele>437.8</ele>
        <time>2014-09-28T12:20:07Z</time>
      </trkpt>
      <trkpt lat="45.93368" lon="4.5901">
        <ele>436.7</ele>
        <time>2014-09-28T12:20:12Z</time>
      </trkpt>
      <trkpt lat="45.93368" lon="4.59012">
        <ele>436.3</ele>
        <time>2014-09-28T12:20:13Z</time>
      </trkpt>
      <trkpt lat="45.93361" lon="4.59032">
        <ele>433</ele>
        <time>2014-09-28T12:20:25Z</time>
      </trkpt>
      <trkpt lat="45.93358" lon="4.59042">
        <ele>430.8</ele>
        <time>2014-09-28T12:20:32Z</time>
      </trkpt>
      <trkpt lat="45.93352" lon="4.59051">
        <ele>428.5</ele>
        <time>2014-09-28T12:20:41Z</time>
      </trkpt>
      <trkpt lat="45.93344" lon="4.59058">
        <ele>426</ele>
        <time>2014-09-28T12:20:52Z</time>
      </trkpt>
      <trkpt lat="45.93338" lon="4.59065">
        <ele>424.7</ele>
        <time>2014-09-28T12:21:02Z</time>
      </trkpt>
      <trkpt lat="45.93333" lon="4.59074">
        <ele>424.2</ele>
        <time>2014-09-28T12:21:10Z</time>
      </trkpt>
      <trkpt lat="45.93328" lon="4.5908">
        <ele>423.8</ele>
        <time>2014-09-28T12:21:15Z</time>
      </trkpt>
      <trkpt lat="45.93326" lon="4.59083">
        <ele>423.7</ele>
        <time>2014-09-28T12:21:16Z</time>
      </trkpt>
      <trkpt lat="45.93313" lon="4.59095">
        <ele>422.2</ele>
        <time>2014-09-28T12:21:27Z</time>
      </trkpt>
      <trkpt lat="45.93305" lon="4.59096">
        <ele>420.7</ele>
        <time>2014-09-28T12:21:41Z</time>
      </trkpt>
      <trkpt lat="45.93298" lon="4.59101">
        <ele>420.1</ele>
        <time>2014-09-28T12:21:47Z</time>
      </trkpt>
      <trkpt lat="45.9329" lon="4.59106">
        <ele>418.7</ele>
        <time>2014-09-28T12:21:51Z</time>
      </trkpt>
      <trkpt lat="45.93282" lon="4.59109">
        <ele>417.8</ele>
        <time>2014-09-28T12:21:56Z</time>
      </trkpt>
      <trkpt lat="45.93273" lon="4.59109">
        <ele>416.8</ele>
        <time>2014-09-28T12:22:04Z</time>
      </trkpt>
      <trkpt lat="45.93265" lon="4.59108">
        <ele>414.5</ele>
        <time>2014-09-28T12:22:19Z</time>
      </trkpt>
      <trkpt lat="45.93264" lon="4.59108">
        <ele>414.2</ele>
        <time>2014-09-28T12:22:20Z</time>
      </trkpt>
      <trkpt lat="45.93248" lon="4.5911">
        <ele>410</ele>
        <time>2014-09-28T12:22:37Z</time>
      </trkpt>
      <trkpt lat="45.9324" lon="4.59115">
        <ele>408.8</ele>
        <time>2014-09-28T12:22:44Z</time>
      </trkpt>
      <trkpt lat="45.93234" lon="4.59123">
        <ele>407.8</ele>
        <time>2014-09-28T12:22:51Z</time>
      </trkpt>
      <trkpt lat="45.93226" lon="4.5913">
        <ele>405.8</ele>
        <time>2014-09-28T12:23:00Z</time>
      </trkpt>
      <trkpt lat="45.93221" lon="4.59139">
        <ele>404.7</ele>
        <time>2014-09-28T12:23:13Z</time>
      </trkpt>
      <trkpt lat="45.93216" lon="4.59148">
        <ele>404.3</ele>
        <time>2014-09-28T12:23:22Z</time>
      </trkpt>
      <trkpt lat="45.93214" lon="4.5915">
        <ele>404.3</ele>
        <time>2014-09-28T12:23:23Z</time>
      </trkpt>
      <trkpt lat="45.93202" lon="4.59164">
        <ele>403.6</ele>
        <time>2014-09-28T12:23:38Z</time>
      </trkpt>
      <trkpt lat="45.93194" lon="4.59167">
        <ele>403.1</ele>
        <time>2014-09-28T12:23:51Z</time>
      </trkpt>
      <trkpt lat="45.93185" lon="4.59172">
        <ele>402.2</ele>
        <time>2014-09-28T12:24:00Z</time>
      </trkpt>
      <trkpt lat="45.93178" lon="4.59179">
        <ele>402.1</ele>
        <time>2014-09-28T12:24:09Z</time>
      </trkpt>
      <trkpt lat="45.93171" lon="4.59186">
        <ele>402</ele>
        <time>2014-09-28T12:24:19Z</time>
      </trkpt>
      <trkpt lat="45.93164" lon="4.59193">
        <ele>401.3</ele>
        <time>2014-09-28T12:24:28Z</time>
      </trkpt>
      <trkpt lat="45.93163" lon="4.59194">
        <ele>401.3</ele>
        <time>2014-09-28T12:24:29Z</time>
      </trkpt>
      <trkpt lat="45.9315" lon="4.59205">
        <ele>400.2</ele>
        <time>2014-09-28T12:24:40Z</time>
      </trkpt>
      <trkpt lat="45.93142" lon="4.59208">
        <ele>399.7</ele>
        <time>2014-09-28T12:24:46Z</time>
      </trkpt>
      <trkpt lat="45.93133" lon="4.59208">
        <ele>399.3</ele>
        <time>2014-09-28T12:24:51Z</time>
      </trkpt>
      <trkpt lat="45.93124" lon="4.59207">
        <ele>399.2</ele>
        <time>2014-09-28T12:25:01Z</time>
      </trkpt>
      <trkpt lat="45.93116" lon="4.59206">
        <ele>398.7</ele>
        <time>2014-09-28T12:25:09Z</time>
      </trkpt>
      <trkpt lat="45.93108" lon="4.59208">
        <ele>398.2</ele>
        <time>2014-09-28T12:25:15Z</time>
      </trkpt>
      <trkpt lat="45.93099" lon="4.59209">
        <ele>397.6</ele>
        <time>2014-09-28T12:25:22Z</time>
      </trkpt>
      <trkpt lat="45.93091" lon="4.59211">
        <ele>397.1</ele>
        <time>2014-09-28T12:25:28Z</time>
      </trkpt>
      <trkpt lat="45.93083" lon="4.59214">
        <ele>396.3</ele>
        <time>2014-09-28T12:25:35Z</time>
      </trkpt>
      <trkpt lat="45.93082" lon="4.59215">
        <ele>396.2</ele>
        <time>2014-09-28T12:25:36Z</time>
      </trkpt>
      <trkpt lat="45.93066" lon="4.59216">
        <ele>395.6</ele>
        <time>2014-09-28T12:25:52Z</time>
      </trkpt>
      <trkpt lat="45.93058" lon="4.59219">
        <ele>395.6</ele>
        <time>2014-09-28T12:26:04Z</time>
      </trkpt>
      <trkpt lat="45.9305" lon="4.5922">
        <ele>395.7</ele>
        <time>2014-09-28T12:26:11Z</time>
      </trkpt>
      <trkpt lat="45.93042" lon="4.59223">
        <ele>395.7</ele>
        <time>2014-09-28T12:26:16Z</time>
      </trkpt>
      <trkpt lat="45.93033" lon="4.59222">
        <ele>395.6</ele>
        <time>2014-09-28T12:26:22Z</time>
      </trkpt>
      <trkpt lat="45.93025" lon="4.59219">
        <ele>395.5</ele>
        <time>2014-09-28T12:26:30Z</time>
      </trkpt>
      <trkpt lat="45.93017" lon="4.59215">
        <ele>395</ele>
        <time>2014-09-28T12:26:37Z</time>
      </trkpt>
      <trkpt lat="45.93016" lon="4.59215">
        <ele>395</ele>
        <time>2014-09-28T12:26:38Z</time>
      </trkpt>
      <trkpt lat="45.93001" lon="4.59214">
        <ele>393.7</ele>
        <time>2014-09-28T12:26:54Z</time>
      </trkpt>
      <trkpt lat="45.92993" lon="4.59215">
        <ele>393.2</ele>
        <time>2014-09-28T12:27:02Z</time>
      </trkpt>
      <trkpt lat="45.92984" lon="4.59216">
        <ele>392.6</ele>
        <time>2014-09-28T12:27:14Z</time>
      </trkpt>
      <trkpt lat="45.92975" lon="4.59218">
        <ele>392.1</ele>
        <time>2014-09-28T12:27:25Z</time>
      </trkpt>
      <trkpt lat="45.92967" lon="4.59221">
        <ele>392.1</ele>
        <time>2014-09-28T12:27:34Z</time>
      </trkpt>
      <trkpt lat="45.92959" lon="4.59227">
        <ele>392</ele>
        <time>2014-09-28T12:27:40Z</time>
      </trkpt>
      <trkpt lat="45.92957" lon="4.59228">
        <ele>392</ele>
        <time>2014-09-28T12:27:41Z</time>
      </trkpt>
      <trkpt lat="45.92943" lon="4.59235">
        <ele>391.3</ele>
        <time>2014-09-28T12:27:52Z</time>
      </trkpt>
      <trkpt lat="45.92935" lon="4.59235">
        <ele>391</ele>
        <time>2014-09-28T12:27:56Z</time>
      </trkpt>
      <trkpt lat="45.92928" lon="4.59233">
        <ele>390.3</ele>
        <time>2014-09-28T12:28:00Z</time>
      </trkpt>
      <trkpt lat="45.92919" lon="4.59231">
        <ele>389.8</ele>
        <time>2014-09-28T12:28:07Z</time>
      </trkpt>
      <trkpt lat="45.9291" lon="4.59228">
        <ele>389.8</ele>
        <time>2014-09-28T12:28:18Z</time>
      </trkpt>
      <trkpt lat="45.92902" lon="4.59225">
        <ele>390</ele>
        <time>2014-09-28T12:28:27Z</time>
      </trkpt>
      <trkpt lat="45.92894" lon="4.59224">
        <ele>390.1</ele>
        <time>2014-09-28T12:28:35Z</time>
      </trkpt>
      <trkpt lat="45.92885" lon="4.59223">
        <ele>390</ele>
        <time>2014-09-28T12:28:42Z</time>
      </trkpt>
      <trkpt lat="45.92883" lon="4.59223">
        <ele>390</ele>
        <time>2014-09-28T12:28:43Z</time>
      </trkpt>
      <trkpt lat="45.92869" lon="4.59222">
        <ele>389.8</ele>
        <time>2014-09-28T12:28:57Z</time>
      </trkpt>
      <trkpt lat="45.9286" lon="4.59221">
        <ele>389.7</ele>
        <time>2014-09-28T12:29:04Z</time>
      </trkpt>
      <trkpt lat="45.92853" lon="4.59221">
        <ele>389.5</ele>
        <time>2014-09-28T12:29:09Z</time>
      </trkpt>
      <trkpt lat="45.92845" lon="4.59222">
        <ele>389.5</ele>
        <time>2014-09-28T12:29:14Z</time>
      </trkpt>
      <trkpt lat="45.92836" lon="4.59219">
        <ele>389.5</ele>
        <time>2014-09-28T12:29:22Z</time>
      </trkpt>
      <trkpt lat="45.92827" lon="4.59217">
        <ele>389.6</ele>
        <time>2014-09-28T12:29:30Z</time>
      </trkpt>
      <trkpt lat="45.9282" lon="4.59213">
        <ele>389</ele>
        <time>2014-09-28T12:29:36Z</time>
      </trkpt>
      <trkpt lat="45.92813" lon="4.59207">
        <ele>387.7</ele>
        <time>2014-09-28T12:29:43Z</time>
      </trkpt>
      <trkpt lat="45.92812" lon="4.59206">
        <ele>387.7</ele>
        <time>2014-09-28T12:29:44Z</time>
      </trkpt>
      <trkpt lat="45.92799" lon="4.59197">
        <ele>386.1</ele>
        <time>2014-09-28T12:29:56Z</time>
      </trkpt>
      <trkpt lat="45.9279" lon="4.59195">
        <ele>384.3</ele>
        <time>2014-09-28T12:30:03Z</time>
      </trkpt>
      <trkpt lat="45.92782" lon="4.59192">
        <ele>383.2</ele>
        <time>2014-09-28T12:30:11Z</time>
      </trkpt>
      <trkpt lat="45.92775" lon="4.59188">
        <ele>382.7</ele>
        <time>2014-09-28T12:30:18Z</time>
      </trkpt>
      <trkpt lat="45.92767" lon="4.59187">
        <ele>382.7</ele>
        <time>2014-09-28T12:30:23Z</time>
      </trkpt>
      <trkpt lat="45.92759" lon="4.59187">
        <ele>382.8</ele>
        <time>2014-09-28T12:30:28Z</time>
      </trkpt>
      <trkpt lat="45.9275" lon="4.59185">
        <ele>383.1</ele>
        <time>2014-09-28T12:30:35Z</time>
      </trkpt>
      <trkpt lat="45.92742" lon="4.59184">
        <ele>383.2</ele>
        <time>2014-09-28T12:30:42Z</time>
      </trkpt>
      <trkpt lat="45.92734" lon="4.59181">
        <ele>383</ele>
        <time>2014-09-28T12:30:54Z</time>
      </trkpt>
      <trkpt lat="45.92732" lon="4.5918">
        <ele>382.8</ele>
        <time>2014-09-28T12:30:55Z</time>
      </trkpt>
      <trkpt lat="45.92719" lon="4.59171">
        <ele>381.6</ele>
        <time>2014-09-28T12:31:05Z</time>
      </trkpt>
      <trkpt lat="45.92712" lon="4.59166">
        <ele>381.2</ele>
        <time>2014-09-28T12:31:10Z</time>
      </trkpt>
      <trkpt lat="45.92705" lon="4.5916">
        <ele>380.7</ele>
        <time>2014-09-28T12:31:18Z</time>
      </trkpt>
      <trkpt lat="45.92696" lon="4.59157">
        <ele>380.5</ele>
        <time>2014-09-28T12:31:28Z</time>
      </trkpt>
      <trkpt lat="45.92688" lon="4.59158">
        <ele>380.5</ele>
        <time>2014-09-28T12:31:38Z</time>
      </trkpt>
      <trkpt lat="45.9268" lon="4.59158">
        <ele>379.7</ele>
        <time>2014-09-28T12:31:46Z</time>
      </trkpt>
      <trkpt lat="45.92672" lon="4.59157">
        <ele>379.2</ele>
        <time>2014-09-28T12:31:53Z</time>
      </trkpt>
      <trkpt lat="45.92663" lon="4.59157">
        <ele>378.8</ele>
        <time>2014-09-28T12:32:02Z</time>
      </trkpt>
      <trkpt lat="45.92662" lon="4.59157">
        <ele>378.7</ele>
        <time>2014-09-28T12:32:03Z</time>
      </trkpt>
      <trkpt lat="45.92647" lon="4.5915">
        <ele>377.8</ele>
        <time>2014-09-28T12:32:20Z</time>
      </trkpt>
      <trkpt lat="45.92639" lon="4.59143">
        <ele>377.5</ele>
        <time>2014-09-28T12:32:29Z</time>
      </trkpt>
      <trkpt lat="45.92633" lon="4.59136">
        <ele>377.2</ele>
        <time>2014-09-28T12:32:36Z</time>
      </trkpt>
      <trkpt lat="45.92626" lon="4.59129">
        <ele>377.1</ele>
        <time>2014-09-28T12:32:45Z</time>
      </trkpt>
      <trkpt lat="45.92618" lon="4.59125">
        <ele>377.2</ele>
        <time>2014-09-28T12:32:56Z</time>
      </trkpt>
      <trkpt lat="45.9261" lon="4.59122">
        <ele>377.2</ele>
        <time>2014-09-28T12:33:03Z</time>
      </trkpt>
      <trkpt lat="45.92609" lon="4.59122">
        <ele>377.2</ele>
        <time>2014-09-28T12:33:04Z</time>
      </trkpt>
      <trkpt lat="45.92594" lon="4.5911">
        <ele>377.1</ele>
        <time>2014-09-28T12:33:23Z</time>
      </trkpt>
      <trkpt lat="45.92587" lon="4.59106">
        <ele>377</ele>
        <time>2014-09-28T12:33:30Z</time>
      </trkpt>
      <trkpt lat="45.92579" lon="4.591">
        <ele>376.7</ele>
        <time>2014-09-28T12:33:38Z</time>
      </trkpt>
      <trkpt lat="45.92571" lon="4.59096">
        <ele>376.7</ele>
        <time>2014-09-28T12:33:48Z</time>
      </trkpt>
      <trkpt lat="45.92563" lon="4.59091">
        <ele>376.3</ele>
        <time>2014-09-28T12:33:59Z</time>
      </trkpt>
      <trkpt lat="45.92555" lon="4.59085">
        <ele>376.2</ele>
        <time>2014-09-28T12:34:06Z</time>
      </trkpt>
      <trkpt lat="45.92554" lon="4.59084">
        <ele>376.2</ele>
        <time>2014-09-28T12:34:07Z</time>
      </trkpt>
      <trkpt lat="45.92541" lon="4.59074">
        <ele>375.6</ele>
        <time>2014-09-28T12:34:18Z</time>
      </trkpt>
      <trkpt lat="45.92534" lon="4.59066">
        <ele>375.1</ele>
        <time>2014-09-28T12:34:25Z</time>
      </trkpt>
      <trkpt lat="45.92528" lon="4.59058">
        <ele>374.7</ele>
        <time>2014-09-28T12:34:32Z</time>
      </trkpt>
      <trkpt lat="45.92522" lon="4.5905">
        <ele>374.5</ele>
        <time>2014-09-28T12:34:38Z</time>
      </trkpt>
      <trkpt lat="45.92517" lon="4.59041">
        <ele>374.2</ele>
        <time>2014-09-28T12:34:43Z</time>
      </trkpt>
      <trkpt lat="45.92512" lon="4.59033">
        <ele>373.7</ele>
        <time>2014-09-28T12:34:49Z</time>
      </trkpt>
      <trkpt lat="45.92505" lon="4.59024">
        <ele>373.6</ele>
        <time>2014-09-28T12:34:56Z</time>
      </trkpt>
      <trkpt lat="45.92499" lon="4.59017">
        <ele>373.5</ele>
        <time>2014-09-28T12:35:04Z</time>
      </trkpt>
      <trkpt lat="45.92493" lon="4.59009">
        <ele>373.3</ele>
        <time>2014-09-28T12:35:12Z</time>
      </trkpt>
      <trkpt lat="45.92492" lon="4.59009">
        <ele>373.3</ele>
        <time>2014-09-28T12:35:13Z</time>
      </trkpt>
      <trkpt lat="45.92481" lon="4.58994">
        <ele>373</ele>
        <time>2014-09-28T12:35:25Z</time>
      </trkpt>
      <trkpt lat="45.92476" lon="4.58985">
        <ele>372.2</ele>
        <time>2014-09-28T12:35:31Z</time>
      </trkpt>
      <trkpt lat="45.9247" lon="4.58976">
        <ele>371.1</ele>
        <time>2014-09-28T12:35:37Z</time>
      </trkpt>
      <trkpt lat="45.92463" lon="4.58968">
        <ele>370</ele>
        <time>2014-09-28T12:35:45Z</time>
      </trkpt>
      <trkpt lat="45.92457" lon="4.5896">
        <ele>369.2</ele>
        <time>2014-09-28T12:35:52Z</time>
      </trkpt>
      <trkpt lat="45.92453" lon="4.58949">
        <ele>368.7</ele>
        <time>2014-09-28T12:36:00Z</time>
      </trkpt>
      <trkpt lat="45.9245" lon="4.58938">
        <ele>368.1</ele>
        <time>2014-09-28T12:36:07Z</time>
      </trkpt>
      <trkpt lat="45.92446" lon="4.58926">
        <ele>367.3</ele>
        <time>2014-09-28T12:36:14Z</time>
      </trkpt>
      <trkpt lat="45.92446" lon="4.58925">
        <ele>367.2</ele>
        <time>2014-09-28T12:36:15Z</time>
      </trkpt>
      <trkpt lat="45.9244" lon="4.58905">
        <ele>366.7</ele>
        <time>2014-09-28T12:36:28Z</time>
      </trkpt>
      <trkpt lat="45.92436" lon="4.58894">
        <ele>366.6</ele>
        <time>2014-09-28T12:36:35Z</time>
      </trkpt>
      <trkpt lat="45.92432" lon="4.58883">
        <ele>366.7</ele>
        <time>2014-09-28T12:36:41Z</time>
      </trkpt>
      <trkpt lat="45.92428" lon="4.58871">
        <ele>367.1</ele>
        <time>2014-09-28T12:36:48Z</time>
      </trkpt>
      <trkpt lat="45.92424" lon="4.5886">
        <ele>367.3</ele>
        <time>2014-09-28T12:36:56Z</time>
      </trkpt>
      <trkpt lat="45.9242" lon="4.5885">
        <ele>367.7</ele>
        <time>2014-09-28T12:37:02Z</time>
      </trkpt>
      <trkpt lat="45.92416" lon="4.58839">
        <ele>368.2</ele>
        <time>2014-09-28T12:37:09Z</time>
      </trkpt>
      <trkpt lat="45.92411" lon="4.5883">
        <ele>368.5</ele>
        <time>2014-09-28T12:37:16Z</time>
      </trkpt>
      <trkpt lat="45.9241" lon="4.58829">
        <ele>368.5</ele>
        <time>2014-09-28T12:37:17Z</time>
      </trkpt>
      <trkpt lat="45.92402" lon="4.58809">
        <ele>368.6</ele>
        <time>2014-09-28T12:37:30Z</time>
      </trkpt>
      <trkpt lat="45.92398" lon="4.58798">
        <ele>368.2</ele>
        <time>2014-09-28T12:37:36Z</time>
      </trkpt>
      <trkpt lat="45.92393" lon="4.58788">
        <ele>368</ele>
        <time>2014-09-28T12:37:42Z</time>
      </trkpt>
      <trkpt lat="45.9239" lon="4.58778">
        <ele>367.7</ele>
        <time>2014-09-28T12:37:48Z</time>
      </trkpt>
      <trkpt lat="45.92386" lon="4.58767">
        <ele>367.6</ele>
        <time>2014-09-28T12:37:56Z</time>
      </trkpt>
      <trkpt lat="45.92384" lon="4.58755">
        <ele>367.3</ele>
        <time>2014-09-28T12:38:07Z</time>
      </trkpt>
      <trkpt lat="45.92379" lon="4.58744">
        <ele>367.5</ele>
        <time>2014-09-28T12:38:16Z</time>
      </trkpt>
      <trkpt lat="45.92373" lon="4.58735">
        <ele>367.8</ele>
        <time>2014-09-28T12:38:24Z</time>
      </trkpt>
      <trkpt lat="45.92372" lon="4.58733">
        <ele>367.8</ele>
        <time>2014-09-28T12:38:25Z</time>
      </trkpt>
      <trkpt lat="45.92359" lon="4.5872">
        <ele>367.2</ele>
        <time>2014-09-28T12:38:34Z</time>
      </trkpt>
      <trkpt lat="45.92352" lon="4.58713">
        <ele>366.8</ele>
        <time>2014-09-28T12:38:39Z</time>
      </trkpt>
      <trkpt lat="45.92346" lon="4.58707">
        <ele>366.6</ele>
        <time>2014-09-28T12:38:46Z</time>
      </trkpt>
      <trkpt lat="45.92338" lon="4.58701">
        <ele>366.2</ele>
        <time>2014-09-28T12:38:55Z</time>
      </trkpt>
      <trkpt lat="45.92332" lon="4.58692">
        <ele>366</ele>
        <time>2014-09-28T12:39:03Z</time>
      </trkpt>
      <trkpt lat="45.92328" lon="4.58681">
        <ele>365.7</ele>
        <time>2014-09-28T12:39:10Z</time>
      </trkpt>
      <trkpt lat="45.92323" lon="4.58671">
        <ele>365.6</ele>
        <time>2014-09-28T12:39:16Z</time>
      </trkpt>
      <trkpt lat="45.92316" lon="4.58663">
        <ele>364.7</ele>
        <time>2014-09-28T12:40:16Z</time>
      </trkpt>
      <trkpt lat="45.92316" lon="4.58662">
        <ele>364.7</ele>
        <time>2014-09-28T12:40:17Z</time>
      </trkpt>
      <trkpt lat="45.92304" lon="4.58647">
        <ele>364</ele>
        <time>2014-09-28T12:40:33Z</time>
      </trkpt>
      <trkpt lat="45.92298" lon="4.58638">
        <ele>363.7</ele>
        <time>2014-09-28T12:40:40Z</time>
      </trkpt>
      <trkpt lat="45.92291" lon="4.58631">
        <ele>363.5</ele>
        <time>2014-09-28T12:40:48Z</time>
      </trkpt>
      <trkpt lat="45.92284" lon="4.58624">
        <ele>363.7</ele>
        <time>2014-09-28T12:40:54Z</time>
      </trkpt>
      <trkpt lat="45.92278" lon="4.58616">
        <ele>364</ele>
        <time>2014-09-28T12:40:59Z</time>
      </trkpt>
      <trkpt lat="45.92271" lon="4.58608">
        <ele>364.2</ele>
        <time>2014-09-28T12:41:05Z</time>
      </trkpt>
      <trkpt lat="45.92264" lon="4.586">
        <ele>364.2</ele>
        <time>2014-09-28T12:41:11Z</time>
      </trkpt>
      <trkpt lat="45.92257" lon="4.58594">
        <ele>364.2</ele>
        <time>2014-09-28T12:41:17Z</time>
      </trkpt>
      <trkpt lat="45.92256" lon="4.58593">
        <ele>364.2</ele>
        <time>2014-09-28T12:41:18Z</time>
      </trkpt>
      <trkpt lat="45.92244" lon="4.58582">
        <ele>363.8</ele>
        <time>2014-09-28T12:41:30Z</time>
      </trkpt>
      <trkpt lat="45.92236" lon="4.58576">
        <ele>363.7</ele>
        <time>2014-09-28T12:41:38Z</time>
      </trkpt>
      <trkpt lat="45.92228" lon="4.58572">
        <ele>363.8</ele>
        <time>2014-09-28T12:41:46Z</time>
      </trkpt>
      <trkpt lat="45.92219" lon="4.58569">
        <ele>364.2</ele>
        <time>2014-09-28T12:41:55Z</time>
      </trkpt>
      <trkpt lat="45.92212" lon="4.58564">
        <ele>364.3</ele>
        <time>2014-09-28T12:42:03Z</time>
      </trkpt>
      <trkpt lat="45.92204" lon="4.58559">
        <ele>364.3</ele>
        <time>2014-09-28T12:42:10Z</time>
      </trkpt>
      <trkpt lat="45.92196" lon="4.58557">
        <ele>364.3</ele>
        <time>2014-09-28T12:42:15Z</time>
      </trkpt>
      <trkpt lat="45.92188" lon="4.58554">
        <ele>364.5</ele>
        <time>2014-09-28T12:42:22Z</time>
      </trkpt>
      <trkpt lat="45.92187" lon="4.58554">
        <ele>364.5</ele>
        <time>2014-09-28T12:42:23Z</time>
      </trkpt>
      <trkpt lat="45.92196" lon="4.58534">
        <ele>364.3</ele>
        <time>2014-09-28T12:42:41Z</time>
      </trkpt>
      <trkpt lat="45.92202" lon="4.58527">
        <ele>364.5</ele>
        <time>2014-09-28T12:42:47Z</time>
      </trkpt>
      <trkpt lat="45.92208" lon="4.5852">
        <ele>364.6</ele>
        <time>2014-09-28T12:42:54Z</time>
      </trkpt>
      <trkpt lat="45.92214" lon="4.58511">
        <ele>364.7</ele>
        <time>2014-09-28T12:43:03Z</time>
      </trkpt>
      <trkpt lat="45.92222" lon="4.58505">
        <ele>365</ele>
        <time>2014-09-28T12:43:11Z</time>
      </trkpt>
      <trkpt lat="45.92229" lon="4.58499">
        <ele>365</ele>
        <time>2014-09-28T12:43:18Z</time>
      </trkpt>
      <trkpt lat="45.92237" lon="4.58493">
        <ele>365.2</ele>
        <time>2014-09-28T12:43:26Z</time>
      </trkpt>
      <trkpt lat="45.92238" lon="4.58492">
        <ele>365.2</ele>
        <time>2014-09-28T12:43:27Z</time>
      </trkpt>
      <trkpt lat="45.92253" lon="4.58486">
        <ele>364.8</ele>
        <time>2014-09-28T12:43:42Z</time>
      </trkpt>
      <trkpt lat="45.92261" lon="4.58491">
        <ele>364.7</ele>
        <time>2014-09-28T12:43:50Z</time>
      </trkpt>
      <trkpt lat="45.92269" lon="4.58497">
        <ele>364.3</ele>
        <time>2014-09-28T12:44:00Z</time>
      </trkpt>
      <trkpt lat="45.92272" lon="4.58502">
        <ele>364.2</ele>
        <time>2014-09-28T12:44:08Z</time>
      </trkpt>
      <trkpt lat="45.92272" lon="4.58502">
        <ele>364.2</ele>
        <time>2014-09-28T12:44:08Z</time>
      </trkpt>
    </trkseg>
  </trk>
</gpx>